Provisional Data: Conodoguinet Creek near Schlusser, PA


Please select a monitoring station.
Please select start date.
Please select start date.

Toggle Unit: C/F Toggle Unit: C/F
Sample Time Temperature (C) Temperature (F) Specific Conductivity (mS/cm) pH   Turbidity (NTU+) DO (mg/L)
5/17/2022 12:00:00 AM 17.94 64.292 0.264 7.69 1315 8.37
5/17/2022 12:15:00 AM 17.91 64.238 0.265 7.69 1329 8.38
5/17/2022 12:30:00 AM 17.87 64.166 0.265 7.68 1332 8.39
5/17/2022 12:45:00 AM 17.83 64.094 0.265 7.69 1337 8.38
5/17/2022 1:00:00 AM 17.79 64.022 0.265 7.69 1343 8.38
5/17/2022 1:15:00 AM 17.74 63.932 0.256 7.69 1350 8.38
5/17/2022 1:30:00 AM 17.7 63.86 0.266 7.69 1355 8.38
5/17/2022 1:45:00 AM 17.66 63.788 0.266 7.69 1361 8.39
5/17/2022 2:00:00 AM 17.61 63.698 0.266 7.69 1364 8.4
5/17/2022 2:15:00 AM 17.56 63.608 0.266 7.69 1366 8.4
5/17/2022 2:30:00 AM 17.52 63.536 0.266 7.69 1370 8.41
5/17/2022 2:45:00 AM 17.47 63.446 0.267 7.69 1376 8.42
5/17/2022 3:00:00 AM 17.42 63.356 0.267 7.69 1379 8.43
5/17/2022 3:15:00 AM 17.38 63.284 0.267 7.69 1385 8.44
5/17/2022 3:30:00 AM 17.33 63.194 0.267 7.69 1389 8.43
5/17/2022 3:45:00 AM 17.28 63.104 0.268 7.69 1398 8.45
5/17/2022 4:00:00 AM 17.23 63.014 0.268 7.69 1405 8.46
5/17/2022 4:15:00 AM 17.18 62.924 0.268 7.69 1405 8.46
5/17/2022 4:30:00 AM 17.14 62.852 0.269 7.69 1409 8.47
5/17/2022 4:45:00 AM 17.08 62.744 0.269 7.69 1415 8.49
5/17/2022 5:00:00 AM 17.03 62.654 0.249 7.7 1419 8.5
5/17/2022 5:15:00 AM 16.98 62.564 0.253 7.7 1420 8.5
5/17/2022 5:30:00 AM 16.92 62.456 0.271 7.7 1422 8.5
5/17/2022 5:45:00 AM 16.86 62.348 0.271 7.7 1432 8.52
5/17/2022 6:00:00 AM 16.81 62.258 0.272 7.7 1437 8.55
5/17/2022 6:15:00 AM 16.76 62.168 0.273 7.7 1441 8.56
5/17/2022 6:30:00 AM 16.71 62.078 0.273 7.71 1446 8.56
5/17/2022 6:45:00 AM 16.66 61.988 0.274 7.71 1451 8.58
5/17/2022 7:00:00 AM 16.62 61.916 0.274 7.71 1454 8.6
5/17/2022 7:15:00 AM 16.58 61.844 0.275 7.71 1455 8.62
5/17/2022 7:30:00 AM 16.54 61.772 0.276 7.72 1459 8.63
5/17/2022 7:45:00 AM 16.51 61.718 0.276 7.72 1458 8.66
5/17/2022 8:00:00 AM 16.49 61.682 0.277 7.72 1462 8.68
5/17/2022 8:15:00 AM 16.47 61.646 0.277 7.73 1467 8.69
5/17/2022 8:30:00 AM 16.45 61.61 0.278 7.73 1470 8.72
5/17/2022 8:45:00 AM 16.44 61.592 0.279 7.73 1466 8.76
5/17/2022 9:00:00 AM 16.44 61.592 0.279 7.73 1470 8.78
5/17/2022 9:15:00 AM 16.45 61.61 0.275 7.74 1468 8.81
5/17/2022 9:30:00 AM 16.45 61.61 0.27 7.75 1469 8.84
5/17/2022 9:45:00 AM 16.47 61.646 0.28 7.75 1472 8.85
5/17/2022 10:00:00 AM 16.49 61.682 0.264 7.76 1471 8.89
5/17/2022 10:15:00 AM 16.52 61.736 0.245 7.76 1475 8.92
5/17/2022 10:30:00 AM 16.55 61.79 0.283 7.76 1479 8.92
5/17/2022 10:45:00 AM 16.58 61.844 0.284 7.77 1477 8.97
5/17/2022 11:00:00 AM 16.64 61.952 0.285 7.77 1477 8.99
5/17/2022 11:15:00 AM 16.68 62.024 0.285 7.78 1476 9.02
5/17/2022 11:30:00 AM 16.75 62.15 0.262 7.79 1472 9.03
5/17/2022 11:45:00 AM 16.81 62.258 0.287 7.79 1474 9.08
5/17/2022 12:00:00 PM 16.91 62.438 0.287 7.8 1473 9.09
5/17/2022 12:15:00 PM 16.96 62.528 0.288 7.8 1475 9.09
5/17/2022 12:30:00 PM 17.02 62.636 0.289 7.81 1476 9.12
5/17/2022 12:45:00 PM 17.13 62.834 0.289 7.81 1476 9.15
5/17/2022 1:00:00 PM 17.2 62.96 0.275 7.82 1475 9.15
5/17/2022 1:15:00 PM 17.31 63.158 0.274 7.83 1474 9.17
5/17/2022 1:30:00 PM 17.38 63.284 0.29 7.83 1475 9.22
5/17/2022 1:45:00 PM 17.43 63.374 0.29 7.84 1475 9.21
5/17/2022 2:00:00 PM 17.49 63.482 0.291 7.84 1474 9.22
5/17/2022 2:15:00 PM 17.66 63.788 0.293 7.85 1474 9.22
5/17/2022 2:30:00 PM 17.74 63.932 0.27 7.86 1475 9.28
5/17/2022 2:45:00 PM 17.9 64.22 0.275 7.87 1471 9.31
5/17/2022 3:00:00 PM 17.95 64.31 0.275 7.88 1472 9.33
5/17/2022 3:15:00 PM 18.07 64.526 0.29 7.89 1469 9.35
5/17/2022 3:30:00 PM 18.2 64.76 0.288 7.9 1466 9.4
5/17/2022 3:45:00 PM 18.31 64.958 0.29 7.91 1468 9.4
5/17/2022 4:00:00 PM 18.38 65.084 0.295 7.92 1467 9.41
5/17/2022 4:15:00 PM 18.46 65.228 0.295 7.93 1469 9.46
5/17/2022 4:30:00 PM 18.53 65.354 0.296 7.93 1468 9.47
5/17/2022 4:45:00 PM 18.61 65.498 0.297 7.94 1467 9.45
5/17/2022 5:00:00 PM 18.59 65.462 0.298 7.95 1468 9.48
5/17/2022 5:15:00 PM 18.58 65.444 0.296 7.95 1468 9.47
5/17/2022 5:30:00 PM 18.6 65.48 0.295 7.96 1469 9.45
5/17/2022 5:45:00 PM 18.6 65.48 0.297 7.96 1469 9.41
5/17/2022 6:00:00 PM 18.54 65.372 0.298 7.96 1470 9.36
5/17/2022 6:15:00 PM 18.51 65.318 0.299 7.96 1469 9.3
5/17/2022 6:30:00 PM 18.45 65.21 0.3 7.95 1473 9.26
5/17/2022 6:45:00 PM 18.39 65.102 0.301 7.95 1473 9.18
5/17/2022 7:00:00 PM 18.36 65.048 0.302 7.95 1476 9.13
5/17/2022 7:15:00 PM 18.32 64.976 0.301 7.94 1475 9.07
5/17/2022 7:30:00 PM 18.29 64.922 0.302 7.94 1475 9.01
5/17/2022 7:45:00 PM 18.27 64.886 0.302 7.93 1476 8.96
5/17/2022 8:00:00 PM 18.25 64.85 0.303 7.93 1479 8.93
5/17/2022 8:15:00 PM 18.24 64.832 0.302 7.93 1478 8.9
5/17/2022 8:30:00 PM 18.22 64.796 0.303 7.92 1477 8.88
5/17/2022 8:45:00 PM 18.18 64.724 0.279 7.93 1480 8.85
5/17/2022 9:00:00 PM 18.17 64.706 0.252 7.92 1483 8.84
5/17/2022 9:15:00 PM 18.15 64.67 0.287 7.92 1485 8.82
5/17/2022 9:30:00 PM 18.11 64.598 0.295 7.92 1485 8.8
5/17/2022 9:45:00 PM 18.08 64.544 0.301 7.92 1485 8.82
5/17/2022 10:00:00 PM 18.04 64.472 0.275 7.92 1484 8.8
5/17/2022 10:15:00 PM 18 64.4 0.306 7.92 1476 8.8
5/17/2022 10:30:00 PM 17.97 64.346 0.307 7.91 1479 8.79
5/17/2022 10:45:00 PM 17.93 64.274 0.307 7.91 1474 8.8
5/17/2022 11:00:00 PM 17.89 64.202 0.308 7.91 1485 8.79
5/17/2022 11:15:00 PM 17.86 64.148 0.308 7.91 1488 8.79
5/17/2022 11:30:00 PM 17.82 64.076 0.309 7.91 1489 8.79
5/17/2022 11:45:00 PM 17.77 63.986 0.309 7.9 1489 8.78
5/18/2022 12:00:00 AM 17.73 63.914 0.309 7.9 1491 8.78
5/18/2022 12:15:00 AM 17.7 63.86 0.31 7.9 1490 8.77
5/18/2022 12:30:00 AM 17.64 63.752 0.31 7.89 1491 8.75
5/18/2022 12:45:00 AM 17.61 63.698 0.311 7.89 1490 8.77
5/18/2022 1:00:00 AM 17.57 63.626 0.311 7.89 1498 8.74
5/18/2022 1:15:00 AM 17.53 63.554 0.311 7.88 1494 8.73
5/18/2022 1:30:00 AM 17.49 63.482 0.311 7.88 1496 8.72
5/18/2022 1:45:00 AM 17.44 63.392 0.311 7.88 1500 8.71
5/18/2022 2:00:00 AM 17.4 63.32 0.312 7.87 1495 8.7
5/18/2022 2:15:00 AM 17.37 63.266 0.312 7.87 1496 8.69
5/18/2022 2:30:00 AM 17.33 63.194 0.315 7.87 1498 8.7
5/18/2022 2:45:00 AM 17.27 63.086 0.319 7.87 1498 8.67
5/18/2022 3:00:00 AM 17.24 63.032 0.318 7.86 1499 8.69
5/18/2022 3:15:00 AM 17.2 62.96 0.313 7.86 1500 8.67
5/18/2022 3:30:00 AM 17.16 62.888 0.313 7.86 1501 8.66
5/18/2022 3:45:00 AM 17.11 62.798 0.313 7.86 1500 8.66
5/18/2022 4:00:00 AM 17.08 62.744 0.313 7.85 1502 8.66
5/18/2022 4:15:00 AM 17.04 62.672 0.313 7.85 1504 8.65
5/18/2022 4:30:00 AM 17 62.6 0.314 7.85 1507 8.65
5/18/2022 4:45:00 AM 16.95 62.51 0.314 7.85 1510 8.64
5/18/2022 5:00:00 AM 16.91 62.438 0.314 7.84 1512 8.64
5/18/2022 5:15:00 AM 16.87 62.366 0.315 7.84 1510 8.64
5/18/2022 5:30:00 AM 16.83 62.294 0.315 7.84 1513 8.64
5/18/2022 5:45:00 AM 16.78 62.204 0.315 7.84 1517 8.63
5/18/2022 6:00:00 AM 16.73 62.114 0.315 7.84 1518 8.63
5/18/2022 6:15:00 AM 16.68 62.024 0.315 7.84 1535 8.64
5/18/2022 6:30:00 AM 16.64 61.952 0.316 7.84 1542 8.66
5/18/2022 6:45:00 AM 16.6 61.88 0.316 7.84 1549 8.67
5/18/2022 7:00:00 AM 16.56 61.808 0.316 7.84 1549 8.69
5/18/2022 7:15:00 AM 16.53 61.754 0.316 7.84 1551 8.69
5/18/2022 7:30:00 AM 16.51 61.718 0.315 7.84 1558 8.75
5/18/2022 7:45:00 AM 16.48 61.664 0.317 7.84 1569 8.76
5/18/2022 8:00:00 AM 16.46 61.628 0.317 7.84 1573 8.76
5/18/2022 8:15:00 AM 16.44 61.592 0.317 7.85 1576 8.81
5/18/2022 8:30:00 AM 16.43 61.574 0.318 7.85 1578 8.83
5/18/2022 8:45:00 AM 16.42 61.556 0.312 7.85 1578 8.86
5/18/2022 9:00:00 AM 16.41 61.538 0.318 7.85 1582 8.89
5/18/2022 9:15:00 AM 16.41 61.538 0.319 7.85 1584 8.93
5/18/2022 9:30:00 AM 16.41 61.538 0.318 7.86 1581 8.98
5/18/2022 9:45:00 AM 16.41 61.538 0.319 7.87 1584 9.03
5/18/2022 10:00:00 AM 16.41 61.538 0.319 7.87 1580 9.05
5/18/2022 10:15:00 AM 16.43 61.574 0.32 7.88 1580 9.13
5/18/2022 10:30:00 AM 16.45 61.61 0.312 7.88 1580 9.17
5/18/2022 10:45:00 AM 16.49 61.682 0.32 7.88 1580 9.22
5/18/2022 11:00:00 AM 16.52 61.736 0.318 7.89 1583 9.26
5/18/2022 11:15:00 AM 16.58 61.844 0.321 7.9 1584 9.3
5/18/2022 11:30:00 AM 16.65 61.97 0.321 7.9 1583 9.34
5/18/2022 11:45:00 AM 16.72 62.096 0.322 7.91 1581 9.37
5/18/2022 12:00:00 PM 16.81 62.258 0.322 7.91 1579 9.42
5/18/2022 12:15:00 PM 16.9 62.42 0.323 7.92 1580 9.45
5/18/2022 12:30:00 PM 17 62.6 0.323 7.93 1579 9.48
5/18/2022 12:45:00 PM 17.13 62.834 0.323 7.93 1576 9.51
5/18/2022 1:00:00 PM 17.25 63.05 0.323 7.94 1568 9.54
5/18/2022 1:15:00 PM 17.39 63.302 0.324 7.94 1571 9.57
5/18/2022 1:30:00 PM 17.52 63.536 0.324 7.95 1561 9.6
5/18/2022 1:45:00 PM 17.62 63.716 0.325 7.96 1571 9.61
5/18/2022 2:00:00 PM 17.76 63.968 0.325 7.96 1572 9.65
5/18/2022 2:15:00 PM 17.89 64.202 0.325 7.97 1587 9.71
5/18/2022 2:30:00 PM 17.93 64.274 0.325 7.98 1642 9.7
5/18/2022 2:45:00 PM 17.86 64.148 0.325 7.98 1659 9.66
5/18/2022 3:00:00 PM 17.84 64.112 0.326 7.98 1667 9.65
5/18/2022 3:15:00 PM 17.82 64.076 0.326 7.99 1670 9.63
5/18/2022 3:30:00 PM 17.8 64.04 0.326 7.99 1671 9.58
5/18/2022 3:45:00 PM 17.84 64.112 0.326 8 1673 9.56
5/18/2022 4:00:00 PM 17.88 64.184 0.326 8 1676 9.56
5/18/2022 4:15:00 PM 17.87 64.166 0.326 8 1685 9.52
5/18/2022 4:30:00 PM 17.87 64.166 0.326 8 1682 9.46
5/18/2022 4:45:00 PM 17.87 64.166 0.326 8 1663 9.46
5/18/2022 5:00:00 PM 17.84 64.112 0.319 8 1683 9.4
5/18/2022 5:15:00 PM 17.82 64.076 0.327 7.99 1688 9.3
5/18/2022 5:30:00 PM 17.82 64.076 0.327 7.99 1695 9.26
5/18/2022 5:45:00 PM 17.83 64.094 0.327 7.99 1705 9.22
5/18/2022 6:00:00 PM 17.85 64.13 0.328 7.99 1707 9.19
5/18/2022 6:15:00 PM 17.89 64.202 0.328 7.99 1701 9.22
5/18/2022 6:30:00 PM 17.94 64.292 0.328 8 1707 9.23
5/18/2022 6:45:00 PM 17.96 64.328 0.324 8 1709 9.23
5/18/2022 7:00:00 PM 17.97 64.346 0.329 8 1716 9.22
5/18/2022 7:15:00 PM 17.99 64.382 0.329 8.01 1714 9.23
5/18/2022 7:30:00 PM 17.99 64.382 0.329 8.01 1718 9.2
5/18/2022 7:45:00 PM 17.99 64.382 0.33 8.01 1719 9.17
5/18/2022 8:00:00 PM 17.98 64.364 0.33 8 1722 9.11
5/18/2022 8:15:00 PM 17.97 64.346 0.331 8 1716 9.07
5/18/2022 8:30:00 PM 17.95 64.31 0.331 8 1723 9.05
5/18/2022 8:45:00 PM 17.92 64.256 0.331 7.99 1733 9.03
5/18/2022 9:00:00 PM 17.89 64.202 0.331 7.99 1725 8.99
5/18/2022 9:15:00 PM 17.86 64.148 0.332 7.99 1733 8.96
5/18/2022 9:30:00 PM 17.83 64.094 0.332 7.98 1745 8.97
5/18/2022 9:45:00 PM 17.8 64.04 0.332 7.98 1741 8.96
5/18/2022 10:00:00 PM 17.76 63.968 0.332 7.98 1755 8.95
5/18/2022 10:15:00 PM 17.72 63.896 0.332 7.98 1758 8.93
5/18/2022 10:30:00 PM 17.68 63.824 0.332 7.97 1761 8.92
5/18/2022 10:45:00 PM 17.64 63.752 0.333 7.97 1765 8.92
5/18/2022 11:00:00 PM 17.6 63.68 0.31 7.97 1772 8.92
5/18/2022 11:15:00 PM 17.57 63.626 0.327 7.96 1776 8.92
5/18/2022 11:30:00 PM 17.53 63.554 0.333 7.96 1783 8.89
5/18/2022 11:45:00 PM 17.48 63.464 0.311 7.95 1811 8.87
5/19/2022 12:00:00 AM 17.44 63.392 0.332 7.95 1819 8.84
5/19/2022 12:15:00 AM 17.38 63.284 0.332 7.94 1825 8.83
5/19/2022 12:30:00 AM 17.35 63.23 0.334 7.94 1827 8.81
5/19/2022 12:45:00 AM 17.3 63.14 0.331 7.94 1844 8.83
5/19/2022 1:00:00 AM 17.25 63.05 0.331 7.93 1842 8.79
5/19/2022 1:15:00 AM 17.2 62.96 0.328 7.93 1847 8.78
5/19/2022 1:30:00 AM 17.16 62.888 0.331 7.92 1874 8.78
5/19/2022 1:45:00 AM 17.11 62.798 0.332 7.92 1878 8.75
5/19/2022 2:00:00 AM 17.08 62.744 0.332 7.91 1887 8.73
5/19/2022 2:15:00 AM 17.05 62.69 0.332 7.91 1897 8.73
5/19/2022 2:30:00 AM 17.01 62.618 0.332 7.91 1895 8.73
5/19/2022 2:45:00 AM 16.99 62.582 0.309 7.9 1900 8.72
5/19/2022 3:00:00 AM 16.95 62.51 0.318 7.9 1901 8.71
5/19/2022 3:15:00 AM 16.93 62.474 0.324 7.89 1903 8.69
5/19/2022 3:30:00 AM 16.91 62.438 0.326 7.89 1906 8.68
5/19/2022 3:45:00 AM 16.88 62.384 0.333 7.88 1983 8.67
5/19/2022 4:00:00 AM 16.86 62.348 0.336 7.88 1936 8.66
5/19/2022 4:15:00 AM 16.84 62.312 0.336 7.88 1917 8.65
5/19/2022 4:30:00 AM 16.82 62.276 0.337 7.88 1908 8.64
5/19/2022 4:45:00 AM 16.81 62.258 0.337 7.87 2086 8.64
5/19/2022 5:00:00 AM 16.79 62.222 0.337 7.87 2011 8.63
5/19/2022 5:15:00 AM 16.76 62.168 0.337 7.87 1920 8.63
5/19/2022 5:30:00 AM 16.75 62.15 0.337 7.87 1922 8.63
5/19/2022 5:45:00 AM 16.72 62.096 0.337 7.86 1927 8.63
5/19/2022 6:00:00 AM 16.7 62.06 0.337 7.86 1977 8.6
5/19/2022 6:15:00 AM 16.67 62.006 0.337 7.86 1933 8.61
5/19/2022 6:30:00 AM 16.65 61.97 0.335 7.86 1938 8.61
5/19/2022 6:45:00 AM 16.63 61.934 0.337 7.86 1941 8.61
5/19/2022 7:00:00 AM 16.6 61.88 0.337 7.86 2030 8.6
5/19/2022 7:15:00 AM 16.58 61.844 0.337 7.86 2114 8.62
5/19/2022 7:30:00 AM 16.56 61.808 0.337 7.86 2023 8.64
5/19/2022 7:45:00 AM 16.54 61.772 0.337 7.86 2048 8.66
5/19/2022 8:00:00 AM 16.53 61.754 0.332 7.86 2054 8.66
5/19/2022 8:15:00 AM 16.51 61.718 0.33 7.86 2043 8.69
5/19/2022 8:30:00 AM 16.49 61.682 0.319 7.86 2058 8.71
5/19/2022 8:45:00 AM 16.48 61.664 0.33 7.85 2071 8.74
5/19/2022 9:00:00 AM 16.47 61.646 0.33 7.86 2074 8.75
5/19/2022 9:15:00 AM 16.46 61.628 0.331 7.86 2082 8.77
5/19/2022 9:30:00 AM 16.46 61.628 0.33 7.86 2260 8.8
5/19/2022 9:45:00 AM 16.49 61.682 0.33 7.87 2056 8.86
5/19/2022 10:00:00 AM 16.51 61.718 0.331 7.86 2108 8.92
5/19/2022 10:15:00 AM 16.51 61.718 0.331 7.87 2109 8.97
5/19/2022 10:30:00 AM 16.53 61.754 0.331 7.87 2112 9
5/19/2022 10:45:00 AM 16.56 61.808 0.332 7.87 2152 9.05
5/19/2022 11:00:00 AM 16.59 61.862 0.332 7.88 2113 9.08
5/19/2022 11:15:00 AM 16.61 61.898 0.331 7.89 2117 9.12
5/19/2022 11:30:00 AM 16.69 62.042 0.339 7.89 2119 9.17
5/19/2022 11:45:00 AM 16.75 62.15 0.339 7.9 2112 9.23
5/19/2022 12:00:00 PM 16.82 62.276 0.334 7.91 2117 9.22
5/19/2022 12:15:00 PM 16.92 62.456 0.339 7.91 2119 9.28
5/19/2022 12:30:00 PM 17.03 62.654 0.339 7.92 2116 9.31
5/19/2022 12:45:00 PM 17.12 62.816 0.339 7.92 2120 9.33
5/19/2022 1:00:00 PM 17.25 63.05 0.34 7.92 2117 9.36
5/19/2022 1:15:00 PM 17.39 63.302 0.34 7.93 2229 9.39
5/19/2022 1:30:00 PM 17.51 63.518 0.34 7.93 2112 9.4
5/19/2022 1:45:00 PM 17.52 63.536 0.34 7.93 2111 9.37
5/19/2022 2:00:00 PM 17.62 63.716 0.34 7.94 2087 9.39
5/19/2022 2:15:00 PM 17.59 63.662 0.34 7.94 2372 9.33
5/19/2022 2:30:00 PM 17.78 64.004 0.34 7.95 2580 9.36
5/19/2022 2:45:00 PM 17.9 64.22 0.339 7.95 2593 9.36
5/19/2022 3:00:00 PM 17.94 64.292 0.32 7.95 2740 9.32
5/19/2022 3:15:00 PM 18.08 64.544 0.339 7.96 2751 9.35
5/19/2022 3:30:00 PM 18.22 64.796 0.331 7.96 2755 9.39
5/19/2022 3:45:00 PM 18.32 64.976 0.336 7.96 2761 9.37
5/19/2022 4:00:00 PM 18.42 65.156 0.335 7.97 2760 9.44
5/19/2022 4:15:00 PM 18.53 65.354 0.335 7.99 2757 9.53
5/19/2022 4:30:00 PM 18.56 65.408 0.338 8 2798 9.55
5/19/2022 4:45:00 PM 18.61 65.498 0.338 8 2812 9.51
5/19/2022 5:00:00 PM 18.64 65.552 0.337 8 2824 9.49
5/19/2022 5:15:00 PM 18.68 65.624 0.337 8.01 2845 9.48
5/19/2022 5:30:00 PM 18.67 65.606 0.336 8.01 2860 9.46
5/19/2022 5:45:00 PM 18.64 65.552 0.336 8.01 2872 9.41
5/19/2022 6:00:00 PM 18.62 65.516 0.335 8.01 2909 9.33
5/19/2022 6:15:00 PM 18.56 65.408 0.335 8 2968 9.28
5/19/2022 6:30:00 PM 18.54 65.372 0.335 8 2980 9.25
5/19/2022 6:45:00 PM 18.54 65.372 0.335 8 2988 9.18
5/19/2022 7:00:00 PM 18.53 65.354 0.335 7.99 3006 9.14
5/19/2022 7:15:00 PM 18.51 65.318 0.335 7.99 3113 9.09
5/19/2022 7:30:00 PM 18.49 65.282 0.335 7.99 3269 9.05
5/19/2022 7:45:00 PM 18.45 65.21 0.335 7.98 3286 9.02
5/19/2022 8:00:00 PM 18.42 65.156 0.334 7.98 3307 8.97
5/19/2022 8:15:00 PM 18.39 65.102 0.334 7.97 3317 8.96
5/19/2022 8:30:00 PM 18.34 65.012 0.334 7.97 3347 8.93
5/19/2022 8:45:00 PM 18.3 64.94 0.334 7.96 3370 8.89
5/19/2022 9:00:00 PM 18.25 64.85 0.334 7.96 3375 8.88
5/19/2022 9:15:00 PM 18.21 64.778 0.334 7.95 3387 8.86
5/19/2022 9:30:00 PM 18.17 64.706 0.334 7.94 3395 8.85
5/19/2022 9:45:00 PM 18.13 64.634 0.334 7.94 3426 8.84
5/19/2022 10:00:00 PM 18.09 64.562 0.327 7.93 3445 8.85
5/19/2022 10:15:00 PM 18.04 64.472 0.328 7.93 3475 8.85
5/19/2022 10:30:00 PM 17.98 64.364 0.326 7.92 3475 8.85
5/19/2022 10:45:00 PM 17.93 64.274 0.326 7.92 3489 8.84
5/19/2022 11:00:00 PM 17.88 64.184 0.326 7.92 3507 8.83
5/19/2022 11:15:00 PM 17.83 64.094 0.326 7.91 3530 8.82
5/19/2022 11:30:00 PM 17.79 64.022 0.326 7.91 3549 8.82
5/19/2022 11:45:00 PM 17.74 63.932 0.324 7.9 3561 8.8
5/20/2022 12:00:00 AM 17.71 63.878 0.324 7.9 3562 8.79
5/20/2022 12:15:00 AM 17.67 63.806 0.324 7.9 3572 8.78
5/20/2022 12:30:00 AM 17.64 63.752 0.32 7.89 3571 8.76
5/20/2022 12:45:00 AM 17.6 63.68 0.323 7.89 3543 8.76
5/20/2022 1:00:00 AM 17.57 63.626 0.323 7.88 3586 8.74
5/20/2022 1:15:00 AM 17.53 63.554 0.322 7.88 3618 8.74
5/20/2022 1:30:00 AM 17.51 63.518 0.322 7.87 3630 8.71
5/20/2022 1:45:00 AM 17.48 63.464 0.323 7.87 3639 8.7
5/20/2022 2:00:00 AM 17.46 63.428 0.321 7.87 3623 8.68
5/20/2022 2:15:00 AM 17.44 63.392 0.328 7.87 3652 8.67
5/20/2022 2:30:00 AM 17.42 63.356 0.328 7.86 3658 8.66
5/20/2022 2:45:00 AM 17.39 63.302 0.327 7.86 3669 8.64
5/20/2022 3:00:00 AM 17.37 63.266 0.327 7.85 3665 8.64
5/20/2022 3:15:00 AM 17.35 63.23 0.327 7.85 3652 8.62
5/20/2022 3:30:00 AM 17.33 63.194 0.326 7.85 3688 8.61
5/20/2022 3:45:00 AM 17.3 63.14 0.326 7.84 3693 8.6
5/20/2022 4:00:00 AM 17.28 63.104 0.325 7.84 3724 8.61
5/20/2022 4:15:00 AM 17.26 63.068 0.325 7.84 3679 8.61
5/20/2022 4:30:00 AM 17.23 63.014 0.325 7.83 3638 8.59
5/20/2022 4:45:00 AM 17.21 62.978 0.324 7.83 3742 8.59
5/20/2022 5:00:00 AM 17.2 62.96 0.324 7.83 3753 8.58
5/20/2022 5:15:00 AM 17.17 62.906 0.324 7.82 3650 8.57
5/20/2022 5:30:00 AM 17.15 62.87 0.323 7.83 3667 8.57
5/20/2022 5:45:00 AM 17.14 62.852 0.323 7.82 3724 8.58
5/20/2022 6:00:00 AM 17.12 62.816 0.323 7.82 3756 8.57
5/20/2022 6:15:00 AM 17.11 62.798 0.323 7.82 3756 8.53
5/20/2022 6:30:00 AM 17.1 62.78 0.323 7.82 3763 8.56
5/20/2022 6:45:00 AM 17.09 62.762 0.323 7.82 3767 8.58
5/20/2022 7:00:00 AM 17.08 62.744 0.323 7.82 3771 8.58
5/20/2022 7:15:00 AM 17.07 62.726 0.323 7.82 4164 8.57
5/20/2022 7:30:00 AM 17.06 62.708 0.323 7.82 4290 8.58
5/20/2022 7:45:00 AM 17.06 62.708 0.323 7.82 4401 8.58
5/20/2022 8:00:00 AM 17.07 62.726 0.323 7.82 4438 8.6
5/20/2022 8:15:00 AM 17.08 62.744 0.324 7.82 4496 8.56
5/20/2022 8:30:00 AM 17.08 62.744 0.324 7.82 4470 8.62
5/20/2022 8:45:00 AM 17.08 62.744 0.325 7.82 4489 8.66
5/20/2022 9:00:00 AM 17.09 62.762 0.325 7.83 4513 8.66
5/20/2022 9:15:00 AM 17.1 62.78 0.326 7.83 4524 8.69
5/20/2022 9:30:00 AM 17.12 62.816 0.326 7.83 4540 8.71
5/20/2022 9:45:00 AM 17.15 62.87 0.327 7.83 4538 8.75
5/20/2022 10:00:00 AM 17.19 62.942 0.327 7.84 4537 8.77
5/20/2022 10:15:00 AM 17.19 62.942 0.328 7.84 4550 8.81
5/20/2022 10:30:00 AM 17.23 63.014 0.328 7.85 4570 8.87
5/20/2022 10:45:00 AM 17.28 63.104 0.328 7.85 4571 8.93
5/20/2022 11:00:00 AM 17.3 63.14 0.329 7.86 4581 8.98
5/20/2022 11:15:00 AM 17.37 63.266 0.329 7.87 4584 9.02
5/20/2022 11:30:00 AM 17.42 63.356 0.329 7.87 4586 9.07
5/20/2022 11:45:00 AM 17.45 63.41 0.329 7.88 4581 9.08
5/20/2022 12:00:00 PM 17.48 63.464 0.329 7.88 4608 9.11
5/20/2022 12:15:00 PM 17.57 63.626 0.329 7.88 4547 9.16
5/20/2022 12:30:00 PM 17.54 63.572 0.329 7.88 4560 9.14
5/20/2022 12:45:00 PM 17.6 63.68 0.329 7.88 4561 9.13
5/20/2022 1:00:00 PM 17.62 63.716 0.329 7.89 4563 9.12
5/20/2022 1:15:00 PM 17.62 63.716 0.329 7.88 4562 9.11
5/20/2022 1:30:00 PM 17.61 63.698 0.327 7.88 4593 9.07
5/20/2022 1:45:00 PM 17.61 63.698 0.319 7.88 4580 9.01
5/20/2022 2:00:00 PM 17.65 63.77 0.324 7.87 4596 8.93
5/20/2022 2:15:00 PM 17.64 63.752 0.324 7.86 4595 8.95
5/20/2022 2:30:00 PM 17.62 63.716 0.324 7.87 4609 8.89
5/20/2022 2:45:00 PM 17.63 63.734 0.324 7.87 4592 8.9
5/20/2022 3:00:00 PM 17.65 63.77 0.324 7.87 4601 8.92
5/20/2022 3:15:00 PM 17.75 63.95 0.324 7.88 4596 8.96
5/20/2022 3:30:00 PM 17.77 63.986 0.325 7.88 4592 8.97
5/20/2022 3:45:00 PM 17.82 64.076 0.324 7.89 4587 9.02
5/20/2022 4:00:00 PM 17.85 64.13 0.324 7.9 4591 9.1
5/20/2022 4:15:00 PM 17.92 64.256 0.324 7.91 4596 9.17
5/20/2022 4:30:00 PM 17.98 64.364 0.325 7.92 4586 9.2
5/20/2022 4:45:00 PM 18.02 64.436 0.325 7.93 4583 9.19
5/20/2022 5:00:00 PM 18.11 64.598 0.325 7.94 4598 9.26
5/20/2022 5:15:00 PM 18.14 64.652 0.325 7.94 4602 9.3
5/20/2022 5:30:00 PM 18.17 64.706 0.325 7.95 4596 9.33
5/20/2022 5:45:00 PM 18.26 64.868 0.325 7.96 4588 9.35
5/20/2022 6:00:00 PM 18.3 64.94 0.325 7.96 4588 9.34
5/20/2022 6:15:00 PM 18.29 64.922 0.325 7.97 4589 9.32
5/20/2022 6:30:00 PM 18.29 64.922 0.325 7.97 4591 9.29
5/20/2022 6:45:00 PM 18.3 64.94 0.325 7.96 4583 9.28
5/20/2022 7:00:00 PM 18.26 64.868 0.325 7.96 4595 9.18
5/20/2022 7:15:00 PM 18.21 64.778 0.325 7.95 4593 9.13
5/20/2022 7:30:00 PM 18.19 64.742 0.326 7.94 4607 9.05
5/20/2022 7:45:00 PM 18.15 64.67 0.326 7.94 4607 8.99
5/20/2022 8:00:00 PM 18.12 64.616 0.326 7.93 4611 8.94
5/20/2022 8:15:00 PM 18.09 64.562 0.326 7.92 4619 8.88
5/20/2022 8:30:00 PM 18.06 64.508 0.326 7.92 4620 8.84
5/20/2022 8:45:00 PM 18.04 64.472 0.326 7.91 4638 8.82
5/20/2022 9:00:00 PM 18.02 64.436 0.327 7.9 4655 8.8
5/20/2022 9:15:00 PM 18.01 64.418 0.327 7.9 4660 8.76
5/20/2022 9:30:00 PM 17.99 64.382 0.327 7.9 4676 8.74
5/20/2022 9:45:00 PM 17.98 64.364 0.327 7.89 4668 8.74
5/20/2022 10:00:00 PM 17.97 64.346 0.327 7.89 4687 8.71
5/20/2022 10:15:00 PM 17.96 64.328 0.327 7.89 4685 8.73
5/20/2022 10:30:00 PM 17.95 64.31 0.327 7.89 4690 8.72
5/20/2022 10:45:00 PM 17.93 64.274 0.327 7.9 4712 8.74
5/20/2022 11:00:00 PM 17.91 64.238 0.327 7.9 4711 8.73
5/20/2022 11:15:00 PM 17.89 64.202 0.327 7.9 4727 8.73
5/20/2022 11:30:00 PM 17.86 64.148 0.327 7.89 4732 8.74
5/20/2022 11:45:00 PM 17.84 64.112 0.328 7.89 4723 8.75
5/21/2022 12:00:00 AM 17.81 64.058 0.328 7.89 4736 8.75
5/21/2022 12:15:00 AM 17.79 64.022 0.328 7.89 4747 8.74
5/21/2022 12:30:00 AM 17.77 63.986 0.328 7.89 4755 8.72
5/21/2022 12:45:00 AM 17.75 63.95 0.328 7.88 4764 8.73
5/21/2022 1:00:00 AM 17.73 63.914 0.328 7.88 4777 8.72
5/21/2022 1:15:00 AM 17.71 63.878 0.328 7.88 4763 8.72
5/21/2022 1:30:00 AM 17.69 63.842 0.328 7.87 4786 8.69
5/21/2022 1:45:00 AM 17.66 63.788 0.327 7.87 4800 8.7
5/21/2022 2:00:00 AM 17.64 63.752 0.327 7.87 4818 8.7
5/21/2022 2:15:00 AM 17.62 63.716 0.327 7.86 4823 8.68
5/21/2022 2:30:00 AM 17.6 63.68 0.327 7.86 4826 8.68
5/21/2022 2:45:00 AM 17.58 63.644 0.327 7.86 4824 8.67
5/21/2022 3:00:00 AM 17.56 63.608 0.327 7.85 4817 8.68
5/21/2022 3:15:00 AM 17.53 63.554 0.327 7.85 4830 8.65
5/21/2022 3:30:00 AM 17.51 63.518 0.327 7.85 4848 8.64
5/21/2022 3:45:00 AM 17.49 63.482 0.327 7.84 4859 8.61
5/21/2022 4:00:00 AM 17.46 63.428 0.327 7.84 4860 8.6
5/21/2022 4:15:00 AM 17.44 63.392 0.327 7.83 4882 8.61
5/21/2022 4:30:00 AM 17.42 63.356 0.327 7.83 4872 8.6
5/21/2022 4:45:00 AM 17.4 63.32 0.327 7.83 4884 8.62
5/21/2022 5:00:00 AM 17.38 63.284 0.327 7.83 4881 8.6
5/21/2022 5:15:00 AM 17.36 63.248 0.327 7.83 4890 8.61
5/21/2022 5:30:00 AM 17.35 63.23 0.327 7.82 4908 8.6
5/21/2022 5:45:00 AM 17.34 63.212 0.327 7.82 4878 8.6
5/21/2022 6:00:00 AM 17.34 63.212 0.327 7.82 4856 8.59
5/21/2022 6:15:00 AM 17.34 63.212 0.327 7.82 4852 8.59
5/21/2022 6:30:00 AM 17.33 63.194 0.327 7.81 5030 8.6
5/21/2022 6:45:00 AM 17.33 63.194 0.327 7.81 4950 8.6
5/21/2022 7:00:00 AM 17.33 63.194 0.327 7.81 4937 8.59
5/21/2022 7:15:00 AM 17.33 63.194 0.327 7.82 5530 8.62
5/21/2022 7:30:00 AM 17.34 63.212 0.327 7.81 5646 8.64
5/21/2022 7:45:00 AM 17.34 63.212 0.327 7.82 5474 8.67
5/21/2022 8:00:00 AM 17.35 63.23 0.327 7.82 5570 8.71
5/21/2022 8:15:00 AM 17.36 63.248 0.327 7.82 5327 8.7
5/21/2022 8:30:00 AM 17.37 63.266 0.328 7.83 5156 8.74
5/21/2022 8:45:00 AM 17.38 63.284 0.328 7.83 4817 8.75
5/21/2022 9:00:00 AM 17.4 63.32 0.328 7.83 5010 8.81
5/21/2022 9:15:00 AM 17.43 63.374 0.329 7.84 4535 8.83
5/21/2022 9:30:00 AM 17.46 63.428 0.329 7.85 5260 8.9
5/21/2022 9:45:00 AM 17.5 63.5 0.329 7.85 5531 8.94
5/21/2022 10:00:00 AM 17.55 63.59 0.329 7.86 5572 8.96
5/21/2022 10:15:00 AM 17.6 63.68 0.33 7.86 5282 9
5/21/2022 10:30:00 AM 17.62 63.716 0.33 7.87 5659 9
5/21/2022 10:45:00 AM 17.66 63.788 0.33 7.87 5543 9.02
5/21/2022 11:00:00 AM 17.73 63.914 0.33 7.87 6283 9.03
5/21/2022 11:15:00 AM 17.81 64.058 0.33 7.87 5435 9.05
5/21/2022 11:30:00 AM 17.9 64.22 0.33 7.88 5407 9.08
5/21/2022 11:45:00 AM 17.99 64.382 0.331 7.89 5410 9.13
5/21/2022 12:00:00 PM 18.12 64.616 0.331 7.89 5446 9.19
5/21/2022 12:15:00 PM 18.25 64.85 0.331 7.9 5109 9.19
5/21/2022 12:30:00 PM 18.37 65.066 0.331 7.9 5379 9.24
5/21/2022 12:45:00 PM 18.53 65.354 0.331 7.91 5475 9.28
5/21/2022 1:00:00 PM 18.69 65.642 0.331 7.92 6297 9.32
5/21/2022 1:15:00 PM 18.83 65.894 0.332 7.93 4710 9.37
5/21/2022 1:30:00 PM 18.99 66.182 0.332 7.94 5312 9.43
5/21/2022 1:45:00 PM 19.15 66.47 0.332 7.95 4558 9.44
5/21/2022 2:00:00 PM 19.3 66.74 0.332 7.96 5413 9.47
5/21/2022 2:15:00 PM 19.38 66.884 0.332 7.97 5273 9.49
5/21/2022 2:30:00 PM 19.53 67.154 0.331 7.98 5311 9.53
5/21/2022 2:45:00 PM 19.65 67.37 0.331 7.98 5288 9.5
5/21/2022 3:00:00 PM 19.81 67.658 0.332 7.98 5595 9.49
5/21/2022 3:15:00 PM 19.95 67.91 0.331 8 6428 9.52
5/21/2022 3:30:00 PM 20.1 68.18 0.331 8.01 4798 9.56
5/21/2022 3:45:00 PM 20.23 68.414 0.331 8.03 5091 9.6
5/21/2022 4:00:00 PM 20.35 68.63 0.331 8.03 4339 9.62
5/21/2022 4:15:00 PM 20.44 68.792 0.33 8.04 5818 9.63
5/21/2022 4:30:00 PM 20.54 68.972 0.33 8.05 4060 9.64
5/21/2022 4:45:00 PM 20.63 69.134 0.33 8.06 6157 9.6
5/21/2022 5:00:00 PM 20.69 69.242 0.33 8.07 6280 9.59
5/21/2022 5:15:00 PM 20.73 69.314 0.33 8.07 6040 9.56
5/21/2022 5:30:00 PM 20.76 69.368 0.33 8.07 6494 9.51
5/21/2022 5:45:00 PM 20.78 69.404 0.329 8.08 6669 9.48
5/21/2022 6:00:00 PM 20.81 69.458 0.329 8.08 6841 9.43
5/21/2022 6:15:00 PM 20.84 69.512 0.329 8.07 6841 9.37
5/21/2022 6:30:00 PM 20.81 69.458 0.329 8.08 6841 9.28
5/21/2022 6:45:00 PM 20.8 69.44 0.329 8.07 6840 9.21
5/21/2022 7:00:00 PM 20.76 69.368 0.329 8.06 6841 9.1
5/21/2022 7:15:00 PM 20.74 69.332 0.329 8.05 6731 9.03
5/21/2022 7:30:00 PM 20.71 69.278 0.328 8.04 6841 8.93
5/21/2022 7:45:00 PM 20.7 69.26 0.328 8.03 6837 8.84
5/21/2022 8:00:00 PM 20.68 69.224 0.329 8.03 6261 8.8
5/21/2022 8:15:00 PM 20.67 69.206 0.328 8.02 6133 8.74
5/21/2022 8:30:00 PM 20.65 69.17 0.328 8.01 6453 8.7
5/21/2022 8:45:00 PM 20.64 69.152 0.328 8 6841 8.65
5/21/2022 9:00:00 PM 20.62 69.116 0.328 7.99 6840 8.61
5/21/2022 9:15:00 PM 20.59 69.062 0.328 7.99 6528 8.57
5/21/2022 9:30:00 PM 20.57 69.026 0.328 7.98 6648 8.54
5/21/2022 9:45:00 PM 20.55 68.99 0.329 7.97 6841 8.52
5/21/2022 10:00:00 PM 20.52 68.936 0.329 7.96 6841 8.51
5/21/2022 10:15:00 PM 20.49 68.882 0.329 7.96 6841 8.49
5/21/2022 10:30:00 PM 20.46 68.828 0.329 7.95 6776 8.48
5/21/2022 10:45:00 PM 20.44 68.792 0.33 7.94 6841 8.46
5/21/2022 11:00:00 PM 20.41 68.738 0.33 7.94 6841 8.45
5/21/2022 11:15:00 PM 20.38 68.684 0.33 7.93 6841 8.42
5/21/2022 11:30:00 PM 20.35 68.63 0.331 7.93 6841 8.39
5/21/2022 11:45:00 PM 20.33 68.594 0.331 7.92 6841 8.36
5/22/2022 12:00:00 AM 20.31 68.558 0.331 7.92 6834 8.36
5/22/2022 12:15:00 AM 20.29 68.522 0.332 7.91 6841 8.36
5/22/2022 12:30:00 AM 20.27 68.486 0.332 7.9 6841 8.33
5/22/2022 12:45:00 AM 20.26 68.468 0.332 7.89 6841 8.31
5/22/2022 1:00:00 AM 20.24 68.432 0.332 7.89 6841 8.29
5/22/2022 1:15:00 AM 20.22 68.396 0.332 7.88 6841 8.28
5/22/2022 1:30:00 AM 20.2 68.36 0.332 7.88 6202 8.23
5/22/2022 1:45:00 AM 20.18 68.324 0.332 7.88 6841 8.22
5/22/2022 2:00:00 AM 20.17 68.306 0.332 7.87 6841 8.21
5/22/2022 2:15:00 AM 20.15 68.27 0.332 7.87 6763 8.18
5/22/2022 2:30:00 AM 20.12 68.216 0.332 7.87 6841 8.16
5/22/2022 2:45:00 AM 20.1 68.18 0.332 7.86 6841 8.14
5/22/2022 3:00:00 AM 20.08 68.144 0.331 7.86 6254 8.1
5/22/2022 3:15:00 AM 20.05 68.09 0.331 7.86 6841 8.11
5/22/2022 3:30:00 AM 20.03 68.054 0.326 7.85 6841 8.1
5/22/2022 3:45:00 AM 20.01 68.018 0.331 7.85 6841 8.07
5/22/2022 4:00:00 AM 19.99 67.982 0.33 7.85 6842 8.03
5/22/2022 4:15:00 AM 19.97 67.946 0.33 7.84 6841 8.06
5/22/2022 4:30:00 AM 19.95 67.91 0.33 7.84 6841 8.03
5/22/2022 4:45:00 AM 19.94 67.892 0.33 7.83 6841 8.01
5/22/2022 5:00:00 AM 19.93 67.874 0.329 7.83 6841 8
5/22/2022 5:15:00 AM 19.92 67.856 0.329 7.83 6841 7.98
5/22/2022 5:30:00 AM 19.91 67.838 0.329 7.82 6841 7.97
5/22/2022 5:45:00 AM 19.89 67.802 0.329 7.82 6841 7.96
5/22/2022 6:00:00 AM 19.88 67.784 0.329 7.82 6842 7.95
5/22/2022 6:15:00 AM 19.86 67.748 0.329 7.81 6841 7.93
5/22/2022 6:30:00 AM 19.85 67.73 0.329 7.81 6841 7.95
5/22/2022 6:45:00 AM 19.84 67.712 0.329 7.81 6841 7.95
5/22/2022 7:00:00 AM 19.83 67.694 0.329 7.81 6841 7.98
5/22/2022 7:15:00 AM 19.83 67.694 0.328 7.81 6841 8
5/22/2022 7:30:00 AM 19.82 67.676 0.328 7.81 6841 8.04
5/22/2022 7:45:00 AM 19.83 67.694 0.329 7.81 6841 8.04
5/22/2022 8:00:00 AM 19.83 67.694 0.329 7.81 6829 8.08
5/22/2022 8:15:00 AM 19.84 67.712 0.329 7.82 6841 8.07
5/22/2022 8:30:00 AM 19.86 67.748 0.329 7.81 6841 8.13
5/22/2022 8:45:00 AM 19.89 67.802 0.329 7.83 6841 8.17
5/22/2022 9:00:00 AM 19.92 67.856 0.329 7.83 6841 8.22
5/22/2022 9:15:00 AM 19.91 67.838 0.329 7.84 6841 8.24
5/22/2022 9:30:00 AM 19.94 67.892 0.329 7.84 6841 8.28
5/22/2022 9:45:00 AM 20.01 68.018 0.329 7.85 6842 8.35
5/22/2022 10:00:00 AM 20.04 68.07201 0.329 7.85 6841 8.37
5/22/2022 10:15:00 AM 20.07 68.126 0.329 7.85 6841 8.38
5/22/2022 10:30:00 AM 20.12 68.216 0.329 7.86 6841 8.44
5/22/2022 10:45:00 AM 20.19 68.342 0.329 7.86 6841 8.48
5/22/2022 11:00:00 AM 20.25 68.45 0.329 7.87 6841 8.55
5/22/2022 11:15:00 AM 20.33 68.594 0.329 7.87 6841 8.56
5/22/2022 11:30:00 AM 20.42 68.756 0.329 7.89 6841 8.67
5/22/2022 11:45:00 AM 20.53 68.954 0.329 7.9 6841 8.73
5/22/2022 12:00:00 PM 20.65 69.17 0.329 7.9 6841 8.77
5/22/2022 12:15:00 PM 20.79 69.422 0.329 7.91 6841 8.83
5/22/2022 12:30:00 PM 20.92 69.656 0.329 7.92 6841 8.89
5/22/2022 12:45:00 PM 21.06 69.908 0.329 7.92 6841 8.93
5/22/2022 1:00:00 PM 21.2 70.16 0.329 7.93 6841 8.96
5/22/2022 1:15:00 PM 21.35 70.43 0.329 7.94 6841 9.02
5/22/2022 1:30:00 PM 21.53 70.754 0.329 7.96 6841 9.08
5/22/2022 1:45:00 PM 21.68 71.024 0.33 7.97 6841 9.13
5/22/2022 2:00:00 PM 21.83 71.294 0.33 7.99 6841 9.15
5/22/2022 2:15:00 PM 21.99 71.582 0.33 7.99 6841 9.21
5/22/2022 2:30:00 PM 22.14 71.852 0.33 8 6837 9.24
5/22/2022 2:45:00 PM 22.23 72.014 0.33 8.01 6841 9.27
5/22/2022 3:00:00 PM 22.12 71.816 0.33 8.02 6841 9.15
5/22/2022 3:15:00 PM 22.04 71.672 0.33 8 6841 9.04
5/22/2022 3:30:00 PM 21.91 71.438 0.328 8.01 6841 8.88
5/22/2022 3:45:00 PM 21.8 71.24 0.329 7.99 6841 8.69
5/22/2022 4:00:00 PM 21.84 71.312 0.329 7.97 6841 8.52
5/22/2022 4:15:00 PM 22.02 71.636 0.329 7.96 6841 8.49
5/22/2022 4:30:00 PM 22.16 71.888 0.329 7.97 6840 8.55
5/22/2022 4:45:00 PM 22.33 72.194 0.33 7.99 6841 8.74
5/22/2022 5:00:00 PM 22.48 72.464 0.33 8.01 6841 8.93
5/22/2022 5:15:00 PM 22.58 72.644 0.33 8.05 6841 9.07
5/22/2022 5:30:00 PM 22.65 72.77 0.331 8.07 6840 9.13
5/22/2022 5:45:00 PM 22.69 72.842 0.331 8.08 6701 9.14
5/22/2022 6:00:00 PM 22.7 72.86 0.331 8.1 6840 9.12
5/22/2022 6:15:00 PM 22.7 72.86 0.331 8.1 6841 9.03
5/22/2022 6:30:00 PM 22.67 72.806 0.331 8.09 6841 8.95
5/22/2022 6:45:00 PM 22.62 72.716 0.316 8.08 6841 8.82
5/22/2022 7:00:00 PM 22.57 72.626 0.314 8.07 6841 8.7
5/22/2022 7:15:00 PM 22.53 72.554 0.332 8.06 6840 8.58
5/22/2022 7:30:00 PM 22.48 72.464 0.332 8.04 6841 8.47
5/22/2022 7:45:00 PM 22.45 72.41 0.321 8.03 6840 8.35
5/22/2022 8:00:00 PM 22.41 72.338 0.333 8.03 6841 8.28
5/22/2022 8:15:00 PM 22.38 72.284 0.333 8.01 6840 8.22
5/22/2022 8:30:00 PM 22.35 72.23 0.333 8.01 6841 8.19
5/22/2022 8:45:00 PM 22.32 72.176 0.333 8 6840 8.15
5/22/2022 9:00:00 PM 22.3 72.14 0.334 7.99 6840 8.12
5/22/2022 9:15:00 PM 22.27 72.086 0.334 7.99 6841 8.1
5/22/2022 9:30:00 PM 22.23 72.014 0.334 7.98 6841 8.08
5/22/2022 9:45:00 PM 22.21 71.978 0.334 7.98 6840 8.08
5/22/2022 10:00:00 PM 22.19 71.942 0.332 7.98 6841 8.05
5/22/2022 10:15:00 PM 22.15 71.87 0.334 7.98 6841 8.06
5/22/2022 10:30:00 PM 22.11 71.798 0.332 7.98 6841 8.06
5/22/2022 10:45:00 PM 22.07 71.726 0.334 7.98 6840 8.07
5/22/2022 11:00:00 PM 22.02 71.636 0.334 7.97 6841 8.05
5/22/2022 11:15:00 PM 21.96 71.528 0.334 7.97 6840 8.05
5/22/2022 11:30:00 PM 21.91 71.438 0.335 7.97 6840 8.04
5/22/2022 11:45:00 PM 21.84 71.312 0.335 7.96 6841 8.04
5/23/2022 12:00:00 AM 21.78 71.204 0.335 7.97 6841 8.02
5/23/2022 12:15:00 AM 21.72 71.096 0.336 7.96 6841 8.01
5/23/2022 12:30:00 AM 21.64 70.952 0.336 7.95 6841 8.02
5/23/2022 12:45:00 AM 21.56 70.808 0.336 7.95 6841 7.99
5/23/2022 1:00:00 AM 21.48 70.664 0.337 7.94 6841 7.99
5/23/2022 1:15:00 AM 21.41 70.538 0.337 7.93 6734 7.98
5/23/2022 1:30:00 AM 21.33 70.394 0.337 7.93 6840 7.99
5/23/2022 1:45:00 AM 21.27 70.286 0.338 7.92 6841 7.97
5/23/2022 2:00:00 AM 21.21 70.17799 0.338 7.91 6841 7.95
5/23/2022 2:15:00 AM 21.15 70.07 0.338 7.91 6841 7.94
5/23/2022 2:30:00 AM 21.1 69.98 0.338 7.9 6841 7.93
5/23/2022 2:45:00 AM 21.05 69.89 0.338 7.9 6841 7.91
5/23/2022 3:00:00 AM 21 69.8 0.338 7.89 6841 7.9
5/23/2022 3:15:00 AM 20.96 69.728 0.338 7.89 6841 7.88
5/23/2022 3:30:00 AM 20.91 69.638 0.338 7.88 6841 7.9
5/23/2022 3:45:00 AM 20.85 69.53 0.339 7.88 6841 7.87
5/23/2022 4:00:00 AM 20.8 69.44 0.339 7.88 6841 7.86
5/23/2022 4:15:00 AM 20.74 69.332 0.339 7.87 6841 7.85
5/23/2022 4:30:00 AM 20.69 69.242 0.339 7.87 6841 7.85
5/23/2022 4:45:00 AM 20.62 69.116 0.339 7.86 6841 7.81
5/23/2022 5:00:00 AM 20.57 69.026 0.339 7.86 6841 7.83
5/23/2022 5:15:00 AM 20.52 68.936 0.339 7.86 6841 7.85
5/23/2022 5:30:00 AM 20.46 68.828 0.339 7.86 6774 7.81
5/23/2022 5:45:00 AM 20.41 68.738 0.338 7.86 6841 7.84
5/23/2022 6:00:00 AM 20.36 68.648 0.338 7.85 6841 7.84
5/23/2022 6:15:00 AM 20.32 68.576 0.338 7.85 6841 7.84
5/23/2022 6:30:00 AM 20.28 68.504 0.337 7.85 6841 7.86
5/23/2022 6:45:00 AM 20.25 68.45 0.336 7.85 6841 7.87
5/23/2022 7:00:00 AM 20.22 68.396 0.336 7.85 6841 7.89
5/23/2022 7:15:00 AM 20.17 68.306 0.335 7.85 6841 7.91
5/23/2022 7:30:00 AM 20.15 68.27 0.335 7.85 6841 7.93
5/23/2022 7:45:00 AM 20.11 68.198 0.335 7.85 6841 7.96
5/23/2022 8:00:00 AM 20.07 68.126 0.334 7.85 6695 7.99
5/23/2022 8:15:00 AM 20.03 68.054 0.334 7.85 6828 8.01
5/23/2022 8:30:00 AM 20.01 68.018 0.334 7.86 6841 8.06
5/23/2022 8:45:00 AM 19.99 67.982 0.334 7.86 6841 8.11
5/23/2022 9:00:00 AM 19.96 67.92799 0.334 7.86 6841 8.15
5/23/2022 9:15:00 AM 19.97 67.946 0.334 7.87 6841 8.21
5/23/2022 9:30:00 AM 19.94 67.892 0.334 7.87 6841 8.26
5/23/2022 9:45:00 AM 19.94 67.892 0.334 7.88 6841 8.3
5/23/2022 10:00:00 AM 19.93 67.874 0.334 7.88 6841 8.35
5/23/2022 10:15:00 AM 19.92 67.856 0.334 7.89 6841 8.39
5/23/2022 10:30:00 AM 19.93 67.874 0.334 7.89 6841 8.43
5/23/2022 10:45:00 AM 19.95 67.91 0.334 7.9 6841 8.46
5/23/2022 11:00:00 AM 19.97 67.946 0.333 7.9 6841 8.54
5/23/2022 11:15:00 AM 20.03 68.054 0.333 7.91 6841 8.62
5/23/2022 11:30:00 AM 20.07 68.126 0.333 7.93 6626 8.71
5/23/2022 11:45:00 AM 20.11 68.198 0.333 7.94 6841 8.79
5/23/2022 12:00:00 PM 20.17 68.306 0.333 7.94 6841 8.86
5/23/2022 12:15:00 PM 20.24 68.432 0.333 7.94 6841 8.87
5/23/2022 12:30:00 PM 20.26 68.468 0.334 7.95 6841 8.9
5/23/2022 12:45:00 PM 20.33 68.594 0.333 7.96 6841 8.95
5/23/2022 1:00:00 PM 20.38 68.684 0.334 7.97 6841 9
5/23/2022 1:15:00 PM 20.4 68.72 0.334 7.97 6481 9.02
5/23/2022 1:30:00 PM 20.41 68.738 0.334 7.98 6841 9.04
5/23/2022 1:45:00 PM 20.43 68.774 0.334 7.99 5788 9.06
5/23/2022 2:00:00 PM 20.44 68.792 0.334 7.99 6233 9.03
5/23/2022 2:15:00 PM 20.47 68.846 0.334 7.99 5731 9.07
5/23/2022 2:30:00 PM 20.48 68.864 0.335 8 5697 9.07
5/23/2022 2:45:00 PM 20.5 68.9 0.335 8 5835 9.08
5/23/2022 3:00:00 PM 20.51 68.918 0.335 8.01 5871 9.08
5/23/2022 3:15:00 PM 20.5 68.9 0.335 8.01 5690 9.07
5/23/2022 3:30:00 PM 20.47 68.846 0.335 8.01 6145 9.01
5/23/2022 3:45:00 PM 20.44 68.792 0.335 8.01 6427 8.96
5/23/2022 4:00:00 PM 20.41 68.738 0.335 8 6841 8.91
5/23/2022 4:15:00 PM 20.39 68.702 0.336 8 6582 8.84
5/23/2022 4:30:00 PM 20.37 68.666 0.336 8 6001 8.75
5/23/2022 4:45:00 PM 20.34 68.612 0.336 7.99 5974 8.7
5/23/2022 5:00:00 PM 20.33 68.594 0.336 7.99 6033 8.68
5/23/2022 5:15:00 PM 20.33 68.594 0.336 8 6031 8.68
5/23/2022 5:30:00 PM 20.32 68.576 0.336 7.99 6141 8.64
5/23/2022 5:45:00 PM 20.3 68.54 0.336 8 5953 8.64
5/23/2022 6:00:00 PM 20.28 68.504 0.336 8 5753 8.61
5/23/2022 6:15:00 PM 20.27 68.486 0.336 8 5719 8.61
5/23/2022 6:30:00 PM 20.24 68.432 0.337 8 5409 8.6
5/23/2022 6:45:00 PM 20.21 68.378 0.337 8.01 6645 8.6
5/23/2022 7:00:00 PM 20.18 68.324 0.337 8.01 6523 8.59
5/23/2022 7:15:00 PM 20.15 68.27 0.337 8.01 6316 8.57
5/23/2022 7:30:00 PM 20.12 68.216 0.337 8 5480 8.56
5/23/2022 7:45:00 PM 20.09 68.162 0.337 8 5577 8.54
5/23/2022 8:00:00 PM 20.05 68.09 0.338 8.01 5543 8.55
5/23/2022 8:15:00 PM 20.01 68.018 0.338 8.01 5631 8.52
5/23/2022 8:30:00 PM 19.96 67.92799 0.338 8 5645 8.51
5/23/2022 8:45:00 PM 19.92 67.856 0.338 8 5067 8.5
5/23/2022 9:00:00 PM 19.88 67.784 0.338 8 5569 8.48
5/23/2022 9:15:00 PM 19.83 67.694 0.334 7.99 4835 8.46
5/23/2022 9:30:00 PM 19.79 67.622 0.339 7.99 4136 8.46
5/23/2022 9:45:00 PM 19.74 67.532 0.339 7.99 3530 8.45
5/23/2022 10:00:00 PM 19.7 67.46 0.339 7.98 3217 8.44
5/23/2022 10:15:00 PM 19.66 67.388 0.339 7.99 3295 8.41
5/23/2022 10:30:00 PM 19.62 67.316 0.34 7.98 2936 8.44
5/23/2022 10:45:00 PM 19.57 67.226 0.34 7.98 3925 8.43
5/23/2022 11:00:00 PM 19.52 67.136 0.34 7.97 3773 8.41
5/23/2022 11:15:00 PM 19.48 67.064 0.34 7.97 3571 8.42
5/23/2022 11:30:00 PM 19.43 66.974 0.34 7.96 3529 8.42
5/23/2022 11:45:00 PM 19.38 66.884 0.341 7.96 3490 8.41
5/24/2022 12:00:00 AM 19.34 66.812 0.341 7.96 2596 8.41
5/24/2022 12:15:00 AM 19.29 66.722 0.341 7.95 2233 8.39
5/24/2022 12:30:00 AM 19.25 66.65 0.342 7.95 2274 8.39
5/24/2022 12:45:00 AM 19.21 66.578 0.342 7.94 3597 8.37
5/24/2022 1:00:00 AM 19.17 66.506 0.342 7.93 2609 8.35
5/24/2022 1:15:00 AM 19.12 66.416 0.342 7.93 2705 8.36
5/24/2022 1:30:00 AM 19.08 66.344 0.343 7.92 2677 8.33
5/24/2022 1:45:00 AM 19.04 66.272 0.343 7.92 2739 8.33
5/24/2022 2:00:00 AM 19 66.2 0.343 7.91 2396 8.3
5/24/2022 2:15:00 AM 18.96 66.128 0.344 7.91 2457 8.29
5/24/2022 2:30:00 AM 18.92 66.056 0.344 7.91 3102 8.27
5/24/2022 2:45:00 AM 18.88 65.984 0.344 7.9 3099 8.27
5/24/2022 3:00:00 AM 18.84 65.912 0.344 7.9 2621 8.25
5/24/2022 3:15:00 AM 18.81 65.858 0.345 7.89 2608 8.24
5/24/2022 3:30:00 AM 18.77 65.786 0.345 7.89 2413 8.22
5/24/2022 3:45:00 AM 18.73 65.714 0.345 7.88 2559 8.22
5/24/2022 4:00:00 AM 18.7 65.66 0.345 7.88 2673 8.21
5/24/2022 4:15:00 AM 18.67 65.606 0.346 7.88 2486 8.2
5/24/2022 4:30:00 AM 18.63 65.534 0.346 7.87 2590 8.21
5/24/2022 4:45:00 AM 18.59 65.462 0.346 7.87 2532 8.18
5/24/2022 5:00:00 AM 18.56 65.408 0.346 7.87 2636 8.17
5/24/2022 5:15:00 AM 18.52 65.336 0.347 7.86 2636 8.17
5/24/2022 5:30:00 AM 18.49 65.282 0.347 7.86 2621 8.16
5/24/2022 5:45:00 AM 18.45 65.21 0.347 7.86 3155 8.16
5/24/2022 6:00:00 AM 18.42 65.156 0.347 7.86 3503 8.17
5/24/2022 6:15:00 AM 18.38 65.084 0.348 7.86 3462 8.16
5/24/2022 6:30:00 AM 18.35 65.03 0.311 7.86 3460 8.17
5/24/2022 6:45:00 AM 18.33 64.994 0.347 7.86 3395 8.18
5/24/2022 7:00:00 AM 18.3 64.94 0.348 7.85 3435 8.18
5/24/2022 7:15:00 AM 18.27 64.886 0.349 7.86 3629 8.21
5/24/2022 7:30:00 AM 18.25 64.85 0.346 7.86 3628 8.23
5/24/2022 7:45:00 AM 18.24 64.832 0.328 7.86 3587 8.25
5/24/2022 8:00:00 AM 18.23 64.814 0.336 7.86 3531 8.32
5/24/2022 8:15:00 AM 18.21 64.778 0.341 7.87 3569 8.35
5/24/2022 8:30:00 AM 18.2 64.76 0.346 7.87 3569 8.39
5/24/2022 8:45:00 AM 18.21 64.778 0.333 7.88 3631 8.48
5/24/2022 9:00:00 AM 18.22 64.796 0.335 7.88 3236 8.55
5/24/2022 9:15:00 AM 18.23 64.814 0.336 7.9 3251 8.63
5/24/2022 9:30:00 AM 18.24 64.832 0.351 7.9 3238 8.7
5/24/2022 9:45:00 AM 18.26 64.868 0.351 7.92 3411 8.8
5/24/2022 10:00:00 AM 18.29 64.922 0.321 7.93 3387 8.91
5/24/2022 10:15:00 AM 18.32 64.976 0.352 7.93 3391 8.97
5/24/2022 10:30:00 AM 18.32 64.976 0.352 7.95 3163 9.03
5/24/2022 10:45:00 AM 18.32 64.976 0.352 7.95 3129 9.06
5/24/2022 11:00:00 AM 18.31 64.958 0.352 7.96 3127 9.08
5/24/2022 11:15:00 AM 18.28 64.904 0.345 7.96 3146 9.08
5/24/2022 11:30:00 AM 18.26 64.868 0.345 7.96 3171 9.03
5/24/2022 11:45:00 AM 18.23 64.814 0.328 7.95 3182 8.98
5/24/2022 12:00:00 PM 18.21 64.778 0.335 7.95 3173 8.93
5/24/2022 12:15:00 PM 18.22 64.796 0.33 7.94 3090 8.91
5/24/2022 12:30:00 PM 18.21 64.778 0.329 7.94 3114 8.92
5/24/2022 12:45:00 PM 18.2 64.76 0.351 7.94 3115 8.9
5/24/2022 1:00:00 PM 18.19 64.742 0.347 7.94 3116 8.94
5/24/2022 1:15:00 PM 18.17 64.706 0.336 7.95 3144 8.95
5/24/2022 1:30:00 PM 18.15 64.67 0.333 7.95 3096 8.96
5/24/2022 1:45:00 PM 18.13 64.634 0.338 7.95 3136 8.94
5/24/2022 2:00:00 PM 18.11 64.598 0.348 7.95 3116 8.92
5/24/2022 2:15:00 PM 18.1 64.58 0.348 7.95 2771 8.93
5/24/2022 2:30:00 PM 18.09 64.562 0.354 7.95 2747 8.94
5/24/2022 2:45:00 PM 18.07 64.526 0.357 7.95 2735 8.91
5/24/2022 3:00:00 PM 18.03 64.454 0.357 7.96 2740 8.91
5/24/2022 3:15:00 PM 18.02 64.436 0.357 7.96 2720 8.91
5/24/2022 3:30:00 PM 18.01 64.418 0.358 7.96 2731 8.91
5/24/2022 3:45:00 PM 18 64.4 0.358 7.97 2852 8.9
5/24/2022 4:00:00 PM 17.97 64.346 0.358 7.96 2919 8.88
5/24/2022 4:15:00 PM 17.95 64.31 0.358 7.96 2913 8.86
5/24/2022 4:30:00 PM 17.94 64.292 0.359 7.97 2905 8.89
5/24/2022 4:45:00 PM 17.94 64.292 0.359 7.98 2909 8.9
5/24/2022 5:00:00 PM 17.93 64.274 0.359 7.98 2902 8.92
5/24/2022 5:15:00 PM 17.93 64.274 0.359 7.98 2908 8.97
5/24/2022 5:30:00 PM 17.95 64.31 0.36 7.99 2935 9.04
5/24/2022 5:45:00 PM 17.95 64.31 0.346 8.01 2926 9.13
5/24/2022 6:00:00 PM 17.93 64.274 0.36 8.02 2910 9.17
5/24/2022 6:15:00 PM 17.92 64.256 0.36 8.02 2922 9.18
5/24/2022 6:30:00 PM 17.89 64.202 0.341 8.03 2886 9.19
5/24/2022 6:45:00 PM 17.87 64.166 0.359 8.03 2914 9.17
5/24/2022 7:00:00 PM 17.85 64.13 0.36 8.04 2911 9.11
5/24/2022 7:15:00 PM 17.82 64.076 0.356 8.03 2906 9.08
5/24/2022 7:30:00 PM 17.8 64.04 0.36 8.03 2902 9.08
5/24/2022 7:45:00 PM 17.77 63.986 0.361 8.03 2913 9.07
5/24/2022 8:00:00 PM 17.74 63.932 0.361 8.03 2931 9.04
5/24/2022 8:15:00 PM 17.7 63.86 0.334 8.02 2918 8.99
5/24/2022 8:30:00 PM 17.67 63.806 0.359 8.02 2926 8.96
5/24/2022 8:45:00 PM 17.64 63.752 0.362 8.02 2879 8.92
5/24/2022 9:00:00 PM 17.61 63.698 0.36 8.01 2893 8.87
5/24/2022 9:15:00 PM 17.57 63.626 0.362 8 2899 8.83
5/24/2022 9:30:00 PM 17.54 63.572 0.362 8 2995 8.81
5/24/2022 9:45:00 PM 17.51 63.518 0.363 7.99 2995 8.77
5/24/2022 10:00:00 PM 17.48 63.464 0.361 7.99 2955 8.78
5/24/2022 10:15:00 PM 17.45 63.41 0.363 7.99 3016 8.75
5/24/2022 10:30:00 PM 17.42 63.356 0.363 7.98 3012 8.77
5/24/2022 10:45:00 PM 17.39 63.302 0.363 7.98 3016 8.76
5/24/2022 11:00:00 PM 17.36 63.248 0.364 7.98 2985 8.77
5/24/2022 11:15:00 PM 17.33 63.194 0.364 7.98 2817 8.76
5/24/2022 11:30:00 PM 17.3 63.14 0.364 7.98 2806 8.78
5/24/2022 11:45:00 PM 17.27 63.086 0.364 7.98 2856 8.8
5/25/2022 12:00:00 AM 17.25 63.05 0.364 7.98 2881 8.8
5/25/2022 12:15:00 AM 17.22 62.996 0.364 7.98 2883 8.79
5/25/2022 12:30:00 AM 17.19 62.942 0.364 7.98 2938 8.81
5/25/2022 12:45:00 AM 17.17 62.906 0.364 7.98 2928 8.81
5/25/2022 1:00:00 AM 17.14 62.852 0.364 7.98 2940 8.81
5/25/2022 1:15:00 AM 17.11 62.798 0.365 7.97 2951 8.81
5/25/2022 1:30:00 AM 17.08 62.744 0.365 7.97 2954 8.79
5/25/2022 1:45:00 AM 17.05 62.69 0.365 7.97 2946 8.81
5/25/2022 2:00:00 AM 17.02 62.636 0.365 7.97 2955 8.82
5/25/2022 2:15:00 AM 16.98 62.564 0.365 7.97 2950 8.81
5/25/2022 2:30:00 AM 16.94 62.492 0.365 7.97 2955 8.79
5/25/2022 2:45:00 AM 16.9 62.42 0.366 7.97 2960 8.8
5/25/2022 3:00:00 AM 16.86 62.348 0.366 7.96 2967 8.81
5/25/2022 3:15:00 AM 16.81 62.258 0.366 7.96 2970 8.78
5/25/2022 3:30:00 AM 16.77 62.186 0.366 7.96 2968 8.78
5/25/2022 3:45:00 AM 16.73 62.114 0.366 7.95 2990 8.8
5/25/2022 4:00:00 AM 16.7 62.06 0.367 7.95 2978 8.78
5/25/2022 4:15:00 AM 16.67 62.006 0.367 7.95 2962 8.78
5/25/2022 4:30:00 AM 16.65 61.97 0.366 7.94 2968 8.75
5/25/2022 4:45:00 AM 16.62 61.916 0.367 7.94 2970 8.76
5/25/2022 5:00:00 AM 16.6 61.88 0.367 7.94 2973 8.76
5/25/2022 5:15:00 AM 16.57 61.826 0.367 7.94 2977 8.76
5/25/2022 5:30:00 AM 16.54 61.772 0.367 7.94 2982 8.74
5/25/2022 5:45:00 AM 16.51 61.718 0.368 7.93 2978 8.75
5/25/2022 6:00:00 AM 16.47 61.646 0.368 7.93 2984 8.74
5/25/2022 6:15:00 AM 16.44 61.592 0.368 7.93 2984 8.74
5/25/2022 6:30:00 AM 16.41 61.538 0.368 7.92 2993 8.76
5/25/2022 6:45:00 AM 16.38 61.484 0.368 7.93 3001 8.78
5/25/2022 7:00:00 AM 16.36 61.448 0.368 7.93 2996 8.79
5/25/2022 7:15:00 AM 16.34 61.412 0.368 7.93 2998 8.83
5/25/2022 7:30:00 AM 16.32 61.376 0.369 7.93 2998 8.86
5/25/2022 7:45:00 AM 16.31 61.358 0.369 7.93 3015 8.92
5/25/2022 8:00:00 AM 16.3 61.34 0.369 7.94 3006 8.96
5/25/2022 8:15:00 AM 16.29 61.322 0.369 7.94 3013 8.91
5/25/2022 8:30:00 AM 16.28 61.304 0.369 7.95 3017 9.02
5/25/2022 8:45:00 AM 16.29 61.322 0.369 7.95 3010 9
5/25/2022 9:00:00 AM 16.32 61.376 0.369 7.96 3009 9.18
5/25/2022 9:15:00 AM 16.33 61.394 0.37 7.97 3007 9.12
5/25/2022 9:30:00 AM 16.35 61.43 0.368 7.97 3001 9.37
5/25/2022 9:45:00 AM 16.38 61.484 0.37 7.99 3003 9.46
5/25/2022 10:00:00 AM 16.43 61.574 0.37 7.99 3013 9.55
5/25/2022 10:15:00 AM 16.47 61.646 0.37 8 2998 9.64
5/25/2022 10:30:00 AM 16.5 61.7 0.37 8.01 3008 9.7
5/25/2022 10:45:00 AM 16.56 61.808 0.371 8.02 3029 9.78
5/25/2022 11:00:00 AM 16.62 61.916 0.37 8.03 3032 9.84
5/25/2022 11:15:00 AM 16.69 62.042 0.361 8.04 3026 9.92
5/25/2022 11:30:00 AM 16.76 62.168 0.371 8.05 3022 9.99
5/25/2022 11:45:00 AM 16.85 62.33 0.364 8.06 3013 10.02
5/25/2022 12:00:00 PM 16.92 62.456 0.353 8.07 3005 10.09
5/25/2022 12:15:00 PM 17.02 62.636 0.362 8.07 3008 10.13
5/25/2022 12:30:00 PM 17.14 62.852 0.336 8.08 2992 10.17
5/25/2022 12:45:00 PM 17.24 63.032 0.345 8.09 3019 10.2
5/25/2022 1:00:00 PM 17.44 63.392 0.372 8.1 2990 10.24
5/25/2022 1:15:00 PM 17.57 63.626 0.372 8.11 2972 10.29
5/25/2022 1:30:00 PM 17.66 63.788 0.373 8.11 2966 10.3
5/25/2022 1:45:00 PM 17.75 63.95 0.373 8.12 2957 10.36
5/25/2022 2:00:00 PM 17.81 64.058 0.367 8.13 2961 10.38
5/25/2022 2:15:00 PM 17.88 64.184 0.373 8.13 2928 10.39
5/25/2022 2:30:00 PM 17.95 64.31 0.373 8.14 2921 10.42
5/25/2022 2:45:00 PM 18.07 64.526 0.374 8.15 2935 10.45
5/25/2022 3:00:00 PM 18.16 64.688 0.338 8.15 2909 10.44
5/25/2022 3:15:00 PM 18.32 64.976 0.374 8.16 2885 10.47
5/25/2022 3:30:00 PM 18.41 65.138 0.374 8.17 2917 10.48
5/25/2022 3:45:00 PM 18.48 65.264 0.374 8.18 2928 10.47
5/25/2022 4:00:00 PM 18.57 65.426 0.375 8.18 2920 10.47
5/25/2022 4:15:00 PM 18.58 65.444 0.375 8.19 2923 10.46
5/25/2022 4:30:00 PM 18.61 65.498 0.375 8.19 2929 10.47
5/25/2022 4:45:00 PM 18.58 65.444 0.375 8.2 2918 10.42
5/25/2022 5:00:00 PM 18.59 65.462 0.375 8.21 2909 10.4
5/25/2022 5:15:00 PM 18.64 65.552 0.375 8.21 2912 10.39
5/25/2022 5:30:00 PM 18.63 65.534 0.375 8.22 2914 10.35
5/25/2022 5:45:00 PM 18.62 65.516 0.375 8.23 2917 10.29
5/25/2022 6:00:00 PM 18.6 65.48 0.375 8.23 2919 10.24
5/25/2022 6:15:00 PM 18.56 65.408 0.375 8.23 2904 10.15
5/25/2022 6:30:00 PM 18.53 65.354 0.376 8.23 2903 10.05
5/25/2022 6:45:00 PM 18.5 65.3 0.376 8.22 2919 9.96
5/25/2022 7:00:00 PM 18.47 65.246 0.376 8.21 2914 9.84
5/25/2022 7:15:00 PM 18.44 65.192 0.376 8.22 2915 9.73
5/25/2022 7:30:00 PM 18.43 65.174 0.377 8.21 2928 9.63
5/25/2022 7:45:00 PM 18.41 65.138 0.377 8.2 2933 9.55
5/25/2022 8:00:00 PM 18.4 65.12 0.377 8.2 2937 9.44
5/25/2022 8:15:00 PM 18.39 65.102 0.377 8.2 2946 9.36
5/25/2022 8:30:00 PM 18.37 65.066 0.377 8.19 2943 9.28
5/25/2022 8:45:00 PM 18.36 65.048 0.377 8.19 2939 9.23
5/25/2022 9:00:00 PM 18.35 65.03 0.378 8.19 2934 9.2
5/25/2022 9:15:00 PM 18.34 65.012 0.378 8.19 2947 9.18
5/25/2022 9:30:00 PM 18.34 65.012 0.378 8.19 2984 9.17
5/25/2022 9:45:00 PM 18.33 64.994 0.378 8.19 3338 9.14
5/25/2022 10:00:00 PM 18.33 64.994 0.378 8.19 3719 9.14
5/25/2022 10:15:00 PM 18.34 65.012 0.378 8.19 3795 9.13
5/25/2022 10:30:00 PM 18.33 64.994 0.379 8.19 3830 9.13
5/25/2022 10:45:00 PM 18.32 64.976 0.379 8.2 3841 9.12
5/25/2022 11:00:00 PM 18.32 64.976 0.378 8.21 4461 9.12
5/25/2022 11:15:00 PM 18.3 64.94 0.378 8.21 4433 9.14
5/25/2022 11:30:00 PM 18.28 64.904 0.378 8.2 4408 9.13
5/25/2022 11:45:00 PM 18.25 64.85 0.377 8.2 4408 9.12
5/26/2022 12:00:00 AM 18.22 64.796 0.379 8.2 4389 9.12
5/26/2022 12:15:00 AM 18.18 64.724 0.379 8.2 4392 9.11
5/26/2022 12:30:00 AM 18.14 64.652 0.379 8.19 4395 9.11
5/26/2022 12:45:00 AM 18.1 64.58 0.38 8.19 4406 9.1
5/26/2022 1:00:00 AM 18.06 64.508 0.38 8.18 4409 9.09
5/26/2022 1:15:00 AM 18.02 64.436 0.38 8.18 4419 9.05
5/26/2022 1:30:00 AM 17.98 64.364 0.381 8.17 4436 9.07
5/26/2022 1:45:00 AM 17.93 64.274 0.381 8.17 4432 9.05
5/26/2022 2:00:00 AM 17.89 64.202 0.381 8.16 4442 9.04
5/26/2022 2:15:00 AM 17.86 64.148 0.382 8.15 4451 9.02
5/26/2022 2:30:00 AM 17.81 64.058 0.382 8.14 4450 8.99
5/26/2022 2:45:00 AM 17.77 63.986 0.382 8.14 4454 8.97
5/26/2022 3:00:00 AM 17.73 63.914 0.382 8.13 4471 8.94
5/26/2022 3:15:00 AM 17.69 63.842 0.383 8.12 4452 8.93
5/26/2022 3:30:00 AM 17.64 63.752 0.383 8.11 4493 8.88
5/26/2022 3:45:00 AM 17.61 63.698 0.383 8.1 4518 8.88
5/26/2022 4:00:00 AM 17.56 63.608 0.383 8.09 4526 8.86
5/26/2022 4:15:00 AM 17.53 63.554 0.383 8.09 4522 8.84
5/26/2022 4:30:00 AM 17.49 63.482 0.384 8.08 4532 8.82
5/26/2022 4:45:00 AM 17.46 63.428 0.384 8.07 4525 8.8
5/26/2022 5:00:00 AM 17.41 63.338 0.384 8.05 4532 8.76
5/26/2022 5:15:00 AM 17.37 63.266 0.384 8.05 4529 8.76
5/26/2022 5:30:00 AM 17.34 63.212 0.384 8.05 4534 8.74
5/26/2022 5:45:00 AM 17.31 63.158 0.385 8.04 4526 8.72
5/26/2022 6:00:00 AM 17.27 63.086 0.385 8.03 4548 8.7
5/26/2022 6:15:00 AM 17.24 63.032 0.385 8.03 4549 8.69
5/26/2022 6:30:00 AM 17.22 62.996 0.385 8.02 4539 8.68
5/26/2022 6:45:00 AM 17.2 62.96 0.385 8.02 4541 8.68
5/26/2022 7:00:00 AM 17.18 62.924 0.385 8.01 4564 8.69
5/26/2022 7:15:00 AM 17.17 62.906 0.385 8.01 4540 8.71
5/26/2022 7:30:00 AM 17.16 62.888 0.386 8.01 4543 8.75
5/26/2022 7:45:00 AM 17.15 62.87 0.385 8.01 4556 8.79
5/26/2022 8:00:00 AM 17.15 62.87 0.386 8.02 4551 8.83
5/26/2022 8:15:00 AM 17.16 62.888 0.385 8.02 4545 8.88
5/26/2022 8:30:00 AM 17.17 62.906 0.385 8.02 4555 8.96
5/26/2022 8:45:00 AM 17.18 62.924 0.385 8.03 4547 9.03
5/26/2022 9:00:00 AM 17.19 62.942 0.385 8.04 4551 9.09
5/26/2022 9:15:00 AM 17.2 62.96 0.385 8.04 4554 9.16
5/26/2022 9:30:00 AM 17.2 62.96 0.385 8.05 4551 9.2
5/26/2022 9:45:00 AM 17.2 62.96 0.385 8.05 4546 9.25
5/26/2022 10:00:00 AM 17.2 62.96 0.385 8.05 4539 9.27
5/26/2022 10:15:00 AM 17.2 62.96 0.385 8.06 4519 9.28
5/26/2022 10:30:00 AM 17.21 62.978 0.385 8.06 4546 9.29
5/26/2022 10:45:00 AM 17.22 62.996 0.386 8.06 4536 9.31
5/26/2022 11:00:00 AM 17.24 63.032 0.386 8.07 4526 9.35
5/26/2022 11:15:00 AM 17.27 63.086 0.386 8.07 4522 9.39
5/26/2022 11:30:00 AM 17.3 63.14 0.385 8.07 4529 9.42
5/26/2022 11:45:00 AM 17.32 63.176 0.386 8.08 4546 9.49
5/26/2022 12:00:00 PM 17.35 63.23 0.386 8.08 4541 9.54
5/26/2022 12:15:00 PM 17.39 63.302 0.386 8.09 4535 9.6
5/26/2022 12:30:00 PM 17.42 63.356 0.385 8.1 4530 9.66
5/26/2022 12:45:00 PM 17.47 63.446 0.386 8.11 4536 9.69
5/26/2022 1:00:00 PM 17.54 63.572 0.386 8.11 4524 9.77
5/26/2022 1:15:00 PM 17.62 63.716 0.386 8.13 4494 9.85
5/26/2022 1:30:00 PM 17.61 63.698 0.386 8.13 4487 9.86
5/26/2022 1:45:00 PM 17.64 63.752 0.386 8.14 4503 9.86
5/26/2022 2:00:00 PM 17.69 63.842 0.386 8.14 4494 9.9
5/26/2022 2:15:00 PM 17.68 63.824 0.386 8.14 4501 9.88
5/26/2022 2:30:00 PM 17.76 63.968 0.385 8.15 4496 9.89
5/26/2022 2:45:00 PM 17.75 63.95 0.386 8.15 4513 9.88
5/26/2022 3:00:00 PM 17.78 64.004 0.386 8.15 4504 9.87
5/26/2022 3:15:00 PM 17.81 64.058 0.386 8.15 4496 9.89
5/26/2022 3:30:00 PM 17.85 64.13 0.386 8.16 4493 9.89
5/26/2022 3:45:00 PM 17.83 64.094 0.387 8.16 4480 9.83
5/26/2022 4:00:00 PM 17.82 64.076 0.386 8.16 4448 9.76
5/26/2022 4:15:00 PM 17.81 64.058 0.387 8.15 4402 9.71
5/26/2022 4:30:00 PM 17.8 64.04 0.387 8.15 4388 9.63
5/26/2022 4:45:00 PM 17.8 64.04 0.387 8.14 4376 9.55
5/26/2022 5:00:00 PM 17.81 64.058 0.387 8.14 4360 9.49
5/26/2022 5:15:00 PM 17.81 64.058 0.387 8.14 4345 9.44
5/26/2022 5:30:00 PM 17.82 64.076 0.386 8.14 4344 9.39
5/26/2022 5:45:00 PM 17.83 64.094 0.387 8.14 4335 9.37
5/26/2022 6:00:00 PM 17.84 64.112 0.387 8.14 4337 9.32
5/26/2022 6:15:00 PM 17.85 64.13 0.387 8.14 4331 9.32
5/26/2022 6:30:00 PM 17.85 64.13 0.386 8.14 4312 9.29
5/26/2022 6:45:00 PM 17.85 64.13 0.387 8.14 4316 9.26
5/26/2022 7:00:00 PM 17.85 64.13 0.387 8.15 4324 9.22
5/26/2022 7:15:00 PM 17.85 64.13 0.387 8.15 4316 9.17
5/26/2022 7:30:00 PM 17.84 64.112 0.387 8.15 4310 9.12
5/26/2022 7:45:00 PM 17.85 64.13 0.387 8.15 4306 9.07
5/26/2022 8:00:00 PM 17.85 64.13 0.387 8.15 4319 9.04
5/26/2022 8:15:00 PM 17.86 64.148 0.387 8.15 4310 9.01
5/26/2022 8:30:00 PM 17.87 64.166 0.387 8.15 4289 8.98
5/26/2022 8:45:00 PM 17.88 64.184 0.387 8.15 4272 8.97
5/26/2022 9:00:00 PM 17.89 64.202 0.387 8.15 4282 8.96
5/26/2022 9:15:00 PM 17.91 64.238 0.387 8.16 4263 8.94
5/26/2022 9:30:00 PM 17.91 64.238 0.387 8.15 4267 8.91
5/26/2022 9:45:00 PM 17.92 64.256 0.387 8.16 4262 8.9
5/26/2022 10:00:00 PM 17.92 64.256 0.379 8.16 4272 8.9
5/26/2022 10:15:00 PM 17.92 64.256 0.387 8.16 4260 8.96
5/26/2022 10:30:00 PM 17.93 64.274 0.387 8.16 4259 8.96
5/26/2022 10:45:00 PM 17.93 64.274 0.387 8.16 4265 8.95
5/26/2022 11:00:00 PM 17.93 64.274 0.387 8.17 4280 8.97
5/26/2022 11:15:00 PM 17.94 64.292 0.388 8.17 4261 8.98
5/26/2022 11:30:00 PM 17.93 64.274 0.388 8.17 4265 8.97
5/26/2022 11:45:00 PM 17.93 64.274 0.388 8.17 4268 8.97
5/27/2022 12:00:00 AM 17.92 64.256 0.388 8.16 4261 8.96
5/27/2022 12:15:00 AM 17.91 64.238 0.388 8.16 4258 8.95
5/27/2022 12:30:00 AM 17.9 64.22 0.388 8.16 4258 8.94
5/27/2022 12:45:00 AM 17.89 64.202 0.389 8.16 4257 8.94
5/27/2022 1:00:00 AM 17.88 64.184 0.337 8.15 4248 8.93
5/27/2022 1:15:00 AM 17.87 64.166 0.368 8.15 4249 8.9
5/27/2022 1:30:00 AM 17.86 64.148 0.321 8.15 4265 8.9
5/27/2022 1:45:00 AM 17.85 64.13 0.352 8.14 4256 8.9
5/27/2022 2:00:00 AM 17.83 64.094 0.365 8.14 4244 8.86
5/27/2022 2:15:00 AM 17.82 64.076 0.367 8.13 4240 8.84
5/27/2022 2:30:00 AM 17.8 64.04 0.372 8.12 4247 8.84
5/27/2022 2:45:00 AM 17.79 64.022 0.37 8.12 4238 8.81
5/27/2022 3:00:00 AM 17.77 63.986 0.361 8.11 4228 8.79
5/27/2022 3:15:00 AM 17.75 63.95 0.345 8.1 4232 8.77
5/27/2022 3:30:00 AM 17.74 63.932 0.332 8.09 4216 8.75
5/27/2022 3:45:00 AM 17.73 63.914 0.308 8.09 4236 8.72
5/27/2022 4:00:00 AM 17.71 63.878 0.363 8.08 4265 8.72
5/27/2022 4:15:00 AM 17.7 63.86 0.347 8.07 4256 8.68
5/27/2022 4:30:00 AM 17.69 63.842 0.364 8.06 4259 8.71
5/27/2022 4:45:00 AM 17.68 63.824 0.369 8.05 4277 8.6
5/27/2022 5:00:00 AM 17.67 63.806 0.368 8.05 4277 8.72
5/27/2022 5:15:00 AM 17.66 63.788 0.361 8.05 4272 8.69
5/27/2022 5:30:00 AM 17.65 63.77 0.378 8.04 4275 8.68
5/27/2022 5:45:00 AM 17.64 63.752 0.356 8.03 4287 8.65
5/27/2022 6:00:00 AM 17.63 63.734 0.378 8.02 4296 8.64
5/27/2022 6:15:00 AM 17.62 63.716 0.379 8.02 4286 8.63
5/27/2022 6:30:00 AM 17.61 63.698 0.381 8.01 4279 8.61
5/27/2022 6:45:00 AM 17.6 63.68 0.38 8.01 4284 8.6
5/27/2022 7:00:00 AM 17.59 63.662 0.381 8.01 4286 8.59
5/27/2022 7:15:00 AM 17.58 63.644 0.381 8 4286 8.6
5/27/2022 7:30:00 AM 17.58 63.644 0.376 8 4258 8.58
5/27/2022 7:45:00 AM 17.57 63.626 0.38 8 4271 8.59
5/27/2022 8:00:00 AM 17.56 63.608 0.38 8 4162 8.61
5/27/2022 8:15:00 AM 17.55 63.59 0.381 7.99 3985 8.62
5/27/2022 8:30:00 AM 17.56 63.608 0.38 7.99 3818 8.63
5/27/2022 8:45:00 AM 17.58 63.644 0.378 7.99 3813 8.7
5/27/2022 9:00:00 AM 17.62 63.716 0.379 8 3951 8.81
5/27/2022 9:15:00 AM 17.66 63.788 0.378 8.01 3951 8.9
5/27/2022 9:30:00 AM 17.69 63.842 0.343 8.02 4131 9.01
5/27/2022 9:45:00 AM 17.73 63.914 0.37 8.03 4151 9.13
5/27/2022 10:00:00 AM 17.75 63.95 0.35 8.04 4133 9.2
5/27/2022 10:15:00 AM 17.76 63.968 0.376 8.05 4143 9.24
5/27/2022 10:30:00 AM 17.78 64.004 0.375 8.05 4050 9.21
5/27/2022 10:45:00 AM 17.78 64.004 0.374 8.05 4041 9.22
5/27/2022 11:00:00 AM 17.79 64.022 0.368 8.05 4036 9.21
5/27/2022 11:15:00 AM 17.8 64.04 0.374 8.05 4232 9.21
5/27/2022 11:30:00 AM 17.81 64.058 0.376 8.05 4162 9.18
5/27/2022 11:45:00 AM 17.86 64.148 0.375 8.05 4195 9.21
5/27/2022 12:00:00 PM 17.88 64.184 0.376 8.05 4314 9.25
5/27/2022 12:15:00 PM 17.88 64.184 0.378 8.05 5421 9.25
5/27/2022 12:30:00 PM 17.86 64.148 0.38 8.05 5473 9.18
5/27/2022 12:45:00 PM 17.87 64.166 0.346 8.05 5575 9.11
5/27/2022 1:00:00 PM 17.86 64.148 0.335 8.03 5586 8.91
5/27/2022 1:15:00 PM 17.92 64.256 0.358 8.01 5383 8.76
5/27/2022 1:30:00 PM 17.89 64.202 0.327 7.99 5487 8.67
5/27/2022 1:45:00 PM 17.89 64.202 0.301 7.98 5477 8.61
5/27/2022 2:00:00 PM 17.89 64.202 0.32 7.97 5478 8.58
5/27/2022 2:15:00 PM 17.91 64.238 0.334 7.96 5444 8.64
5/27/2022 2:30:00 PM 18 64.4 0.365 7.97 5469 8.84
5/27/2022 2:45:00 PM 18.07 64.526 0.373 8 5442 9.01
5/27/2022 3:00:00 PM 18.14 64.652 0.373 8.01 5628 9.21
5/27/2022 3:15:00 PM 18.22 64.796 0.376 8.04 5735 9.38
5/27/2022 3:30:00 PM 18.31 64.958 0.375 8.06 5814 9.55
5/27/2022 3:45:00 PM 18.31 64.958 0.381 8.08 5596 9.62
5/27/2022 4:00:00 PM 18.33 64.994 0.379 8.08 5558 9.63
5/27/2022 4:15:00 PM 18.36 65.048 0.38 8.09 5428 9.64
5/27/2022 4:30:00 PM 18.35 65.03 0.38 8.09 5385 9.61
5/27/2022 4:45:00 PM 18.37 65.066 0.382 8.1 5694 9.59
5/27/2022 5:00:00 PM 18.42 65.156 0.383 8.11 5323 9.61
5/27/2022 5:15:00 PM 18.45 65.21 0.383 8.11 5315 9.63
5/27/2022 5:30:00 PM 18.52 65.336 0.387 8.12 5288 9.64
5/27/2022 5:45:00 PM 18.53 65.354 0.386 8.12 5313 9.63
5/27/2022 6:00:00 PM 18.54 65.372 0.386 8.13 5262 9.64
5/27/2022 6:15:00 PM 18.55 65.39 0.388 8.13 5171 9.61
5/27/2022 6:30:00 PM 18.59 65.462 0.387 8.14 5251 9.59
5/27/2022 6:45:00 PM 18.61 65.498 0.387 8.14 5272 9.52
5/27/2022 7:00:00 PM 18.58 65.444 0.382 8.13 5242 9.45
5/27/2022 7:15:00 PM 18.55 65.39 0.379 8.14 5266 9.38
5/27/2022 7:30:00 PM 18.51 65.318 0.35 8.13 4939 9.28
5/27/2022 7:45:00 PM 18.47 65.246 0.355 8.12 4816 9.18
5/27/2022 8:00:00 PM 18.43 65.174 0.363 8.11 6265 9.09
5/27/2022 8:15:00 PM 18.41 65.138 0.356 8.1 4136 9.03
5/27/2022 8:30:00 PM 18.4 65.12 0.355 8.1 3915 8.97
5/27/2022 8:45:00 PM 18.39 65.102 0.317 8.09 4044 8.93
5/27/2022 9:00:00 PM 18.39 65.102 0.386 8.09 4080 8.91
5/27/2022 9:15:00 PM 18.39 65.102 0.347 8.08 4081 8.89
5/27/2022 9:30:00 PM 18.4 65.12 0.339 8.08 4836 8.87
5/27/2022 9:45:00 PM 18.4 65.12 0.386 8.08 5325 8.84
5/27/2022 10:00:00 PM 18.39 65.102 0.385 8.07 5794 8.86
5/27/2022 10:15:00 PM 18.39 65.102 0.383 8.08 6264 8.88
5/27/2022 10:30:00 PM 18.39 65.102 0.381 8.07 6091 8.88
5/27/2022 10:45:00 PM 18.38 65.084 0.382 8.08 6059 8.89
5/27/2022 11:00:00 PM 18.36 65.048 0.382 8.07 6112 8.87
5/27/2022 11:15:00 PM 18.35 65.03 0.383 8.07 6717 8.87
5/27/2022 11:30:00 PM 18.33 64.994 0.383 8.06 6214 8.89
5/27/2022 11:45:00 PM 18.31 64.958 0.383 8.06 6251 8.87
5/28/2022 12:00:00 AM 18.3 64.94 0.383 8.06 6517 8.85
5/28/2022 12:15:00 AM 18.28 64.904 0.382 8.05 5602 8.84
5/28/2022 12:30:00 AM 18.27 64.886 0.382 8.04 6157 8.83
5/28/2022 12:45:00 AM 18.26 64.868 0.381 8.04 6273 8.78
5/28/2022 1:00:00 AM 18.24 64.832 0.37 8.03 6505 8.77
5/28/2022 1:15:00 AM 18.22 64.796 0.379 8.02 6816 8.74
5/28/2022 1:30:00 AM 18.21 64.778 0.368 8.02 6840 8.73
5/28/2022 1:45:00 AM 18.19 64.742 0.376 8.01 6195 8.7
5/28/2022 2:00:00 AM 18.16 64.688 0.375 8 6132 8.66
5/28/2022 2:15:00 AM 18.13 64.634 0.373 7.99 6237 8.63
5/28/2022 2:30:00 AM 18.1 64.58 0.371 7.98 6655 8.61
5/28/2022 2:45:00 AM 18.08 64.544 0.369 7.96 6678 8.56
5/28/2022 3:00:00 AM 18.05 64.49 0.365 7.95 6842 8.51
5/28/2022 3:15:00 AM 18.02 64.436 0.363 7.94 6842 8.5
5/28/2022 3:30:00 AM 18 64.4 0.36 7.93 6034 8.46
5/28/2022 3:45:00 AM 17.97 64.346 0.357 7.91 5943 8.44
5/28/2022 4:00:00 AM 17.95 64.31 0.355 7.9 6633 8.43
5/28/2022 4:15:00 AM 17.93 64.274 0.353 7.89 6838 8.41
5/28/2022 4:30:00 AM 17.91 64.238 0.351 7.88 6842 8.39
5/28/2022 4:45:00 AM 17.89 64.202 0.351 7.87 6296 8.37
5/28/2022 5:00:00 AM 17.87 64.166 0.349 7.87 6151 8.37
5/28/2022 5:15:00 AM 17.86 64.148 0.349 7.86 6224 8.36
5/28/2022 5:30:00 AM 17.84 64.112 0.325 7.86 6319 8.35
5/28/2022 5:45:00 AM 17.82 64.076 0.349 7.85 6559 8.36
5/28/2022 6:00:00 AM 17.8 64.04 0.349 7.85 6782 8.36
5/28/2022 6:15:00 AM 17.78 64.004 0.349 7.85 6794 8.36
5/28/2022 6:30:00 AM 17.76 63.968 0.349 7.85 6822 8.34
5/28/2022 6:45:00 AM 17.74 63.932 0.348 7.84 6827 8.36
5/28/2022 7:00:00 AM 17.73 63.914 0.349 7.85 6840 8.39
5/28/2022 7:15:00 AM 17.71 63.878 0.349 7.85 6842 8.4
5/28/2022 7:30:00 AM 17.68 63.824 0.349 7.85 6838 8.44
5/28/2022 7:45:00 AM 17.66 63.788 0.349 7.85 6828 8.47
5/28/2022 8:00:00 AM 17.64 63.752 0.349 7.85 6382 8.47
5/28/2022 8:15:00 AM 17.63 63.734 0.35 7.85 6453 8.48
5/28/2022 8:30:00 AM 17.62 63.716 0.35 7.85 6465 8.52
5/28/2022 8:45:00 AM 17.6 63.68 0.351 7.85 6814 8.54
5/28/2022 9:00:00 AM 17.59 63.662 0.351 7.86 6793 8.56
5/28/2022 9:15:00 AM 17.61 63.698 0.351 7.86 6768 8.6
5/28/2022 9:30:00 AM 17.63 63.734 0.352 7.87 6793 8.66
5/28/2022 9:45:00 AM 17.65 63.77 0.352 7.87 6689 8.7
5/28/2022 10:00:00 AM 17.67 63.806 0.352 7.87 6173 8.75
5/28/2022 10:15:00 AM 17.68 63.824 0.352 7.87 6832 8.75
5/28/2022 10:30:00 AM 17.69 63.842 0.352 7.88 6821 8.78
5/28/2022 10:45:00 AM 17.71 63.878 0.352 7.88 6499 8.79
5/28/2022 11:00:00 AM 17.73 63.914 0.352 7.88 6551 8.8
5/28/2022 11:15:00 AM 17.75 63.95 0.352 7.88 6539 8.82
5/28/2022 11:30:00 AM 17.78 64.004 0.351 7.89 6521 8.85
5/28/2022 11:45:00 AM 17.82 64.076 0.351 7.89 6516 8.9
5/28/2022 12:00:00 PM 17.89 64.202 0.351 7.9 6479 8.95
5/28/2022 12:15:00 PM 17.93 64.274 0.351 7.91 6424 8.98
5/28/2022 12:30:00 PM 18.05 64.49 0.351 7.92 6400 9.05
5/28/2022 12:45:00 PM 18.12 64.616 0.351 7.93 6365 9.09
5/28/2022 1:00:00 PM 18.25 64.85 0.351 7.93 6304 9.12
5/28/2022 1:15:00 PM 18.34 65.012 0.351 7.94 6280 9.16
5/28/2022 1:30:00 PM 18.42 65.156 0.351 7.94 6267 9.17
5/28/2022 1:45:00 PM 18.47 65.246 0.351 7.95 6264 9.18
5/28/2022 2:00:00 PM 18.57 65.426 0.351 7.95 6234 9.18
5/28/2022 2:15:00 PM 18.65 65.57 0.35 7.96 6227 9.19
5/28/2022 2:30:00 PM 18.75 65.75 0.35 7.97 6210 9.26
5/28/2022 2:45:00 PM 18.89 66.002 0.35 7.98 6210 9.28
5/28/2022 3:00:00 PM 18.86 65.948 0.35 7.98 6196 9.23
5/28/2022 3:15:00 PM 18.95 66.11 0.35 7.99 6184 9.29
5/28/2022 3:30:00 PM 19.01 66.218 0.349 7.99 6187 9.23
5/28/2022 3:45:00 PM 18.99 66.182 0.349 7.99 6186 9.17
5/28/2022 4:00:00 PM 19.15 66.47 0.349 7.99 6117 9.23
5/28/2022 4:15:00 PM 19.24 66.632 0.349 8 5902 9.25
5/28/2022 4:30:00 PM 19.29 66.722 0.348 8.01 5949 9.3
5/28/2022 4:45:00 PM 19.33 66.794 0.348 8.02 5977 9.31
5/28/2022 5:00:00 PM 19.32 66.776 0.347 8.03 5862 9.31
5/28/2022 5:15:00 PM 19.33 66.794 0.347 8.03 5875 9.27
5/28/2022 5:30:00 PM 19.31 66.758 0.347 8.02 5901 9.17
5/28/2022 5:45:00 PM 19.33 66.794 0.346 8.02 5885 9.1
5/28/2022 6:00:00 PM 19.34 66.812 0.346 8.01 5889 9.02
5/28/2022 6:15:00 PM 19.35 66.83 0.345 8 5886 8.94
5/28/2022 6:30:00 PM 19.37 66.866 0.345 8 5882 8.93
5/28/2022 6:45:00 PM 19.36 66.848 0.344 7.99 5911 8.9
5/28/2022 7:00:00 PM 19.37 66.866 0.344 7.99 5931 8.87
5/28/2022 7:15:00 PM 19.38 66.884 0.344 7.99 5897 8.82
5/28/2022 7:30:00 PM 19.38 66.884 0.344 7.99 5914 8.8
5/28/2022 7:45:00 PM 19.38 66.884 0.344 7.98 5937 8.74
5/28/2022 8:00:00 PM 19.36 66.848 0.344 7.97 5928 8.69
5/28/2022 8:15:00 PM 19.34 66.812 0.345 7.97 5927 8.66
5/28/2022 8:30:00 PM 19.34 66.812 0.317 7.96 5904 8.59
5/28/2022 8:45:00 PM 19.32 66.776 0.345 7.95 5921 8.58
5/28/2022 9:00:00 PM 19.31 66.758 0.345 7.95 5927 8.53
5/28/2022 9:15:00 PM 19.28 66.704 0.345 7.94 5943 8.5
5/28/2022 9:30:00 PM 19.26 66.668 0.345 7.94 5966 8.5
5/28/2022 9:45:00 PM 19.24 66.632 0.345 7.93 5966 8.48
5/28/2022 10:00:00 PM 19.21 66.578 0.345 7.93 5993 8.43
5/28/2022 10:15:00 PM 19.18 66.524 0.345 7.93 5992 8.47
5/28/2022 10:30:00 PM 19.16 66.488 0.332 7.92 6003 8.46
5/28/2022 10:45:00 PM 19.13 66.434 0.319 7.92 6015 8.43
5/28/2022 11:00:00 PM 19.09 66.362 0.343 7.92 6068 8.44
5/28/2022 11:15:00 PM 19.06 66.308 0.338 7.91 6061 8.44
5/28/2022 11:30:00 PM 19.02 66.236 0.341 7.91 6074 8.42
5/28/2022 11:45:00 PM 18.98 66.164 0.339 7.9 6019 8.42
5/29/2022 12:00:00 AM 18.94 66.092 0.338 7.9 6058 8.4
5/29/2022 12:15:00 AM 18.9 66.02 0.337 7.9 6060 8.39
5/29/2022 12:30:00 AM 18.87 65.966 0.32 7.89 6048 8.36
5/29/2022 12:45:00 AM 18.83 65.894 0.334 7.88 6084 8.33
5/29/2022 1:00:00 AM 18.8 65.84 0.333 7.88 6119 8.34
5/29/2022 1:15:00 AM 18.78 65.804 0.329 7.87 6130 8.32
5/29/2022 1:30:00 AM 18.74 65.732 0.328 7.87 6149 8.34
5/29/2022 1:45:00 AM 18.72 65.696 0.329 7.87 6172 8.26
5/29/2022 2:00:00 AM 18.69 65.642 0.315 7.86 6194 8.33
5/29/2022 2:15:00 AM 18.65 65.57 0.31 7.85 6195 8.32
5/29/2022 2:30:00 AM 18.63 65.534 0.323 7.85 6195 8.34
5/29/2022 2:45:00 AM 18.59 65.462 0.324 7.84 6232 8.23
5/29/2022 3:00:00 AM 18.56 65.408 0.324 7.84 6227 8.31
5/29/2022 3:15:00 AM 18.53 65.354 0.323 7.83 6280 8.31
5/29/2022 3:30:00 AM 18.5 65.3 0.313 7.83 6135 8.27
5/29/2022 3:45:00 AM 18.47 65.246 0.321 7.83 5470 8.28
5/29/2022 4:00:00 AM 18.43 65.174 0.321 7.83 5689 8.28
5/29/2022 4:15:00 AM 18.4 65.12 0.321 7.82 5685 8.29
5/29/2022 4:30:00 AM 18.37 65.066 0.32 7.82 5421 8.26
5/29/2022 4:45:00 AM 18.35 65.03 0.319 7.81 5375 8.27
5/29/2022 5:00:00 AM 18.32 64.976 0.318 7.8 5430 8.25
5/29/2022 5:15:00 AM 18.3 64.94 0.316 7.8 5311 8.24
5/29/2022 5:30:00 AM 18.28 64.904 0.319 7.8 5213 8.24
5/29/2022 5:45:00 AM 18.25 64.85 0.319 7.8 5194 8.25
5/29/2022 6:00:00 AM 18.23 64.814 0.319 7.8 5057 8.24
5/29/2022 6:15:00 AM 18.2 64.76 0.318 7.79 5148 8.24
5/29/2022 6:30:00 AM 18.18 64.724 0.318 7.8 5311 8.25
5/29/2022 6:45:00 AM 18.16 64.688 0.318 7.79 5089 8.25
5/29/2022 7:00:00 AM 18.14 64.652 0.318 7.79 5138 8.27
5/29/2022 7:15:00 AM 18.13 64.634 0.318 7.8 5365 8.28
5/29/2022 7:30:00 AM 18.13 64.634 0.318 7.79 5355 8.29
5/29/2022 7:45:00 AM 18.12 64.616 0.318 7.8 5370 8.31
5/29/2022 8:00:00 AM 18.12 64.616 0.31 7.8 5360 8.33
5/29/2022 8:15:00 AM 18.13 64.634 0.318 7.8 5351 8.38
5/29/2022 8:30:00 AM 18.14 64.652 0.318 7.8 5305 8.4
5/29/2022 8:45:00 AM 18.15 64.67 0.318 7.81 5401 8.45
5/29/2022 9:00:00 AM 18.17 64.706 0.318 7.81 5209 8.5
5/29/2022 9:15:00 AM 18.2 64.76 0.318 7.82 5398 8.54
5/29/2022 9:30:00 AM 18.21 64.778 0.318 7.83 5270 8.6
5/29/2022 9:45:00 AM 18.25 64.85 0.318 7.83 5395 8.65
5/29/2022 10:00:00 AM 18.28 64.904 0.318 7.84 5366 8.68
5/29/2022 10:15:00 AM 18.3 64.94 0.318 7.84 5070 8.74
5/29/2022 10:30:00 AM 18.34 65.012 0.318 7.85 5234 8.79
5/29/2022 10:45:00 AM 18.4 65.12 0.318 7.86 5347 8.88
5/29/2022 11:00:00 AM 18.48 65.264 0.318 7.87 5293 8.95
5/29/2022 11:15:00 AM 18.54 65.372 0.318 7.88 5308 9.02
5/29/2022 11:30:00 AM 18.64 65.552 0.318 7.89 5199 9.08
5/29/2022 11:45:00 AM 18.75 65.75 0.319 7.9 5273 9.18
5/29/2022 12:00:00 PM 18.8 65.84 0.319 7.91 5177 9.2
5/29/2022 12:15:00 PM 18.96 66.128 0.319 7.92 5110 9.3
5/29/2022 12:30:00 PM 19.04 66.272 0.32 7.93 5241 9.36
5/29/2022 12:45:00 PM 19.07 66.326 0.32 7.94 5150 9.4
5/29/2022 1:00:00 PM 19.21 66.578 0.321 7.95 5229 9.47
5/29/2022 1:15:00 PM 19.39 66.902 0.321 7.96 5202 9.52
5/29/2022 1:30:00 PM 19.51 67.118 0.321 7.97 5182 9.58
5/29/2022 1:45:00 PM 19.68 67.424 0.322 7.99 4860 9.68
5/29/2022 2:00:00 PM 19.86 67.748 0.322 8 5068 9.73
5/29/2022 2:15:00 PM 20.03 68.054 0.323 8.01 5061 9.79
5/29/2022 2:30:00 PM 20.03 68.054 0.323 8.02 5101 9.75
5/29/2022 2:45:00 PM 20.1 68.18 0.323 8.02 5123 9.75
5/29/2022 3:00:00 PM 20.23 68.414 0.324 8.04 5080 9.83
5/29/2022 3:15:00 PM 20.3 68.54 0.324 8.04 5038 9.81
5/29/2022 3:30:00 PM 20.44 68.792 0.325 8.04 5022 9.83
5/29/2022 3:45:00 PM 20.52 68.936 0.325 8.06 4842 9.89
5/29/2022 4:00:00 PM 20.65 69.17 0.326 8.07 5171 9.89
5/29/2022 4:15:00 PM 20.72 69.296 0.326 8.08 4865 9.92
5/29/2022 4:30:00 PM 20.83 69.494 0.326 8.09 4740 9.94
5/29/2022 4:45:00 PM 20.74 69.332 0.327 8.09 4732 9.91
5/29/2022 5:00:00 PM 20.77 69.386 0.327 8.1 4892 9.87
5/29/2022 5:15:00 PM 20.76 69.368 0.328 8.1 4997 9.82
5/29/2022 5:30:00 PM 20.69 69.242 0.328 8.1 4798 9.78
5/29/2022 5:45:00 PM 20.61 69.098 0.329 8.09 4538 9.64
5/29/2022 6:00:00 PM 20.58 69.044 0.33 8.09 4502 9.55
5/29/2022 6:15:00 PM 20.53 68.954 0.33 8.08 4575 9.41
5/29/2022 6:30:00 PM 20.49 68.882 0.331 8.07 4618 9.33
5/29/2022 6:45:00 PM 20.46 68.828 0.331 8.06 4610 9.23
5/29/2022 7:00:00 PM 20.44 68.792 0.332 8.06 4667 9.15
5/29/2022 7:15:00 PM 20.42 68.756 0.333 8.05 4659 9.05
5/29/2022 7:30:00 PM 20.4 68.72 0.333 8.04 4674 8.95
5/29/2022 7:45:00 PM 20.38 68.684 0.334 8.04 4633 8.87
5/29/2022 8:00:00 PM 20.37 68.666 0.334 8.04 4653 8.79
5/29/2022 8:15:00 PM 20.36 68.648 0.335 8.03 4644 8.74
5/29/2022 8:30:00 PM 20.36 68.648 0.335 8.03 4671 8.69
5/29/2022 8:45:00 PM 20.35 68.63 0.336 8.01 4500 8.64
5/29/2022 9:00:00 PM 20.36 68.648 0.337 8.02 4610 8.6
5/29/2022 9:15:00 PM 20.37 68.666 0.337 8.02 4586 8.57
5/29/2022 9:30:00 PM 20.39 68.702 0.332 8.02 4690 8.53
5/29/2022 9:45:00 PM 20.4 68.72 0.339 8.02 4226 8.51
5/29/2022 10:00:00 PM 20.41 68.738 0.339 8.02 4152 8.51
5/29/2022 10:15:00 PM 20.42 68.756 0.339 8.02 4016 8.51
5/29/2022 10:30:00 PM 20.42 68.756 0.34 8.03 4243 8.49
5/29/2022 10:45:00 PM 20.43 68.774 0.34 8.03 4136 8.5
5/29/2022 11:00:00 PM 20.44 68.792 0.34 8.04 4163 8.47
5/29/2022 11:15:00 PM 20.43 68.774 0.341 8.04 4143 8.47
5/29/2022 11:30:00 PM 20.42 68.756 0.341 8.04 4147 8.5
5/29/2022 11:45:00 PM 20.39 68.702 0.341 8.04 4256 8.5
5/30/2022 12:00:00 AM 20.36 68.648 0.337 8.04 4175 8.48
5/30/2022 12:15:00 AM 20.33 68.594 0.334 8.03 4196 8.48
5/30/2022 12:30:00 AM 20.28 68.504 0.316 8.03 4138 8.46
5/30/2022 12:45:00 AM 20.24 68.432 0.31 8.03 4053 8.45
5/30/2022 1:00:00 AM 20.2 68.36 0.326 8.02 4012 8.45
5/30/2022 1:15:00 AM 20.16 68.288 0.312 8.02 4186 8.44
5/30/2022 1:30:00 AM 20.11 68.198 0.312 8.02 4099 8.42
5/30/2022 1:45:00 AM 20.08 68.144 0.318 8.01 4034 8.41
5/30/2022 2:00:00 AM 20.04 68.07201 0.313 8 4051 8.39
5/30/2022 2:15:00 AM 20 68 0.33 8 4213 8.38
5/30/2022 2:30:00 AM 19.96 67.92799 0.336 7.99 4251 8.34
5/30/2022 2:45:00 AM 19.92 67.856 0.326 7.99 4310 8.34
5/30/2022 3:00:00 AM 19.88 67.784 0.337 7.98 3934 8.32
5/30/2022 3:15:00 AM 19.83 67.694 0.333 7.97 4153 8.3
5/30/2022 3:30:00 AM 19.78 67.604 0.315 7.97 3965 8.29
5/30/2022 3:45:00 AM 19.75 67.55 0.327 7.96 3361 8.26
5/30/2022 4:00:00 AM 19.69 67.442 0.33 7.96 3506 8.24
5/30/2022 4:15:00 AM 19.65 67.37 0.33 7.95 3495 8.24
5/30/2022 4:30:00 AM 19.6 67.28 0.334 7.94 3509 8.2
5/30/2022 4:45:00 AM 19.56 67.208 0.329 7.94 3475 8.18
5/30/2022 5:00:00 AM 19.5 67.1 0.316 7.93 3462 8.18
5/30/2022 5:15:00 AM 19.46 67.028 0.313 7.93 3494 8.16
5/30/2022 5:30:00 AM 19.41 66.938 0.344 7.92 3515 8.16
5/30/2022 5:45:00 AM 19.36 66.848 0.331 7.92 3447 8.14
5/30/2022 6:00:00 AM 19.33 66.794 0.356 7.91 3404 8.13
5/30/2022 6:15:00 AM 19.28 66.704 0.357 7.91 3615 8.12
5/30/2022 6:30:00 AM 19.24 66.632 0.357 7.9 3645 8.13
5/30/2022 6:45:00 AM 19.22 66.596 0.358 7.91 3384 8.14
5/30/2022 7:00:00 AM 19.19 66.542 0.358 7.91 3310 8.16
5/30/2022 7:15:00 AM 19.18 66.524 0.359 7.91 3267 8.18
5/30/2022 7:30:00 AM 19.16 66.488 0.359 7.91 3502 8.2
5/30/2022 7:45:00 AM 19.15 66.47 0.36 7.91 3491 8.23
5/30/2022 8:00:00 AM 19.16 66.488 0.36 7.91 3567 8.25
5/30/2022 8:15:00 AM 19.16 66.488 0.36 7.92 3448 8.29
5/30/2022 8:30:00 AM 19.17 66.506 0.361 7.92 3459 8.33
5/30/2022 8:45:00 AM 19.19 66.542 0.361 7.93 3555 8.39
5/30/2022 9:00:00 AM 19.2 66.56 0.361 7.94 3400 8.47
5/30/2022 9:15:00 AM 19.23 66.614 0.362 7.95 3604 8.54
5/30/2022 9:30:00 AM 19.26 66.668 0.362 7.96 3537 8.59
5/30/2022 9:45:00 AM 19.3 66.74 0.362 7.97 3439 8.65
5/30/2022 10:00:00 AM 19.34 66.812 0.362 7.98 3513 8.75
5/30/2022 10:15:00 AM 19.39 66.902 0.362 7.98 3332 8.8
5/30/2022 10:30:00 AM 19.45 67.01 0.363 8 3149 8.85
5/30/2022 10:45:00 AM 19.52 67.136 0.363 8.01 3136 8.93
5/30/2022 11:00:00 AM 19.61 67.298 0.363 8.02 2939 9
5/30/2022 11:15:00 AM 19.68 67.424 0.363 8.03 3087 9.1
5/30/2022 11:30:00 AM 19.8 67.64 0.362 8.05 3086 9.18
5/30/2022 11:45:00 AM 19.93 67.874 0.358 8.06 3085 9.28
5/30/2022 12:00:00 PM 20.04 68.07201 0.326 8.07 3089 9.36
5/30/2022 12:15:00 PM 20.18 68.324 0.365 8.08 3088 9.41
5/30/2022 12:30:00 PM 20.33 68.594 0.308 8.09 3077 9.48
5/30/2022 12:45:00 PM 20.51 68.918 0.364 8.1 3046 9.57
5/30/2022 1:00:00 PM 20.67 69.206 0.322 8.12 3015 9.66
5/30/2022 1:15:00 PM 20.85 69.53 0.336 8.14 2874 9.76
5/30/2022 1:30:00 PM 21.03 69.854 0.335 8.14 2882 9.84
5/30/2022 1:45:00 PM 21.19 70.142 0.328 8.15 2877 9.89
5/30/2022 2:00:00 PM 21.37 70.466 0.36 8.16 2852 9.94
5/30/2022 2:15:00 PM 21.51 70.718 0.23 8.17 2853 10
5/30/2022 2:30:00 PM 21.65 70.97 0.367 8.18 2855 10.05
5/30/2022 2:45:00 PM 21.82 71.276 0.368 8.19 2829 10.07
5/30/2022 3:00:00 PM 21.95 71.51 0.368 8.2 2822 10.11
5/30/2022 3:15:00 PM 22.05 71.69 0.369 8.21 2836 10.11
5/30/2022 3:30:00 PM 22.15 71.87 0.368 8.21 2812 10.14
5/30/2022 3:45:00 PM 22.28 72.104 0.367 8.22 2805 10.16
5/30/2022 4:00:00 PM 22.39 72.302 0.307 8.22 2733 10.18
5/30/2022 4:15:00 PM 22.43 72.374 0.359 8.23 2802 10.13
5/30/2022 4:30:00 PM 22.52 72.536 0.37 8.23 2783 10.15
5/30/2022 4:45:00 PM 22.61 72.698 0.371 8.23 2765 10.1
5/30/2022 5:00:00 PM 22.64 72.752 0.371 8.24 2763 10.07
5/30/2022 5:15:00 PM 22.67 72.806 0.371 8.24 2748 10
5/30/2022 5:30:00 PM 22.64 72.752 0.364 8.23 2751 9.93
5/30/2022 5:45:00 PM 22.64 72.752 0.368 8.23 2743 9.83
5/30/2022 6:00:00 PM 22.61 72.698 0.369 8.22 2666 9.71
5/30/2022 6:15:00 PM 22.59 72.662 0.355 8.22 2664 9.58
5/30/2022 6:30:00 PM 22.54 72.57201 0.362 8.2 2740 9.42
5/30/2022 6:45:00 PM 22.43 72.374 0.365 8.19 2737 9.23
5/30/2022 7:00:00 PM 22.4 72.32 0.37 8.17 2730 9.01
5/30/2022 7:15:00 PM 22.33 72.194 0.365 8.15 2746 8.84
5/30/2022 7:30:00 PM 22.29 72.122 0.343 8.14 2753 8.64
5/30/2022 7:45:00 PM 22.27 72.086 0.375 8.13 2768 8.53
5/30/2022 8:00:00 PM 22.26 72.068 0.373 8.08 2782 8.4
5/30/2022 8:15:00 PM 22.26 72.068 0.346 8.11 2777 8.29
5/30/2022 8:30:00 PM 22.26 72.068 0.376 8.1 2802 8.19
5/30/2022 8:45:00 PM 22.27 72.086 0.377 8.11 2792 8.12
5/30/2022 9:00:00 PM 22.29 72.122 0.376 8.11 2803 8.11
5/30/2022 9:15:00 PM 22.29 72.122 0.378 8.11 3334 8.02
5/30/2022 9:30:00 PM 22.32 72.176 0.378 8.1 3287 8
5/30/2022 9:45:00 PM 22.34 72.212 0.378 8.11 1257 7.98
5/30/2022 10:00:00 PM 22.34 72.212 0.378 8.1 777.6 7.97
5/30/2022 10:15:00 PM 22.37 72.266 0.377 8.11 816.2 7.97
5/30/2022 10:30:00 PM 22.38 72.284 0.378 8.12 845.3 7.95
5/30/2022 10:45:00 PM 22.38 72.284 0.379 8.11 769.9 7.95
5/30/2022 11:00:00 PM 22.39 72.302 0.379 8.12 744.1 7.94
5/30/2022 11:15:00 PM 22.4 72.32 0.379 8.12 757 7.94
5/30/2022 11:30:00 PM 22.4 72.32 0.379 8.12 753.4 7.96
5/30/2022 11:45:00 PM 22.4 72.32 0.379 8.13 760.5 7.98
5/31/2022 12:00:00 AM 22.4 72.32 0.379 8.13 780 7.96
5/31/2022 12:15:00 AM 22.38 72.284 0.295 8.13 739.9 7.96
5/31/2022 12:30:00 AM 22.36 72.248 0.38 8.13 740.3 7.96
5/31/2022 12:45:00 AM 22.34 72.212 0.38 8.13 748.6 7.97
5/31/2022 1:00:00 AM 22.32 72.176 0.38 8.13 761.9 7.96
5/31/2022 1:15:00 AM 22.29 72.122 0.38 8.13 836.4 7.92
5/31/2022 1:30:00 AM 22.25 72.05 0.38 8.12 852.7 7.91
5/31/2022 1:45:00 AM 22.21 71.978 0.38 8.12 856.6 7.94
5/31/2022 2:00:00 AM 22.18 71.924 0.381 8.12 863.1 7.9
5/31/2022 2:15:00 AM 22.13 71.834 0.381 8.11 930.8 7.87
5/31/2022 2:30:00 AM 22.08 71.744 0.381 8.1 938.9 7.89
5/31/2022 2:45:00 AM 22.03 71.654 0.382 8.09 1066 7.89
5/31/2022 3:00:00 AM 21.98 71.564 0.383 8.09 876.8 7.85
5/31/2022 3:15:00 AM 21.92 71.456 0.384 8.08 993.4 7.84
5/31/2022 3:30:00 AM 21.87 71.366 0.384 8.06 1011 7.82
5/31/2022 3:45:00 AM 21.81 71.258 0.385 8.06 905.4 7.82
5/31/2022 4:00:00 AM 21.75 71.15 0.385 8.05 1305 7.77
5/31/2022 4:15:00 AM 21.69 71.042 0.386 8.05 917 7.76
5/31/2022 4:30:00 AM 21.63 70.934 0.386 8.04 907.3 7.73
5/31/2022 4:45:00 AM 21.57 70.826 0.387 8.02 1000 7.71
5/31/2022 5:00:00 AM 21.51 70.718 0.387 8.01 1375 7.7
5/31/2022 5:15:00 AM 21.45 70.61 0.388 8 955.2 7.68
5/31/2022 5:30:00 AM 21.39 70.502 0.388 8 979 7.69
5/31/2022 5:45:00 AM 21.33 70.394 0.388 7.99 1175 7.65
5/31/2022 6:00:00 AM 21.27 70.286 0.389 7.99 1206 7.64
5/31/2022 6:15:00 AM 21.22 70.196 0.389 7.98 1681 7.65
5/31/2022 6:30:00 AM 21.17 70.106 0.389 7.98 1962 7.64
5/31/2022 6:45:00 AM 21.13 70.034 0.39 7.97 1721 7.67
5/31/2022 7:00:00 AM 21.1 69.98 0.39 7.97 1273 7.69
5/31/2022 7:15:00 AM 21.07 69.926 0.391 7.97 1268 7.72
5/31/2022 7:30:00 AM 21.05 69.89 0.391 7.97 1688 7.75
5/31/2022 7:45:00 AM 21.04 69.872 0.391 7.98 1554 7.81
5/31/2022 8:00:00 AM 21.04 69.872 0.392 7.98 1945 7.86
5/31/2022 8:15:00 AM 21.03 69.854 0.392 7.98 1963 7.9
5/31/2022 8:30:00 AM 21.04 69.872 0.392 7.98 1230 7.94
5/31/2022 8:45:00 AM 21.05 69.89 0.392 8 1903 8
5/31/2022 9:00:00 AM 21.06 69.908 0.392 8 1112 8.06
5/31/2022 9:15:00 AM 21.09 69.962 0.393 8.01 1009 8.12
5/31/2022 9:30:00 AM 21.12 70.016 0.393 8.02 1042 8.2
5/31/2022 9:45:00 AM 21.14 70.052 0.393 8.03 1061 8.25
5/31/2022 10:00:00 AM 21.18 70.124 0.393 8.04 1062 8.33
5/31/2022 10:15:00 AM 21.23 70.214 0.393 8.05 1733 8.42
5/31/2022 10:30:00 AM 21.28 70.304 0.393 8.07 1006 8.51
5/31/2022 10:45:00 AM 21.34 70.412 0.393 8.08 1201 8.61
5/31/2022 11:00:00 AM 21.43 70.574 0.394 8.09 2274 8.69
5/31/2022 11:15:00 AM 21.54 70.772 0.394 8.1 2181 8.82
5/31/2022 11:30:00 AM 21.65 70.97 0.394 8.12 2028 8.88
5/31/2022 11:45:00 AM 21.76 71.168 0.394 8.13 2864 8.98
5/31/2022 12:00:00 PM 21.9 71.42 0.394 8.14 3336 9.08
5/31/2022 12:15:00 PM 22.02 71.636 0.394 8.16 2639 9.2
5/31/2022 12:30:00 PM 22.18 71.924 0.394 8.17 3418 9.29
5/31/2022 12:45:00 PM 22.3 72.14 0.394 8.18 3640 9.42
5/31/2022 1:00:00 PM 22.47 72.446 0.394 8.19 3207 9.48
5/31/2022 1:15:00 PM 22.62 72.716 0.395 8.2 3256 9.57
5/31/2022 1:30:00 PM 22.78 73.004 0.395 8.22 4259 9.7
5/31/2022 1:45:00 PM 22.93 73.274 0.395 8.23 2170 9.76
5/31/2022 2:00:00 PM 23.03 73.454 0.395 8.24 3776 9.83
5/31/2022 2:15:00 PM 23.1 73.58 0.396 8.25 3741 9.83
5/31/2022 2:30:00 PM 23.26 73.868 0.396 8.25 2665 9.86
5/31/2022 2:45:00 PM 23.29 73.922 0.396 8.26 3655 9.89
5/31/2022 3:00:00 PM 23.31 73.958 0.396 8.25 3382 9.79
5/31/2022 3:15:00 PM 23.43 74.174 0.396 8.26 3736 9.84
5/31/2022 3:30:00 PM 23.57 74.426 0.396 8.27 3678 9.87
5/31/2022 3:45:00 PM 23.59 74.462 0.396 8.27 4042 9.88
5/31/2022 4:00:00 PM 23.69 74.642 0.396 8.28 3371 9.87
5/31/2022 4:15:00 PM 23.82 74.876 0.396 8.28 3106 9.87
5/31/2022 4:30:00 PM 23.9 75.02 0.397 8.28 4636 9.89
5/31/2022 4:45:00 PM 23.95 75.11 0.397 8.29 2970 9.9
5/31/2022 5:00:00 PM 24.01 75.218 0.397 8.3 2601 9.85
5/31/2022 5:15:00 PM 24.05 75.29 0.397 8.3 2791 9.8
5/31/2022 5:30:00 PM 24.03 75.254 0.397 8.29 1648 9.74
5/31/2022 5:45:00 PM 24.04 75.272 0.397 8.29 1665 9.64
5/31/2022 6:00:00 PM 24.01 75.218 0.398 8.29 2970 9.52
5/31/2022 6:15:00 PM 23.98 75.164 0.398 8.28 2788 9.39
5/31/2022 6:30:00 PM 23.91 75.038 0.398 8.27 2004 9.21
5/31/2022 6:45:00 PM 23.84 74.912 0.399 8.24 1941 8.97
5/31/2022 7:00:00 PM 23.77 74.786 0.399 8.23 1941 8.74
5/31/2022 7:15:00 PM 23.71 74.67799 0.399 8.21 1766 8.54
5/31/2022 7:30:00 PM 23.64 74.552 0.399 8.19 1800 8.34
5/31/2022 7:45:00 PM 23.61 74.498 0.4 8.18 1730 8.16
5/31/2022 8:00:00 PM 23.59 74.462 0.4 8.17 1868 8.03
5/31/2022 8:15:00 PM 23.58 74.444 0.4 8.15 1579 7.9
5/31/2022 8:30:00 PM 23.58 74.444 0.4 8.15 1973 7.81
5/31/2022 8:45:00 PM 23.58 74.444 0.401 8.14 1799 7.71
5/31/2022 9:00:00 PM 23.59 74.462 0.401 8.14 2856 7.65
5/31/2022 9:15:00 PM 23.59 74.462 0.401 8.13 2466 7.58
5/31/2022 9:30:00 PM 23.6 74.48 0.401 8.13 2996 7.52
5/31/2022 9:45:00 PM 23.61 74.498 0.401 8.12 2436 7.51
5/31/2022 10:00:00 PM 23.63 74.534 0.401 8.13 2249 7.46
5/31/2022 10:15:00 PM 23.64 74.552 0.401 8.13 2246 7.45
5/31/2022 10:30:00 PM 23.67 74.606 0.402 8.13 2235 7.43
5/31/2022 10:45:00 PM 23.68 74.624 0.402 8.14 2228 7.45
5/31/2022 11:00:00 PM 23.7 74.66 0.402 8.14 2229 7.46
5/31/2022 11:15:00 PM 23.73 74.714 0.402 8.15 2535 7.47
5/31/2022 11:30:00 PM 23.73 74.714 0.402 8.15 2526 7.47
5/31/2022 11:45:00 PM 23.74 74.732 0.402 8.15 2587 7.47
6/1/2022 12:00:00 AM 23.75 74.75 0.402 8.16 2549 7.46
6/1/2022 12:15:00 AM 23.75 74.75 0.402 8.16 2558 7.42
6/1/2022 12:30:00 AM 23.76 74.768 0.402 8.16 2525 7.45
6/1/2022 12:45:00 AM 23.75 74.75 0.402 8.16 2449 7.48
6/1/2022 1:00:00 AM 23.75 74.75 0.402 8.16 2433 7.44
6/1/2022 1:15:00 AM 23.72 74.696 0.402 8.16 2622 7.43
6/1/2022 1:30:00 AM 23.7 74.66 0.402 8.16 2653 7.4
6/1/2022 1:45:00 AM 23.68 74.624 0.402 8.16 2789 7.43
6/1/2022 2:00:00 AM 23.65 74.57 0.402 8.16 2771 7.42
6/1/2022 2:15:00 AM 23.63 74.534 0.402 8.16 2795 7.41
6/1/2022 2:30:00 AM 23.59 74.462 0.402 8.15 2826 7.43
6/1/2022 2:45:00 AM 23.55 74.39 0.403 8.15 2971 7.41
6/1/2022 3:00:00 AM 23.52 74.336 0.403 8.15 2984 7.39
6/1/2022 3:15:00 AM 23.46 74.228 0.403 8.14 3033 7.37
6/1/2022 3:30:00 AM 23.41 74.138 0.404 8.13 3017 7.36
6/1/2022 3:45:00 AM 23.37 74.066 0.404 8.13 3109 7.35
6/1/2022 4:00:00 AM 23.32 73.976 0.405 8.12 2774 7.33
6/1/2022 4:15:00 AM 23.26 73.868 0.405 8.11 2814 7.32
6/1/2022 4:30:00 AM 23.21 73.778 0.405 8.1 2941 7.28
6/1/2022 4:45:00 AM 23.16 73.688 0.406 8.1 3273 7.29
6/1/2022 5:00:00 AM 23.11 73.598 0.406 8.09 1942 7.28
6/1/2022 5:15:00 AM 23.04 73.472 0.406 8.07 2468 7.25
6/1/2022 5:30:00 AM 22.98 73.364 0.407 8.06 3336 7.22
6/1/2022 5:45:00 AM 22.93 73.274 0.407 8.06 3295 7.22
6/1/2022 6:00:00 AM 22.86 73.148 0.408 8.04 1991 7.21
6/1/2022 6:15:00 AM 22.81 73.058 0.408 8.04 2434 7.2
6/1/2022 6:30:00 AM 22.76 72.968 0.409 8.04 2400 7.17
6/1/2022 6:45:00 AM 22.72 72.896 0.409 8.03 2556 7.2
6/1/2022 7:00:00 AM 22.68 72.824 0.409 8.03 2538 7.22
6/1/2022 7:15:00 AM 22.65 72.77 0.41 8.03 2275 7.23
6/1/2022 7:30:00 AM 22.63 72.734 0.407 8.03 2312 7.3
6/1/2022 7:45:00 AM 22.62 72.716 0.409 8.03 2191 7.33
6/1/2022 8:00:00 AM 22.61 72.698 0.41 8.03 3577 7.36
6/1/2022 8:15:00 AM 22.61 72.698 0.411 8.03 2372 7.41
6/1/2022 8:30:00 AM 22.61 72.698 0.411 8.04 2269 7.46
6/1/2022 8:45:00 AM 22.62 72.716 0.412 8.04 3750 7.53
6/1/2022 9:00:00 AM 22.64 72.752 0.411 8.05 2304 7.62
6/1/2022 9:15:00 AM 22.65 72.77 0.411 8.06 2232 7.68
6/1/2022 9:30:00 AM 22.67 72.806 0.411 8.07 2256 7.76
6/1/2022 9:45:00 AM 22.7 72.86 0.41 8.07 3063 7.85
6/1/2022 10:00:00 AM 22.72 72.896 0.413 8.08 2133 7.92
6/1/2022 10:15:00 AM 22.75 72.95 0.413 8.09 2756 8.02
6/1/2022 10:30:00 AM 22.81 73.058 0.413 8.11 2132 8.12
6/1/2022 10:45:00 AM 22.87 73.166 0.413 8.12 2145 8.19
6/1/2022 11:00:00 AM 22.95 73.31 0.413 8.13 2173 8.32
6/1/2022 11:15:00 AM 23.04 73.472 0.413 8.14 2189 8.43
6/1/2022 11:30:00 AM 23.15 73.67 0.413 8.15 2182 8.58
6/1/2022 11:45:00 AM 23.25 73.85 0.413 8.17 2188 8.72
6/1/2022 12:00:00 PM 23.37 74.066 0.413 8.19 2282 8.83
6/1/2022 12:15:00 PM 23.47 74.246 0.413 8.21 2158 8.95
6/1/2022 12:30:00 PM 23.59 74.462 0.414 8.21 2150 9.01
6/1/2022 12:45:00 PM 23.7 74.66 0.414 8.22 2394 9.1
6/1/2022 1:00:00 PM 23.86 74.948 0.414 8.23 3405 9.17
6/1/2022 1:15:00 PM 24.04 75.272 0.414 8.25 3514 9.3
6/1/2022 1:30:00 PM 24.03 75.254 0.414 8.24 3038 9.26
6/1/2022 1:45:00 PM 24.12 75.416 0.415 8.23 3030 9.14
6/1/2022 2:00:00 PM 24.31 75.758 0.415 8.25 3201 9.35
6/1/2022 2:15:00 PM 24.41 75.938 0.415 8.26 3803 9.45
6/1/2022 2:30:00 PM 24.38 75.884 0.415 8.25 2270 9.34
6/1/2022 2:45:00 PM 24.49 76.082 0.415 8.25 2288 9.26
6/1/2022 3:00:00 PM 24.66 76.388 0.415 8.27 3201 9.42
6/1/2022 3:15:00 PM 24.82 76.676 0.415 8.28 2749 9.54
6/1/2022 3:30:00 PM 24.89 76.802 0.416 8.28 2900 9.57
6/1/2022 3:45:00 PM 24.97 76.946 0.416 8.28 2807 9.6
6/1/2022 4:00:00 PM 25.02 77.036 0.416 8.29 2141 9.63
6/1/2022 4:15:00 PM 25.08 77.144 0.416 8.29 2282 9.67
6/1/2022 4:30:00 PM 25.07 77.126 0.416 8.29 2138 9.67
6/1/2022 4:45:00 PM 25.11 77.198 0.416 8.3 2527 9.63
6/1/2022 5:00:00 PM 25.05 77.09 0.416 8.3 2162 9.59
6/1/2022 5:15:00 PM 24.99 76.982 0.416 8.3 2219 9.53
6/1/2022 5:30:00 PM 24.95 76.91 0.416 8.29 2566 9.43
6/1/2022 5:45:00 PM 24.91 76.838 0.416 8.29 2281 9.32
6/1/2022 6:00:00 PM 24.83 76.694 0.416 8.28 2576 9.22
6/1/2022 6:15:00 PM 24.75 76.55 0.416 8.27 2333 9.09
6/1/2022 6:30:00 PM 24.68 76.424 0.416 8.25 2322 8.89
6/1/2022 6:45:00 PM 24.58 76.244 0.417 8.25 2710 8.71
6/1/2022 7:00:00 PM 24.51 76.118 0.417 8.23 2248 8.53
6/1/2022 7:15:00 PM 24.44 75.992 0.418 8.22 1614 8.32
6/1/2022 7:30:00 PM 24.38 75.884 0.418 8.2 1605 8.15
6/1/2022 7:45:00 PM 24.32 75.776 0.418 8.19 1994 7.96
6/1/2022 8:00:00 PM 24.29 75.722 0.418 8.17 1650 7.82
6/1/2022 8:15:00 PM 24.27 75.686 0.418 8.16 2344 7.67
6/1/2022 8:30:00 PM 24.25 75.65 0.418 8.15 1712 7.54
6/1/2022 8:45:00 PM 24.24 75.632 0.418 8.14 1637 7.41
6/1/2022 9:00:00 PM 24.23 75.614 0.418 8.13 1613 7.33
6/1/2022 9:15:00 PM 24.23 75.614 0.418 8.12 1701 7.24
6/1/2022 9:30:00 PM 24.23 75.614 0.417 8.11 2093 7.19
6/1/2022 9:45:00 PM 24.25 75.65 0.418 8.11 2071 7.16
6/1/2022 10:00:00 PM 24.26 75.668 0.418 8.11 1922 7.12
6/1/2022 10:15:00 PM 24.28 75.704 0.418 8.11 1869 7.1
6/1/2022 10:30:00 PM 24.29 75.722 0.418 8.11 2045 7.1
6/1/2022 10:45:00 PM 24.33 75.794 0.418 8.12 2031 7.11
6/1/2022 11:00:00 PM 24.36 75.848 0.418 8.12 2029 7.11
6/1/2022 11:15:00 PM 24.38 75.884 0.419 8.13 2018 7.15
6/1/2022 11:30:00 PM 24.41 75.938 0.419 8.14 2145 7.18
6/1/2022 11:45:00 PM 24.42 75.956 0.419 8.14 1961 7.17
6/2/2022 12:00:00 AM 24.41 75.938 0.39 8.14 1956 7.19
6/2/2022 12:15:00 AM 24.4 75.92 0.406 8.15 1873 7.2
6/2/2022 12:30:00 AM 24.4 75.92 0.405 8.15 2276 7.2
6/2/2022 12:45:00 AM 24.37 75.866 0.418 8.15 2400 7.17
6/2/2022 1:00:00 AM 24.38 75.884 0.418 8.16 1924 7.21
6/2/2022 1:15:00 AM 24.36 75.848 0.418 8.17 2606 7.2
6/2/2022 1:30:00 AM 24.34 75.812 0.418 8.17 1790 7.21
6/2/2022 1:45:00 AM 24.31 75.758 0.417 8.17 3080 7.18
6/2/2022 2:00:00 AM 24.28 75.704 0.417 8.18 3313 7.22
6/2/2022 2:15:00 AM 24.25 75.65 0.417 8.18 2336 7.22
6/2/2022 2:30:00 AM 24.22 75.596 0.417 8.18 2357 7.21
6/2/2022 2:45:00 AM 24.18 75.524 0.418 8.18 2078 7.22
6/2/2022 3:00:00 AM 24.14 75.452 0.418 8.15 2038 7.24
6/2/2022 3:15:00 AM 24.09 75.362 0.418 8.15 2325 7.24
6/2/2022 3:30:00 AM 24.05 75.29 0.418 8.15 2277 7.21
6/2/2022 3:45:00 AM 24.01 75.218 0.419 8.18 2325 7.22
6/2/2022 4:00:00 AM 23.96 75.128 0.419 8.18 2247 7.22
6/2/2022 4:15:00 AM 23.92 75.056 0.419 8.18 2151 7.2
6/2/2022 4:30:00 AM 23.88 74.984 0.42 8.16 2159 7.18
6/2/2022 4:45:00 AM 23.82 74.876 0.419 8.16 2308 7.16
6/2/2022 5:00:00 AM 23.75 74.75 0.418 8.15 2292 7.13
6/2/2022 5:15:00 AM 23.71 74.67799 0.419 8.15 2681 7.1
6/2/2022 5:30:00 AM 23.65 74.57 0.42 8.12 2956 7.1
6/2/2022 5:45:00 AM 23.59 74.462 0.42 8.13 3959 7.06
6/2/2022 6:00:00 AM 23.55 74.39 0.42 8.12 2960 7.05
6/2/2022 6:15:00 AM 23.5 74.3 0.419 8.11 4405 7.04
6/2/2022 6:30:00 AM 23.45 74.21 0.421 8.09 2911 7.05
6/2/2022 6:45:00 AM 23.41 74.138 0.422 8.09 3329 7.03
6/2/2022 7:00:00 AM 23.37 74.066 0.422 8.08 3028 7.06
6/2/2022 7:15:00 AM 23.34 74.012 0.423 8.09 3099 7.1
6/2/2022 7:30:00 AM 23.31 73.958 0.423 8.09 2413 7.15
6/2/2022 7:45:00 AM 23.28 73.904 0.423 8.09 2250 7.2
6/2/2022 8:00:00 AM 23.24 73.832 0.423 8.09 2897 7.24
6/2/2022 8:15:00 AM 23.22 73.796 0.424 8.1 2311 7.3
6/2/2022 8:30:00 AM 23.2 73.76 0.424 8.1 2662 7.4
6/2/2022 8:45:00 AM 23.19 73.742 0.424 8.11 2340 7.5
6/2/2022 9:00:00 AM 23.21 73.778 0.425 8.11 2328 7.62
6/2/2022 9:15:00 AM 23.19 73.742 0.425 8.12 1970 7.7
6/2/2022 9:30:00 AM 23.2 73.76 0.425 8.13 2234 7.8
6/2/2022 9:45:00 AM 23.21 73.778 0.425 8.14 2497 7.95
6/2/2022 10:00:00 AM 23.23 73.814 0.425 8.15 2441 8.05
6/2/2022 10:15:00 AM 23.26 73.868 0.425 8.16 2419 8.14
6/2/2022 10:30:00 AM 23.31 73.958 0.425 8.17 2457 8.17
6/2/2022 10:45:00 AM 23.36 74.048 0.426 8.17 2620 8.25
6/2/2022 11:00:00 AM 23.4 74.12 0.426 8.18 2724 8.31
6/2/2022 11:15:00 AM 23.47 74.246 0.426 8.19 2453 8.43
6/2/2022 11:30:00 AM 23.56 74.408 0.426 8.2 2442 8.54
6/2/2022 11:45:00 AM 23.59 74.462 0.426 8.2 2478 8.61
6/2/2022 12:00:00 PM 23.64 74.552 0.426 8.21 2430 8.66
6/2/2022 12:15:00 PM 23.69 74.642 0.426 8.21 2350 8.7
6/2/2022 12:30:00 PM 23.79 74.82201 0.426 8.22 2439 8.83
6/2/2022 12:45:00 PM 23.76 74.768 0.427 8.21 2362 8.77
6/2/2022 1:00:00 PM 23.8 74.84 0.427 8.2 2369 8.82
6/2/2022 1:15:00 PM 23.82 74.876 0.427 8.2 2856 8.82
6/2/2022 1:30:00 PM 23.83 74.894 0.427 8.2 2936 8.83
6/2/2022 1:45:00 PM 23.85 74.93 0.427 8.2 2797 8.78
6/2/2022 2:00:00 PM 23.91 75.038 0.427 8.2 2919 8.82
6/2/2022 2:15:00 PM 23.9 75.02 0.427 8.19 2590 8.81
6/2/2022 2:30:00 PM 23.9 75.02 0.427 8.2 2299 8.81
6/2/2022 2:45:00 PM 23.91 75.038 0.427 8.19 3404 8.87
6/2/2022 3:00:00 PM 23.85 74.93 0.428 8.19 2576 8.79
6/2/2022 3:15:00 PM 23.75 74.75 0.427 8.19 2862 8.66
6/2/2022 3:30:00 PM 23.62 74.516 0.427 8.17 2874 8.47
6/2/2022 3:45:00 PM 23.44 74.192 0.423 8.16 2317 8.16
6/2/2022 4:00:00 PM 23.24 73.832 0.388 8.12 2347 7.91
6/2/2022 4:15:00 PM 23.29 73.922 0.412 8.11 2407 7.77
6/2/2022 4:30:00 PM 23.29 73.922 0.414 8.11 2643 7.75
6/2/2022 4:45:00 PM 23.3 73.94 0.415 8.11 2699 7.72
6/2/2022 5:00:00 PM 23.28 73.904 0.416 8.1 2283 7.69
6/2/2022 5:15:00 PM 23.3 73.94 0.418 8.1 2426 7.72
6/2/2022 5:30:00 PM 23.3 73.94 0.42 8.1 2318 7.74
6/2/2022 5:45:00 PM 23.32 73.976 0.422 8.1 2249 7.78
6/2/2022 6:00:00 PM 23.34 74.012 0.424 8.11 2202 7.85
6/2/2022 6:15:00 PM 23.35 74.03 0.424 8.11 3027 7.87
6/2/2022 6:30:00 PM 23.34 74.012 0.425 8.1 3182 7.83
6/2/2022 6:45:00 PM 23.32 73.976 0.425 8.11 3215 7.78
6/2/2022 7:00:00 PM 23.31 73.958 0.425 8.11 3166 7.75
6/2/2022 7:15:00 PM 23.29 73.922 0.425 8.1 2205 7.67
6/2/2022 7:30:00 PM 23.28 73.904 0.425 8.07 2231 7.62
6/2/2022 7:45:00 PM 23.27 73.886 0.424 8.06 2225 7.51
6/2/2022 8:00:00 PM 23.25 73.85 0.424 8.09 2232 7.44
6/2/2022 8:15:00 PM 23.24 73.832 0.423 8.09 2592 7.35
6/2/2022 8:30:00 PM 23.23 73.814 0.423 8.09 2163 7.35
6/2/2022 8:45:00 PM 23.23 73.814 0.423 8.09 2312 7.28
6/2/2022 9:00:00 PM 23.22 73.796 0.423 8.09 2657 7.27
6/2/2022 9:15:00 PM 23.22 73.796 0.423 8.09 2808 7.24
6/2/2022 9:30:00 PM 23.21 73.778 0.422 8.07 2642 7.26
6/2/2022 9:45:00 PM 23.2 73.76 0.422 8.09 2969 7.26
6/2/2022 10:00:00 PM 23.19 73.742 0.421 8.09 3170 7.23
6/2/2022 10:15:00 PM 23.17 73.706 0.421 8.1 3114 7.26
6/2/2022 10:30:00 PM 23.16 73.688 0.42 8.1 2650 7.25
6/2/2022 10:45:00 PM 23.15 73.67 0.419 8.12 2709 7.28
6/2/2022 11:00:00 PM 23.12 73.616 0.419 8.11 3519 7.28
6/2/2022 11:15:00 PM 23.1 73.58 0.418 8.11 3422 7.3
6/2/2022 11:30:00 PM 23.08 73.544 0.418 8.11 3492 7.29
6/2/2022 11:45:00 PM 23.06 73.508 0.418 8.12 2953 7.29
6/3/2022 12:00:00 AM 23.05 73.49 0.417 8.12 2608 7.29
6/3/2022 12:15:00 AM 23.02 73.436 0.417 8.12 2606 7.29
6/3/2022 12:30:00 AM 22.99 73.382 0.416 8.12 2616 7.29
6/3/2022 12:45:00 AM 22.96 73.328 0.416 8.12 2644 7.29
6/3/2022 1:00:00 AM 22.94 73.292 0.416 8.11 2645 7.29
6/3/2022 1:15:00 AM 22.9 73.22 0.416 8.11 2643 7.27
6/3/2022 1:30:00 AM 22.86 73.148 0.415 8.11 2638 7.27
6/3/2022 1:45:00 AM 22.83 73.094 0.415 8.11 2668 7.26
6/3/2022 2:00:00 AM 22.81 73.058 0.415 8.11 2682 7.26
6/3/2022 2:15:00 AM 22.77 72.986 0.415 8.1 2744 7.25
6/3/2022 2:30:00 AM 22.74 72.932 0.414 8.1 2712 7.27
6/3/2022 2:45:00 AM 22.7 72.86 0.414 8.1 3224 7.3
6/3/2022 3:00:00 AM 22.66 72.788 0.413 8.09 2727 7.26
6/3/2022 3:15:00 AM 22.62 72.716 0.413 8.09 2697 7.29
6/3/2022 3:30:00 AM 22.57 72.626 0.412 8.08 2764 7.28
6/3/2022 3:45:00 AM 22.5 72.5 0.411 8.08 2717 7.28
6/3/2022 4:00:00 AM 22.43 72.374 0.41 8.08 2711 7.28
6/3/2022 4:15:00 AM 22.35 72.23 0.409 8.08 2727 7.28
6/3/2022 4:30:00 AM 22.28 72.104 0.409 8.08 2751 7.27
6/3/2022 4:45:00 AM 22.21 71.978 0.408 8.07 2749 7.25
6/3/2022 5:00:00 AM 22.12 71.816 0.408 8.07 2981 7.25
6/3/2022 5:15:00 AM 22.05 71.69 0.407 8.07 2904 7.25
6/3/2022 5:30:00 AM 21.98 71.564 0.407 8.06 2887 7.22
6/3/2022 5:45:00 AM 21.92 71.456 0.407 8.05 2877 7.21
6/3/2022 6:00:00 AM 21.85 71.33 0.407 8.05 2700 7.17
6/3/2022 6:15:00 AM 21.78 71.204 0.407 8.04 2719 7.17
6/3/2022 6:30:00 AM 21.72 71.096 0.407 8.04 2709 7.18
6/3/2022 6:45:00 AM 21.66 70.988 0.407 8.03 2711 7.19
6/3/2022 7:00:00 AM 21.6 70.88 0.408 8.03 2726 7.19
6/3/2022 7:15:00 AM 21.55 70.79 0.408 8.03 2705 7.21
6/3/2022 7:30:00 AM 21.5 70.7 0.408 8.03 2680 7.26
6/3/2022 7:45:00 AM 21.46 70.628 0.409 8.03 2672 7.29
6/3/2022 8:00:00 AM 21.42 70.556 0.409 8.03 2684 7.3
6/3/2022 8:15:00 AM 21.39 70.502 0.409 8.03 2679 7.36
6/3/2022 8:30:00 AM 21.35 70.43 0.41 8.03 2704 7.4
6/3/2022 8:45:00 AM 21.32 70.376 0.41 8.04 2663 7.45
6/3/2022 9:00:00 AM 21.3 70.34 0.41 8.04 2682 7.5
6/3/2022 9:15:00 AM 21.29 70.32201 0.41 8.04 2663 7.55
6/3/2022 9:30:00 AM 21.28 70.304 0.41 8.04 2669 7.6
6/3/2022 9:45:00 AM 21.26 70.268 0.41 8.05 2698 7.66
6/3/2022 10:00:00 AM 21.26 70.268 0.411 8.05 2687 7.73
6/3/2022 10:15:00 AM 21.28 70.304 0.411 8.06 2694 7.8
6/3/2022 10:30:00 AM 21.3 70.34 0.411 8.06 2691 7.87
6/3/2022 10:45:00 AM 21.34 70.412 0.412 8.07 2680 7.94
6/3/2022 11:00:00 AM 21.41 70.538 0.412 8.08 2662 8.03
6/3/2022 11:15:00 AM 21.5 70.7 0.412 8.08 2654 8.14
6/3/2022 11:30:00 AM 21.6 70.88 0.413 8.09 2642 8.24
6/3/2022 11:45:00 AM 21.71 71.078 0.413 8.11 2633 8.36
6/3/2022 12:00:00 PM 21.82 71.276 0.413 8.12 2631 8.45
6/3/2022 12:15:00 PM 21.92 71.456 0.413 8.12 2615 8.53
6/3/2022 12:30:00 PM 22.07 71.726 0.414 8.13 2583 8.62
6/3/2022 12:45:00 PM 22.22 71.996 0.414 8.14 2565 8.69
6/3/2022 1:00:00 PM 22.37 72.266 0.415 8.15 2547 8.79
6/3/2022 1:15:00 PM 22.54 72.57201 0.415 8.16 2538 8.91
6/3/2022 1:30:00 PM 22.67 72.806 0.415 8.17 2534 8.99
6/3/2022 1:45:00 PM 22.83 73.094 0.416 8.17 2517 9.07
6/3/2022 2:00:00 PM 22.87 73.166 0.416 8.18 2518 9.13
6/3/2022 2:15:00 PM 23 73.4 0.416 8.19 2531 9.18
6/3/2022 2:30:00 PM 23.14 73.652 0.416 8.19 2502 9.18
6/3/2022 2:45:00 PM 23.24 73.832 0.414 8.2 2482 9.23
6/3/2022 3:00:00 PM 23.32 73.976 0.411 8.2 2469 9.24
6/3/2022 3:15:00 PM 23.42 74.156 0.417 8.2 2440 9.2
6/3/2022 3:30:00 PM 23.38 74.084 0.403 8.2 2444 9.08
6/3/2022 3:45:00 PM 23.4 74.12 0.413 8.2 2452 9.15
6/3/2022 4:00:00 PM 23.4 74.12 0.418 8.2 2466 9.14
6/3/2022 4:15:00 PM 23.34 74.012 0.417 8.2 2440 9.16
6/3/2022 4:30:00 PM 23.3 73.94 0.417 8.2 2442 9.16
6/3/2022 4:45:00 PM 23.33 73.994 0.418 8.2 2437 9.14
6/3/2022 5:00:00 PM 23.31 73.958 0.418 8.2 2451 9.12
6/3/2022 5:15:00 PM 23.21 73.778 0.418 8.2 2445 9.05
6/3/2022 5:30:00 PM 23.1 73.58 0.419 8.19 2446 8.94
6/3/2022 5:45:00 PM 23.06 73.508 0.419 8.19 2438 8.87
6/3/2022 6:00:00 PM 22.99 73.382 0.414 8.18 2424 8.75
6/3/2022 6:15:00 PM 22.84 73.112 0.419 8.17 2458 8.61
6/3/2022 6:30:00 PM 22.8 73.04 0.419 8.16 2448 8.52
6/3/2022 6:45:00 PM 22.66 72.788 0.42 8.15 2447 8.37
6/3/2022 7:00:00 PM 22.56 72.608 0.42 8.14 2446 8.22
6/3/2022 7:15:00 PM 22.45 72.41 0.419 8.14 2459 8.05
6/3/2022 7:30:00 PM 22.41 72.338 0.42 8.13 2467 7.97
6/3/2022 7:45:00 PM 22.38 72.284 0.42 8.12 2481 7.88
6/3/2022 8:00:00 PM 22.34 72.212 0.417 8.12 2238 7.77
6/3/2022 8:15:00 PM 22.31 72.158 0.414 8.11 1955 7.7
6/3/2022 8:30:00 PM 22.27 72.086 0.419 8.1 2476 7.58
6/3/2022 8:45:00 PM 22.26 72.068 0.42 8.09 2337 7.55
6/3/2022 9:00:00 PM 22.23 72.014 0.41 8.09 2912 7.5
6/3/2022 9:15:00 PM 22.21 71.978 0.42 8.09 2029 7.46
6/3/2022 9:30:00 PM 22.18 71.924 0.42 8.09 1408 7.41
6/3/2022 9:45:00 PM 22.16 71.888 0.42 8.09 1694 7.39
6/3/2022 10:00:00 PM 22.15 71.87 0.42 8.1 1578 7.38
6/3/2022 10:15:00 PM 22.14 71.852 0.42 8.11 1626 7.39
6/3/2022 10:30:00 PM 22.15 71.87 0.42 8.11 2381 7.38
6/3/2022 10:45:00 PM 22.14 71.852 0.42 8.11 1881 7.4
6/3/2022 11:00:00 PM 22.14 71.852 0.42 8.12 1877 7.41
6/3/2022 11:15:00 PM 22.12 71.816 0.42 8.12 1859 7.43
6/3/2022 11:30:00 PM 22.11 71.798 0.42 8.12 1864 7.44
6/3/2022 11:45:00 PM 22.11 71.798 0.412 8.13 1869 7.46
6/4/2022 12:00:00 AM 22.1 71.78 0.42 8.14 1906 7.48
6/4/2022 12:15:00 AM 22.1 71.78 0.42 8.14 1907 7.47
6/4/2022 12:30:00 AM 22.06 71.708 0.42 8.14 1912 7.47
6/4/2022 12:45:00 AM 22.05 71.69 0.42 8.15 1925 7.48
6/4/2022 1:00:00 AM 22.03 71.654 0.42 8.15 1911 7.47
6/4/2022 1:15:00 AM 22.02 71.636 0.419 8.16 1919 7.48
6/4/2022 1:30:00 AM 21.98 71.564 0.419 8.16 1917 7.51
6/4/2022 1:45:00 AM 21.96 71.528 0.419 8.17 1928 7.52
6/4/2022 2:00:00 AM 21.92 71.456 0.418 8.17 1885 7.52
6/4/2022 2:15:00 AM 21.85 71.33 0.419 8.17 1888 7.52
6/4/2022 2:30:00 AM 21.81 71.258 0.418 8.17 1893 7.53
6/4/2022 2:45:00 AM 21.76 71.168 0.418 8.17 1898 7.52
6/4/2022 3:00:00 AM 21.71 71.078 0.418 8.18 1902 7.54
6/4/2022 3:15:00 AM 21.67 71.006 0.418 8.18 1904 7.56
6/4/2022 3:30:00 AM 21.62 70.916 0.418 8.18 1884 7.58
6/4/2022 3:45:00 AM 21.56 70.808 0.418 8.18 1891 7.57
6/4/2022 4:00:00 AM 21.51 70.718 0.419 8.18 1909 7.56
6/4/2022 4:15:00 AM 21.45 70.61 0.419 8.18 1910 7.56
6/4/2022 4:30:00 AM 21.39 70.502 0.419 8.18 1898 7.55
6/4/2022 4:45:00 AM 21.34 70.412 0.419 8.17 1891 7.54
6/4/2022 5:00:00 AM 21.29 70.32201 0.418 8.17 1951 7.56
6/4/2022 5:15:00 AM 21.22 70.196 0.379 8.17 1935 7.57
6/4/2022 5:30:00 AM 21.16 70.088 0.42 8.16 2381 7.53
6/4/2022 5:45:00 AM 21.1 69.98 0.42 8.16 2002 7.52
6/4/2022 6:00:00 AM 21.05 69.89 0.419 8.16 1999 7.47
6/4/2022 6:15:00 AM 21 69.8 0.421 8.16 2025 7.49
6/4/2022 6:30:00 AM 20.94 69.692 0.421 8.15 2012 7.49
6/4/2022 6:45:00 AM 20.89 69.602 0.421 8.15 2087 7.5
6/4/2022 7:00:00 AM 20.85 69.53 0.421 8.15 2098 7.53
6/4/2022 7:15:00 AM 20.83 69.494 0.422 8.14 2105 7.56
6/4/2022 7:30:00 AM 20.81 69.458 0.422 8.14 2073 7.6
6/4/2022 7:45:00 AM 20.79 69.422 0.422 8.15 2107 7.65
6/4/2022 8:00:00 AM 20.76 69.368 0.423 8.15 2067 7.67
6/4/2022 8:15:00 AM 20.76 69.368 0.423 8.15 2086 7.68
6/4/2022 8:30:00 AM 20.75 69.35 0.422 8.15 2101 7.74
6/4/2022 8:45:00 AM 20.75 69.35 0.423 8.15 2104 7.79
6/4/2022 9:00:00 AM 20.76 69.368 0.424 8.15 2110 7.83
6/4/2022 9:15:00 AM 20.76 69.368 0.424 8.15 2110 7.91
6/4/2022 9:30:00 AM 20.76 69.368 0.425 8.15 2004 7.95
6/4/2022 9:45:00 AM 20.77 69.386 0.425 8.16 1997 8.02
6/4/2022 10:00:00 AM 20.8 69.44 0.373 8.16 1991 8.08
6/4/2022 10:15:00 AM 20.82 69.476 0.383 8.16 2012 8.11
6/4/2022 10:30:00 AM 20.85 69.53 0.388 8.17 1988 8.19
6/4/2022 10:45:00 AM 20.9 69.62 0.392 8.17 1933 8.26
6/4/2022 11:00:00 AM 20.95 69.71 0.404 8.18 1936 8.33
6/4/2022 11:15:00 AM 21.02 69.836 0.405 8.19 1939 8.44
6/4/2022 11:30:00 AM 21.09 69.962 0.404 8.19 1932 8.53
6/4/2022 11:45:00 AM 21.2 70.16 0.406 8.2 1936 8.6
6/4/2022 12:00:00 PM 21.33 70.394 0.41 8.21 1939 8.7
6/4/2022 12:15:00 PM 21.46 70.628 0.408 8.21 1994 8.77
6/4/2022 12:30:00 PM 21.58 70.844 0.412 8.22 1999 8.84
6/4/2022 12:45:00 PM 21.72 71.096 0.413 8.22 1984 8.94
6/4/2022 1:00:00 PM 21.86 71.348 0.376 8.23 1990 9
6/4/2022 1:15:00 PM 22.02 71.636 0.406 8.23 2007 9.06
6/4/2022 1:30:00 PM 22.23 72.014 0.402 8.23 2023 9.13
6/4/2022 1:45:00 PM 22.34 72.212 0.395 8.23 2026 9.19
6/4/2022 2:00:00 PM 22.44 72.392 0.391 8.23 2009 9.26
6/4/2022 2:15:00 PM 22.57 72.626 0.398 8.24 2917 9.31
6/4/2022 2:30:00 PM 22.71 72.878 0.392 8.24 2948 9.34
6/4/2022 2:45:00 PM 22.81 73.058 0.392 8.24 2961 9.34
6/4/2022 3:00:00 PM 22.91 73.238 0.397 8.23 2922 9.32
6/4/2022 3:15:00 PM 23.02 73.436 0.414 8.24 2943 9.3
6/4/2022 3:30:00 PM 23.07 73.526 0.411 8.24 3026 9.33
6/4/2022 3:45:00 PM 23.16 73.688 0.41 8.23 3013 9.33
6/4/2022 4:00:00 PM 23.19 73.742 0.415 8.23 2933 9.38
6/4/2022 4:15:00 PM 23.2 73.76 0.404 8.23 3034 9.39
6/4/2022 4:30:00 PM 23.19 73.742 0.404 8.23 3008 9.39
6/4/2022 4:45:00 PM 23.18 73.724 0.414 8.23 3008 9.36
6/4/2022 5:00:00 PM 23.14 73.652 0.412 8.22 2977 9.32
6/4/2022 5:15:00 PM 23.08 73.544 0.393 8.22 3015 9.26
6/4/2022 5:30:00 PM 22.96 73.328 0.414 8.22 2953 9.17
6/4/2022 5:45:00 PM 22.86 73.148 0.392 8.21 3226 9.08
6/4/2022 6:00:00 PM 22.8 73.04 0.406 8.21 3172 8.97
6/4/2022 6:15:00 PM 22.67 72.806 0.382 8.19 3125 8.87
6/4/2022 6:30:00 PM 22.56 72.608 0.434 8.18 3108 8.73
6/4/2022 6:45:00 PM 22.39 72.302 0.392 8.17 3338 8.55
6/4/2022 7:00:00 PM 22.21 71.978 0.413 8.16 3353 8.39
6/4/2022 7:15:00 PM 22.08 71.744 0.409 8.15 2875 8.22
6/4/2022 7:30:00 PM 21.95 71.51 0.44 8.13 2947 8.06
6/4/2022 7:45:00 PM 21.85 71.33 0.44 8.12 2783 7.91
6/4/2022 8:00:00 PM 21.77 71.186 0.44 8.11 3198 7.8
6/4/2022 8:15:00 PM 21.72 71.096 0.44 8.11 2918 7.71
6/4/2022 8:30:00 PM 21.68 71.024 0.44 8.1 3160 7.63
6/4/2022 8:45:00 PM 21.63 70.934 0.44 8.09 2831 7.55
6/4/2022 9:00:00 PM 21.6 70.88 0.44 8.09 2830 7.51
6/4/2022 9:15:00 PM 21.56 70.808 0.44 8.08 2932 7.46
6/4/2022 9:30:00 PM 21.55 70.79 0.439 8.08 3011 7.4
6/4/2022 9:45:00 PM 21.52 70.736 0.431 8.08 3113 7.38
6/4/2022 10:00:00 PM 21.53 70.754 0.439 8.09 2901 7.39
6/4/2022 10:15:00 PM 21.49 70.682 0.439 8.09 3073 7.38
6/4/2022 10:30:00 PM 21.5 70.7 0.439 8.09 3092 7.38
6/4/2022 10:45:00 PM 21.51 70.718 0.439 8.09 2842 7.4
6/4/2022 11:00:00 PM 21.53 70.754 0.439 8.1 3597 7.42
6/4/2022 11:15:00 PM 21.52 70.736 0.439 8.1 4047 7.39
6/4/2022 11:30:00 PM 21.52 70.736 0.44 8.11 4185 7.43
6/4/2022 11:45:00 PM 21.52 70.736 0.44 8.12 4162 7.44
6/5/2022 12:00:00 AM 21.53 70.754 0.44 8.12 4197 7.45
6/5/2022 12:15:00 AM 21.55 70.79 0.44 8.13 4127 7.47
6/5/2022 12:30:00 AM 21.57 70.826 0.44 8.13 4140 7.47
6/5/2022 12:45:00 AM 21.56 70.808 0.44 8.14 4101 7.48
6/5/2022 1:00:00 AM 21.55 70.79 0.441 8.13 4109 7.49
6/5/2022 1:15:00 AM 21.59 70.862 0.441 8.14 4087 7.47
6/5/2022 1:30:00 AM 21.6 70.88 0.441 8.15 4125 7.49
6/5/2022 1:45:00 AM 21.62 70.916 0.441 8.15 4112 7.51
6/5/2022 2:00:00 AM 21.6 70.88 0.441 8.15 4109 7.5
6/5/2022 2:15:00 AM 21.57 70.826 0.435 8.15 4112 7.5
6/5/2022 2:30:00 AM 21.56 70.808 0.437 8.15 4131 7.51
6/5/2022 2:45:00 AM 21.54 70.772 0.44 8.16 4095 7.5
6/5/2022 3:00:00 AM 21.53 70.754 0.44 8.16 4106 7.5
6/5/2022 3:15:00 AM 21.5 70.7 0.44 8.16 4058 7.51
6/5/2022 3:30:00 AM 21.47 70.646 0.439 8.16 4158 7.49
6/5/2022 3:45:00 AM 21.42 70.556 0.44 8.16 4177 7.5
6/5/2022 4:00:00 AM 21.37 70.466 0.44 8.17 4084 7.49
6/5/2022 4:15:00 AM 21.32 70.376 0.44 8.16 4060 7.45
6/5/2022 4:30:00 AM 21.28 70.304 0.418 8.16 4067 7.49
6/5/2022 4:45:00 AM 21.2 70.16 0.44 8.16 4092 7.49
6/5/2022 5:00:00 AM 21.16 70.088 0.44 8.16 4284 7.46
6/5/2022 5:15:00 AM 21.1 69.98 0.44 8.16 4302 7.49
6/5/2022 5:30:00 AM 21.04 69.872 0.44 8.15 4117 7.48
6/5/2022 5:45:00 AM 20.98 69.764 0.44 8.16 3829 7.46
6/5/2022 6:00:00 AM 20.91 69.638 0.441 8.15 3512 7.47
6/5/2022 6:15:00 AM 20.83 69.494 0.441 8.15 3402 7.49
6/5/2022 6:30:00 AM 20.78 69.404 0.441 8.14 3448 7.48
6/5/2022 6:45:00 AM 20.73 69.314 0.441 8.14 3396 7.52
6/5/2022 7:00:00 AM 20.69 69.242 0.441 8.14 4185 7.55
6/5/2022 7:15:00 AM 20.65 69.17 0.441 8.14 4193 7.56
6/5/2022 7:30:00 AM 20.64 69.152 0.435 8.14 4311 7.61
6/5/2022 7:45:00 AM 20.61 69.098 0.441 8.14 3627 7.64
6/5/2022 8:00:00 AM 20.58 69.044 0.442 8.15 3635 7.69
6/5/2022 8:15:00 AM 20.58 69.044 0.442 8.14 3612 7.74
6/5/2022 8:30:00 AM 20.56 69.008 0.442 8.14 3595 7.78
6/5/2022 8:45:00 AM 20.54 68.972 0.442 8.14 4348 7.81
6/5/2022 9:00:00 AM 20.52 68.936 0.437 8.14 4397 7.85
6/5/2022 9:15:00 AM 20.5 68.9 0.442 8.15 4384 7.92
6/5/2022 9:30:00 AM 20.5 68.9 0.413 8.15 4325 7.96
6/5/2022 9:45:00 AM 20.49 68.882 0.442 8.15 4311 8.03
6/5/2022 10:00:00 AM 20.48 68.864 0.431 8.15 4274 8.07
6/5/2022 10:15:00 AM 20.5 68.9 0.442 8.16 4289 8.14
6/5/2022 10:30:00 AM 20.51 68.918 0.443 8.16 4150 8.24
6/5/2022 10:45:00 AM 20.52 68.936 0.443 8.17 4888 8.32
6/5/2022 11:00:00 AM 20.57 69.026 0.443 8.17 4407 8.45
6/5/2022 11:15:00 AM 20.65 69.17 0.443 8.18 4249 8.56
6/5/2022 11:30:00 AM 20.76 69.368 0.443 8.19 4397 8.66
6/5/2022 11:45:00 AM 20.85 69.53 0.443 8.2 4391 8.79
6/5/2022 12:00:00 PM 20.96 69.728 0.443 8.2 4248 8.88
6/5/2022 12:15:00 PM 21.06 69.908 0.444 8.21 4161 8.95
6/5/2022 12:30:00 PM 21.19 70.142 0.444 8.22 4183 9.05
6/5/2022 12:45:00 PM 21.35 70.43 0.444 8.22 4146 9.12
6/5/2022 1:00:00 PM 21.5 70.7 0.444 8.22 4145 9.16
6/5/2022 1:15:00 PM 21.67 71.006 0.445 8.22 4106 9.27
6/5/2022 1:30:00 PM 21.83 71.294 0.445 8.22 4226 9.33
6/5/2022 1:45:00 PM 21.98 71.564 0.445 8.23 4268 9.37
6/5/2022 2:00:00 PM 22.08 71.744 0.445 8.23 4153 9.42
6/5/2022 2:15:00 PM 22.16 71.888 0.445 8.23 4452 9.45
6/5/2022 2:30:00 PM 22.25 72.05 0.446 8.23 4310 9.47
6/5/2022 2:45:00 PM 22.39 72.302 0.446 8.24 4195 9.49
6/5/2022 3:00:00 PM 22.51 72.518 0.447 8.23 4240 9.49
6/5/2022 3:15:00 PM 22.58 72.644 0.447 8.23 4364 9.49
6/5/2022 3:30:00 PM 22.72 72.896 0.447 8.23 4508 9.48
6/5/2022 3:45:00 PM 22.8 73.04 0.447 8.23 4438 9.44
6/5/2022 4:00:00 PM 22.87 73.166 0.447 8.22 4189 9.44
6/5/2022 4:15:00 PM 22.94 73.292 0.448 8.23 4139 9.46
6/5/2022 4:30:00 PM 22.93 73.274 0.448 8.22 4211 9.43
6/5/2022 4:45:00 PM 22.91 73.238 0.449 8.22 4184 9.35
6/5/2022 5:00:00 PM 22.92 73.256 0.449 8.22 4178 9.37
6/5/2022 5:15:00 PM 22.75 72.95 0.449 8.21 4190 9.26
6/5/2022 5:30:00 PM 22.6 72.68 0.449 8.2 4288 9.21
6/5/2022 5:45:00 PM 22.54 72.57201 0.449 8.2 4313 9.11
6/5/2022 6:00:00 PM 22.44 72.392 0.449 8.19 4341 8.98
6/5/2022 6:15:00 PM 22.32 72.176 0.449 8.18 4355 8.86
6/5/2022 6:30:00 PM 22.17 71.906 0.45 8.17 4390 8.76
6/5/2022 6:45:00 PM 22.01 71.618 0.45 8.16 4570 8.59
6/5/2022 7:00:00 PM 21.8 71.24 0.451 8.15 4412 8.4
6/5/2022 7:15:00 PM 21.66 70.988 0.451 8.13 4350 8.23
6/5/2022 7:30:00 PM 21.47 70.646 0.452 8.12 3661 8.08
6/5/2022 7:45:00 PM 21.34 70.412 0.453 8.11 4406 7.94
6/5/2022 8:00:00 PM 21.23 70.214 0.453 8.1 4355 7.82
6/5/2022 8:15:00 PM 21.14 70.052 0.453 8.09 4792 7.75
6/5/2022 8:30:00 PM 21.06 69.908 0.452 8.08 4657 7.65
6/5/2022 8:45:00 PM 20.99 69.782 0.453 8.08 4482 7.6
6/5/2022 9:00:00 PM 20.93 69.674 0.453 8.08 4468 7.54
6/5/2022 9:15:00 PM 20.89 69.602 0.452 8.07 4260 7.52
6/5/2022 9:30:00 PM 20.86 69.548 0.453 8.07 3949 7.49
6/5/2022 9:45:00 PM 20.84 69.512 0.452 8.07 4143 7.45
6/5/2022 10:00:00 PM 20.81 69.458 0.452 8.06 4367 7.45
6/5/2022 10:15:00 PM 20.78 69.404 0.452 8.06 3996 7.41
6/5/2022 10:30:00 PM 20.78 69.404 0.452 8.06 4445 7.43
6/5/2022 10:45:00 PM 20.74 69.332 0.452 8.07 5083 7.33
6/5/2022 11:00:00 PM 20.72 69.296 0.452 8.07 4323 7.42
6/5/2022 11:15:00 PM 20.73 69.314 0.452 8.08 4417 7.45
6/5/2022 11:30:00 PM 20.73 69.314 0.452 8.08 4459 7.47
6/5/2022 11:45:00 PM 20.73 69.314 0.452 8.09 4057 7.25
6/6/2022 12:00:00 AM 20.72 69.296 0.452 8.09 4219 7.49
6/6/2022 12:15:00 AM 20.71 69.278 0.453 8.1 4746 7.51
6/6/2022 12:30:00 AM 20.73 69.314 0.453 8.1 4277 7.55
6/6/2022 12:45:00 AM 20.73 69.314 0.453 8.1 3812 7.56
6/6/2022 1:00:00 AM 20.75 69.35 0.453 8.11 3758 7.58
6/6/2022 1:15:00 AM 20.76 69.368 0.454 8.12 3760 7.56
6/6/2022 1:30:00 AM 20.75 69.35 0.454 8.12 3745 7.57
6/6/2022 1:45:00 AM 20.77 69.386 0.454 8.12 3573 7.58
6/6/2022 2:00:00 AM 20.78 69.404 0.454 8.13 4171 7.61
6/6/2022 2:15:00 AM 20.76 69.368 0.454 8.13 3603 7.61
6/6/2022 2:30:00 AM 20.75 69.35 0.454 8.13 4282 7.6
6/6/2022 2:45:00 AM 20.75 69.35 0.455 8.13 4621 7.6
6/6/2022 3:00:00 AM 20.74 69.332 0.454 8.14 4377 7.59
6/6/2022 3:15:00 AM 20.75 69.35 0.453 8.14 3995 7.26
6/6/2022 3:30:00 AM 20.71 69.278 0.453 8.14 3543 7.61
6/6/2022 3:45:00 AM 20.69 69.242 0.453 8.14 3623 6.7
6/6/2022 4:00:00 AM 20.67 69.206 0.453 8.14 3539 7.66
6/6/2022 4:15:00 AM 20.64 69.152 0.453 8.14 4128 7.36
6/6/2022 4:30:00 AM 20.58 69.044 0.452 8.14 3136 7.7
6/6/2022 4:45:00 AM 20.56 69.008 0.453 8.14 3869 7.67
6/6/2022 5:00:00 AM 20.5 68.9 0.452 8.14 3387 7.7
6/6/2022 5:15:00 AM 20.45 68.81 0.453 8.14 3678 7.68
6/6/2022 5:30:00 AM 20.41 68.738 0.451 8.14 3563 7.69
6/6/2022 5:45:00 AM 20.35 68.63 0.452 8.14 3567 7.66
6/6/2022 6:00:00 AM 20.29 68.522 0.452 8.14 3568 7.66
6/6/2022 6:15:00 AM 20.27 68.486 0.453 8.13 3600 7.67
6/6/2022 6:30:00 AM 20.2 68.36 0.454 8.13 3608 7.7
6/6/2022 6:45:00 AM 20.18 68.324 0.454 8.13 3795 7.73
6/6/2022 7:00:00 AM 20.14 68.252 0.454 8.13 3390 7.76
6/6/2022 7:15:00 AM 20.12 68.216 0.454 8.13 3389 7.74
6/6/2022 7:30:00 AM 20.1 68.18 0.454 8.13 3381 7.8
6/6/2022 7:45:00 AM 20.09 68.162 0.454 8.13 3371 7.86
6/6/2022 8:00:00 AM 20.1 68.18 0.454 8.14 3395 7.89
6/6/2022 8:15:00 AM 20.1 68.18 0.454 8.14 3769 7.99
6/6/2022 8:30:00 AM 20.08 68.144 0.454 8.14 3715 8
6/6/2022 8:45:00 AM 20.1 68.18 0.454 8.15 3726 8.06
6/6/2022 9:00:00 AM 20.11 68.198 0.454 8.14 4488 8.12
6/6/2022 9:15:00 AM 20.13 68.234 0.453 8.15 4226 8.19
6/6/2022 9:30:00 AM 20.15 68.27 0.454 8.15 4173 8.24
6/6/2022 9:45:00 AM 20.17 68.306 0.454 8.15 3923 8.31
6/6/2022 10:00:00 AM 20.22 68.396 0.454 8.16 3934 8.42
6/6/2022 10:15:00 AM 20.25 68.45 0.453 8.17 3547 8.52
6/6/2022 10:30:00 AM 20.31 68.558 0.453 8.18 3540 8.67
6/6/2022 10:45:00 AM 20.39 68.702 0.453 8.18 3761 8.8
6/6/2022 11:00:00 AM 20.5 68.9 0.454 8.2 4775 8.93
6/6/2022 11:15:00 AM 20.56 69.008 0.454 8.2 5.75 9.04
6/6/2022 11:30:00 AM 20.65 69.17 0.454 8.2 6.15 9.13
6/6/2022 11:45:00 AM 20.75 69.35 0.454 8.2 13.4 9.18
6/6/2022 12:00:00 PM 20.81 69.458 0.454 8.21 7 9.25
6/6/2022 12:15:00 PM 20.91 69.638 0.454 8.21 6.58 9.28
6/6/2022 12:30:00 PM 21.03 69.854 0.454 8.21 5.57 9.31
6/6/2022 12:45:00 PM 21.17 70.106 0.454 8.21 6.15 9.36
6/6/2022 1:00:00 PM 21.33 70.394 0.454 8.21 5.91 9.41
6/6/2022 1:15:00 PM 21.51 70.718 0.455 8.22 5.5 9.46
6/6/2022 1:30:00 PM 21.68 71.024 0.455 8.21 5.76 9.52
6/6/2022 1:45:00 PM 21.85 71.33 0.455 8.22 6.35 9.58
6/6/2022 2:00:00 PM 21.96 71.528 0.456 8.22 5.46 9.59
6/6/2022 2:15:00 PM 22.12 71.816 0.456 8.22 5.92 9.63
6/6/2022 2:30:00 PM 22.27 72.086 0.456 8.22 8.68 9.65
6/6/2022 2:45:00 PM 22.44 72.392 0.456 8.22 5.83 9.67
6/6/2022 3:00:00 PM 22.53 72.554 0.456 8.22 5.77 9.69
6/6/2022 3:15:00 PM 22.68 72.824 0.456 8.21 6.04 9.68
6/6/2022 3:30:00 PM 22.72 72.896 0.457 8.21 15.29 9.68
6/6/2022 3:45:00 PM 22.72 72.896 0.457 8.2 7.38 9.66
6/6/2022 4:00:00 PM 22.8 73.04 0.458 8.2 6.55 9.63
6/6/2022 4:15:00 PM 22.83 73.094 0.458 8.2 6.99 9.62
6/6/2022 4:30:00 PM 22.82 73.076 0.458 8.2 5.88 9.58
6/6/2022 4:45:00 PM 22.74 72.932 0.458 8.2 5.91 9.56
6/6/2022 5:00:00 PM 22.75 72.95 0.458 8.2 5.92 9.51
6/6/2022 5:15:00 PM 22.56 72.608 0.459 8.19 6.3 9.41
6/6/2022 5:30:00 PM 22.48 72.464 0.459 8.18 6.19 9.36
6/6/2022 5:45:00 PM 22.35 72.23 0.459 8.18 5.46 9.25
6/6/2022 6:00:00 PM 22.22 71.996 0.459 8.17 6.27 9.15
6/6/2022 6:15:00 PM 22.01 71.618 0.46 8.17 5.78 9.03
6/6/2022 6:30:00 PM 21.86 71.348 0.46 8.16 6.06 8.9
6/6/2022 6:45:00 PM 21.72 71.096 0.46 8.16 5.27 8.8
6/6/2022 7:00:00 PM 21.54 70.772 0.461 8.15 5.43 8.6
6/6/2022 7:15:00 PM 21.37 70.466 0.461 8.13 5.77 8.48
6/6/2022 7:30:00 PM 21.23 70.214 0.456 8.12 5.59 8.35
6/6/2022 7:45:00 PM 21.08 69.944 0.462 8.11 5.21 8.22
6/6/2022 8:00:00 PM 20.98 69.764 0.461 8.1 5.75 8.09
6/6/2022 8:15:00 PM 20.88 69.584 0.462 8.1 5.83 8
6/6/2022 8:30:00 PM 20.81 69.458 0.464 8.09 6.13 7.87
6/6/2022 8:45:00 PM 20.75 69.35 0.463 8.08 6.85 7.79
6/6/2022 9:00:00 PM 20.71 69.278 0.463 8.07 5.94 7.71
6/6/2022 9:15:00 PM 20.67 69.206 0.463 8.06 5.22 7.66
6/6/2022 9:30:00 PM 20.63 69.134 0.464 8.06 4.79 7.62
6/6/2022 9:45:00 PM 20.61 69.098 0.446 8.05 5.6 7.58
6/6/2022 10:00:00 PM 20.59 69.062 0.464 8.05 6.62 7.55
6/6/2022 10:15:00 PM 20.59 69.062 0.464 8.05 5.93 7.53
6/6/2022 10:30:00 PM 20.58 69.044 0.464 8.05 5.71 7.51
6/6/2022 10:45:00 PM 20.58 69.044 0.448 8.05 5.05 7.52
6/6/2022 11:00:00 PM 20.56 69.008 0.436 8.05 5.86 7.5
6/6/2022 11:15:00 PM 20.55 68.99 0.451 8.06 5.16 7.53
6/6/2022 11:30:00 PM 20.55 68.99 0.434 8.06 4.84 7.52
6/6/2022 11:45:00 PM 20.54 68.972 0.465 8.07 6.91 7.54
6/7/2022 12:00:00 AM 20.53 68.954 0.413 8.07 5.29 7.59
6/7/2022 12:15:00 AM 20.52 68.936 0.463 8.08 5.56 7.58
6/7/2022 12:30:00 AM 20.54 68.972 0.465 8.08 5.81 7.58
6/7/2022 12:45:00 AM 20.56 69.008 0.466 8.09 6.05 7.61
6/7/2022 1:00:00 AM 20.6 69.08 0.466 8.1 5.43 7.64
6/7/2022 1:15:00 AM 20.62 69.116 0.466 8.1 5.33 7.64
6/7/2022 1:30:00 AM 20.63 69.134 0.466 8.11 6.73 7.68
6/7/2022 1:45:00 AM 20.67 69.206 0.466 8.11 5.91 7.68
6/7/2022 2:00:00 AM 20.67 69.206 0.466 8.11 5.57 7.69
6/7/2022 2:15:00 AM 20.69 69.242 0.466 8.12 6.07 7.68
6/7/2022 2:30:00 AM 20.72 69.296 0.467 8.12 7.09 7.68
6/7/2022 2:45:00 AM 20.75 69.35 0.445 8.12 6.11 7.72
6/7/2022 3:00:00 AM 20.76 69.368 0.448 8.12 7.78 7.67
6/7/2022 3:15:00 AM 20.78 69.404 0.468 8.12 7.33 7.68
6/7/2022 3:30:00 AM 20.8 69.44 0.444 8.13 5.93 7.67
6/7/2022 3:45:00 AM 20.83 69.494 0.469 8.13 5.57 7.65
6/7/2022 4:00:00 AM 20.84 69.512 0.451 8.12 5.98 7.63
6/7/2022 4:15:00 AM 20.83 69.494 0.47 8.12 5.89 7.62
6/7/2022 4:30:00 AM 20.84 69.512 0.468 8.12 6.08 7.62
6/7/2022 4:45:00 AM 20.85 69.53 0.469 8.12 6.75 7.58
6/7/2022 5:00:00 AM 20.81 69.458 0.468 8.12 9.75 7.58
6/7/2022 5:15:00 AM 20.81 69.458 0.469 8.12 6.7 7.58
6/7/2022 5:30:00 AM 20.78 69.404 0.469 8.12 7.23 7.55
6/7/2022 5:45:00 AM 20.77 69.386 0.469 8.12 6.67 7.52
6/7/2022 6:00:00 AM 20.75 69.35 0.469 8.11 7.36 7.54
6/7/2022 6:15:00 AM 20.73 69.314 0.469 8.11 6.81 7.58
6/7/2022 6:30:00 AM 20.71 69.278 0.469 8.11 8.78 7.56
6/7/2022 6:45:00 AM 20.7 69.26 0.47 8.11 6.77 7.61
6/7/2022 7:00:00 AM 20.69 69.242 0.47 8.11 5.5 7.66
6/7/2022 7:15:00 AM 20.69 69.242 0.47 8.11 5.94 7.71
6/7/2022 7:30:00 AM 20.69 69.242 0.47 8.12 6.16 7.77
6/7/2022 7:45:00 AM 20.69 69.242 0.47 8.12 5.87 7.83
6/7/2022 8:00:00 AM 20.68 69.224 0.469 8.12 6.05 7.87
6/7/2022 8:15:00 AM 20.7 69.26 0.47 8.12 6.19 7.93
6/7/2022 8:30:00 AM 20.73 69.314 0.469 8.13 5.49 8.08
6/7/2022 8:45:00 AM 20.72 69.296 0.469 8.13 5.31 8.14
6/7/2022 9:00:00 AM 20.69 69.242 0.469 8.13 5.98 8.15
6/7/2022 9:15:00 AM 20.66 69.188 0.469 8.13 5.89 8.11
6/7/2022 9:30:00 AM 20.66 69.188 0.469 8.13 5.55 8.19
6/7/2022 9:45:00 AM 20.66 69.188 0.469 8.12 6.33 8.22
6/7/2022 10:00:00 AM 20.68 69.224 0.469 8.13 5.6 8.28
6/7/2022 10:15:00 AM 20.71 69.278 0.469 8.13 5.53 8.35
6/7/2022 10:30:00 AM 20.72 69.296 0.469 8.13 6.41 8.41
6/7/2022 10:45:00 AM 20.71 69.278 0.468 8.13 5.49 8.43
6/7/2022 11:00:00 AM 20.73 69.314 0.468 8.13 5.47 8.5
6/7/2022 11:15:00 AM 20.76 69.368 0.468 8.14 5.77 8.59
6/7/2022 11:30:00 AM 20.88 69.584 0.468 8.15 5.43 8.76
6/7/2022 11:45:00 AM 20.91 69.638 0.468 8.15 5.39 8.81
6/7/2022 12:00:00 PM 20.9 69.62 0.468 8.15 6.31 8.83
6/7/2022 12:15:00 PM 20.88 69.584 0.468 8.15 6.18 8.81
6/7/2022 12:30:00 PM 20.84 69.512 0.468 8.15 6.22 8.78
6/7/2022 12:45:00 PM 20.81 69.458 0.468 8.14 5.5 8.71
6/7/2022 1:00:00 PM 20.8 69.44 0.468 8.14 5.33 8.72
6/7/2022 1:15:00 PM 20.75 69.35 0.468 8.13 6.19 8.65
6/7/2022 1:30:00 PM 20.67 69.206 0.468 8.12 5.8 8.5
6/7/2022 1:45:00 PM 20.58 69.044 0.469 8.11 6.09 8.39
6/7/2022 2:00:00 PM 20.52 68.936 0.469 8.1 5.9 8.27
6/7/2022 2:15:00 PM 20.46 68.828 0.469 8.09 6.71 8.19
6/7/2022 2:30:00 PM 20.42 68.756 0.469 8.08 6.24 8.17
6/7/2022 2:45:00 PM 20.38 68.684 0.469 8.07 6.16 8.11
6/7/2022 3:00:00 PM 20.33 68.594 0.469 8.03 5.76 8.05
6/7/2022 3:15:00 PM 20.27 68.486 0.469 8.02 6.57 7.92
6/7/2022 3:30:00 PM 20.22 68.396 0.469 8.04 5.74 7.8
6/7/2022 3:45:00 PM 20.18 68.324 0.47 8.04 5.76 7.75
6/7/2022 4:00:00 PM 20.14 68.252 0.47 8.03 5.28 7.74
6/7/2022 4:15:00 PM 20.1 68.18 0.469 8.03 6.07 7.7
6/7/2022 4:30:00 PM 20.06 68.108 0.468 8.03 5.82 7.65
6/7/2022 4:45:00 PM 20.02 68.036 0.467 8.02 6.36 7.6
6/7/2022 5:00:00 PM 19.98 67.964 0.467 8.01 7.71 7.55
6/7/2022 5:15:00 PM 19.96 67.92799 0.467 8.01 5.03 7.57
6/7/2022 5:30:00 PM 19.93 67.874 0.467 8 6.39 7.52
6/7/2022 5:45:00 PM 19.9 67.82 0.468 8 5.98 7.48
6/7/2022 6:00:00 PM 19.87 67.766 0.462 7.99 6.19 7.47
6/7/2022 6:15:00 PM 19.85 67.73 0.432 7.99 7.11 7.47
6/7/2022 6:30:00 PM 19.82 67.676 0.469 7.98 6.31 7.45
6/7/2022 6:45:00 PM 19.79 67.622 0.47 7.99 7.31 7.44
6/7/2022 7:00:00 PM 19.77 67.586 0.47 7.98 6.73 7.45
6/7/2022 7:15:00 PM 19.77 67.586 0.47 7.98 7.68 7.43
6/7/2022 7:30:00 PM 19.76 67.568 0.468 7.99 7.07 7.48
6/7/2022 7:45:00 PM 19.75 67.55 0.469 7.99 6.72 7.47
6/7/2022 8:00:00 PM 19.74 67.532 0.468 7.98 8.48 7.45
6/7/2022 8:15:00 PM 19.73 67.514 0.468 7.98 7.23 7.45
6/7/2022 8:30:00 PM 19.73 67.514 0.469 7.98 5.83 7.47
6/7/2022 8:45:00 PM 19.72 67.496 0.469 7.98 6.41 7.48
6/7/2022 9:00:00 PM 19.71 67.478 0.469 7.98 7.17 7.49
6/7/2022 9:15:00 PM 19.69 67.442 0.47 7.98 6.05 7.51
6/7/2022 9:30:00 PM 19.67 67.406 0.47 7.98 10.67 7.51
6/7/2022 9:45:00 PM 19.66 67.388 0.47 7.98 6.47 7.49
6/7/2022 10:00:00 PM 19.65 67.37 0.471 7.98 6.88 7.48
6/7/2022 10:15:00 PM 19.64 67.352 0.471 7.98 7.14 7.5
6/7/2022 10:30:00 PM 19.63 67.334 0.471 7.99 9.08 7.51
6/7/2022 10:45:00 PM 19.62 67.316 0.471 7.99 6.02 7.5
6/7/2022 11:00:00 PM 19.61 67.298 0.471 7.99 7.54 7.52
6/7/2022 11:15:00 PM 19.61 67.298 0.472 7.99 6.18 7.53
6/7/2022 11:30:00 PM 19.6 67.28 0.472 7.99 5.95 7.56
6/7/2022 11:45:00 PM 19.59 67.262 0.472 7.99 16.32 7.57
6/8/2022 12:00:00 AM 19.58 67.244 0.473 8 6.9 7.56
6/8/2022 12:15:00 AM 19.57 67.226 0.473 8 8.63 7.58
6/8/2022 12:30:00 AM 19.57 67.226 0.474 8 5.94 7.59
6/8/2022 12:45:00 AM 19.56 67.208 0.474 8 5.33 7.61
6/8/2022 1:00:00 AM 19.56 67.208 0.474 8 5.79 7.61
6/8/2022 1:15:00 AM 19.55 67.19 0.474 8.01 6.55 7.63
6/8/2022 1:30:00 AM 19.54 67.172 0.474 8.01 6.87 7.64
6/8/2022 1:45:00 AM 19.53 67.154 0.474 8.01 6.56 7.64
6/8/2022 2:00:00 AM 19.52 67.136 0.474 8.01 7.28 7.63
6/8/2022 2:15:00 AM 19.51 67.118 0.475 8.01 5.68 7.64
6/8/2022 2:30:00 AM 19.5 67.1 0.475 8.01 6.41 7.65
6/8/2022 2:45:00 AM 19.49 67.082 0.475 8.01 7.08 7.57
6/8/2022 3:00:00 AM 19.48 67.064 0.476 8.01 6.49 7.66
6/8/2022 3:15:00 AM 19.47 67.046 0.475 8.01 5.78 7.63
6/8/2022 3:30:00 AM 19.46 67.028 0.476 8.01 7.28 7.66
6/8/2022 3:45:00 AM 19.44 66.992 0.476 8.01 6.9 7.62
6/8/2022 4:00:00 AM 19.43 66.974 0.477 8 5.84 7.62
6/8/2022 4:15:00 AM 19.42 66.956 0.477 8 7.29 7.66
6/8/2022 4:30:00 AM 19.41 66.938 0.477 8 6.4 7.65
6/8/2022 4:45:00 AM 19.4 66.92 0.477 8 6.01 7.64
6/8/2022 5:00:00 AM 19.38 66.884 0.478 8 9.84 7.63
6/8/2022 5:15:00 AM 19.37 66.866 0.478 8 6.43 7.64
6/8/2022 5:30:00 AM 19.36 66.848 0.478 8 8.13 7.61
6/8/2022 5:45:00 AM 19.33 66.794 0.478 7.99 7.23 7.6
6/8/2022 6:00:00 AM 19.31 66.758 0.478 7.99 6.81 7.58
6/8/2022 6:15:00 AM 19.3 66.74 0.479 7.99 7.95 7.57
6/8/2022 6:30:00 AM 19.28 66.704 0.479 7.99 6.16 7.59
6/8/2022 6:45:00 AM 19.27 66.686 0.479 7.99 6.56 7.6
6/8/2022 7:00:00 AM 19.26 66.668 0.479 7.99 6.12 7.64
6/8/2022 7:15:00 AM 19.27 66.686 0.479 8 7.28 7.69
6/8/2022 7:30:00 AM 19.27 66.686 0.479 8 6.34 7.74
6/8/2022 7:45:00 AM 19.27 66.686 0.479 8 6.34 7.77
6/8/2022 8:00:00 AM 19.27 66.686 0.479 8.01 6.3 7.84
6/8/2022 8:15:00 AM 19.26 66.668 0.478 8.01 6.8 7.9
6/8/2022 8:30:00 AM 19.25 66.65 0.478 8.01 6.25 7.98
6/8/2022 8:45:00 AM 19.25 66.65 0.479 8.02 5.13 8.03
6/8/2022 9:00:00 AM 19.25 66.65 0.478 8.02 7.45 8.09
6/8/2022 9:15:00 AM 19.26 66.668 0.478 8.02 6.5 8.17
6/8/2022 9:30:00 AM 19.26 66.668 0.478 8.03 5.85 8.24
6/8/2022 9:45:00 AM 19.29 66.722 0.478 8.04 5.24 8.34
6/8/2022 10:00:00 AM 19.33 66.794 0.478 8.04 6.37 8.43
6/8/2022 10:15:00 AM 19.38 66.884 0.478 8.05 5.05 8.52
6/8/2022 10:30:00 AM 19.44 66.992 0.478 8.06 5.57 8.61
6/8/2022 10:45:00 AM 19.51 67.118 0.478 8.06 5.68 8.68
6/8/2022 11:00:00 AM 19.61 67.298 0.478 8.07 5.27 8.77
6/8/2022 11:15:00 AM 19.7 67.46 0.477 8.07 5.48 8.83
6/8/2022 11:30:00 AM 19.83 67.694 0.478 8.08 5.59 8.88
6/8/2022 11:45:00 AM 19.96 67.92799 0.478 8.08 5.28 8.92
6/8/2022 12:00:00 PM 20.11 68.198 0.477 8.08 5.59 8.97
6/8/2022 12:15:00 PM 20.28 68.504 0.477 8.08 5.87 8.99
6/8/2022 12:30:00 PM 20.47 68.846 0.477 8.09 4.84 9.06
6/8/2022 12:45:00 PM 20.67 69.206 0.477 8.09 5.85 9.11
6/8/2022 1:00:00 PM 20.87 69.566 0.477 8.09 5.74 9.15
6/8/2022 1:15:00 PM 21.11 69.998 0.477 8.09 5.68 9.21
6/8/2022 1:30:00 PM 21.31 70.358 0.477 8.09 11.08 9.26
6/8/2022 1:45:00 PM 21.51 70.718 0.476 8.09 6.2 9.31
6/8/2022 2:00:00 PM 21.77 71.186 0.48 7.6 3.1 9.58
6/8/2022 2:15:00 PM 21.95 71.51 0.48 7.93 2.91 9.61
6/8/2022 2:30:00 PM 22.14 71.852 0.48 7.98 4.23 9.67
6/8/2022 2:45:00 PM 22.31 72.158 0.479 7.99 4.16 9.66
6/8/2022 3:00:00 PM 22.44 72.392 0.479 8 4.38 9.65
6/8/2022 3:15:00 PM 22.6 72.68 0.479 8.02 3.3 9.67
6/8/2022 3:30:00 PM 22.81 73.058 0.479 8.02 2.95 9.67
6/8/2022 3:45:00 PM 22.84 73.112 0.479 8.02 2.98 9.64
6/8/2022 4:00:00 PM 22.89 73.202 0.479 8.01 3.29 9.64
6/8/2022 4:15:00 PM 22.99 73.382 0.478 8.03 3.18 9.63
6/8/2022 4:30:00 PM 22.98 73.364 0.478 8.03 3.01 9.6
6/8/2022 4:45:00 PM 23.02 73.436 0.478 8.01 3.39 9.54
6/8/2022 5:00:00 PM 23.01 73.418 0.478 8.01 4.49 9.5
6/8/2022 5:15:00 PM 22.99 73.382 0.478 8 4.11 9.43
6/8/2022 5:30:00 PM 22.9 73.22 0.478 8 3.74 9.34
6/8/2022 5:45:00 PM 22.8 73.04 0.478 8.01 3.99 9.28
6/8/2022 6:00:00 PM 22.65 72.77 0.477 7.99 4.09 9.19
6/8/2022 6:15:00 PM 22.54 72.57201 0.477 7.99 4.93 9.09
6/8/2022 6:30:00 PM 22.34 72.212 0.477 7.98 5.11 8.91
6/8/2022 6:45:00 PM 22.18 71.924 0.477 7.97 4.44 8.79
6/8/2022 7:00:00 PM 22.07 71.726 0.477 7.95 4.48 8.69
6/8/2022 7:15:00 PM 21.93 71.474 0.477 7.95 4.27 8.59
6/8/2022 7:30:00 PM 21.84 71.312 0.477 7.94 4.37 8.49
6/8/2022 7:45:00 PM 21.73 71.114 0.478 7.94 4.77 8.37
6/8/2022 8:00:00 PM 21.67 71.006 0.478 7.93 4.67 8.28
6/8/2022 8:15:00 PM 21.62 70.916 0.478 7.92 4.11 8.22
6/8/2022 8:30:00 PM 21.58 70.844 0.478 7.92 4.09 8.12
6/8/2022 8:45:00 PM 21.54 70.772 0.478 7.92 2.96 8.03
6/8/2022 9:00:00 PM 21.51 70.718 0.478 7.92 3.59 7.95
6/8/2022 9:15:00 PM 21.48 70.664 0.479 7.91 2.85 7.88
6/8/2022 9:30:00 PM 21.46 70.628 0.479 7.89 3.08 7.84
6/8/2022 9:45:00 PM 21.46 70.628 0.479 7.9 3.59 7.8
6/8/2022 10:00:00 PM 21.47 70.646 0.478 7.89 2.85 7.76
6/8/2022 10:15:00 PM 21.47 70.646 0.478 7.89 3.73 7.75
6/8/2022 10:30:00 PM 21.49 70.682 0.478 7.91 3.44 7.74
6/8/2022 10:45:00 PM 21.5 70.7 0.478 7.89 3.36 7.74
6/8/2022 11:00:00 PM 21.54 70.772 0.478 7.9 3.21 7.74
6/8/2022 11:15:00 PM 21.54 70.772 0.476 7.91 3.78 7.76
6/8/2022 11:30:00 PM 21.58 70.844 0.475 7.92 6.02 7.77
6/8/2022 11:45:00 PM 21.59 70.862 0.474 7.92 4 7.76
6/9/2022 12:00:00 AM 21.64 70.952 0.474 7.93 3.63 7.75
6/9/2022 12:15:00 AM 21.71 71.078 0.475 7.93 3.86 7.77
6/9/2022 12:30:00 AM 21.75 71.15 0.476 7.93 4.05 7.75
6/9/2022 12:45:00 AM 21.79 71.222 0.476 7.93 4.63 7.75
6/9/2022 1:00:00 AM 21.85 71.33 0.477 7.95 6.87 7.75
6/9/2022 1:15:00 AM 21.89 71.402 0.478 7.95 6.55 7.76
6/9/2022 1:30:00 AM 21.93 71.474 0.479 7.95 5.18 7.74
6/9/2022 1:45:00 AM 21.97 71.546 0.478 7.95 7.14 7.77
6/9/2022 2:00:00 AM 22 71.6 0.476 7.96 7.81 7.76
6/9/2022 2:15:00 AM 22.03 71.654 0.475 7.98 6.51 7.71
6/9/2022 2:30:00 AM 22.07 71.726 0.476 7.96 4.32 7.71
6/9/2022 2:45:00 AM 22.08 71.744 0.477 7.95 6.65 7.69
6/9/2022 3:00:00 AM 22.11 71.798 0.477 7.96 8.5 7.68
6/9/2022 3:15:00 AM 22.12 71.816 0.478 7.95 7.19 7.68
6/9/2022 3:30:00 AM 22.15 71.87 0.479 7.94 5.83 7.66
6/9/2022 3:45:00 AM 22.13 71.834 0.48 7.95 5.53 7.66
6/9/2022 4:00:00 AM 22.14 71.852 0.482 7.96 5.25 7.66
6/9/2022 4:15:00 AM 22.15 71.87 0.483 7.96 4.7 7.67
6/9/2022 4:30:00 AM 22.13 71.834 0.484 7.94 5.07 7.64
6/9/2022 4:45:00 AM 22.11 71.798 0.485 7.93 11.76 7.62
6/9/2022 5:00:00 AM 22.09 71.762 0.485 7.94 5.82 7.63
6/9/2022 5:15:00 AM 22.07 71.726 0.486 7.94 5.01 7.61
6/9/2022 5:30:00 AM 22.04 71.672 0.487 7.93 5.09 7.6
6/9/2022 5:45:00 AM 22 71.6 0.487 7.93 4.14 7.6
6/9/2022 6:00:00 AM 21.97 71.546 0.488 7.94 4.81 7.62
6/9/2022 6:15:00 AM 21.92 71.456 0.488 7.94 4.9 7.6
6/9/2022 6:30:00 AM 21.88 71.384 0.489 7.93 5.12 7.64
6/9/2022 6:45:00 AM 21.84 71.312 0.489 7.93 7.21 7.64
6/9/2022 7:00:00 AM 21.8 71.24 0.489 7.93 3.42 7.66
6/9/2022 7:15:00 AM 21.77 71.186 0.489 7.93 4 7.66
6/9/2022 7:30:00 AM 21.74 71.132 0.489 7.93 4.26 7.7
6/9/2022 7:45:00 AM 21.73 71.114 0.489 7.92 4.22 7.75
6/9/2022 8:00:00 AM 21.72 71.096 0.489 7.93 5.02 7.79
6/9/2022 8:15:00 AM 21.69 71.042 0.489 7.93 4.43 7.82
6/9/2022 8:30:00 AM 21.7 71.06 0.489 7.93 3.81 7.87
6/9/2022 8:45:00 AM 21.7 71.06 0.489 7.93 3.12 7.93
6/9/2022 9:00:00 AM 21.67 71.006 0.489 7.93 3.45 7.98
6/9/2022 9:15:00 AM 21.68 71.024 0.489 7.94 2.82 8.02
6/9/2022 9:30:00 AM 21.67 71.006 0.489 7.93 3.53 8.08
6/9/2022 9:45:00 AM 21.62 70.916 0.489 7.94 3.37 8.12
6/9/2022 10:00:00 AM 21.62 70.916 0.488 7.93 4.19 8.16
6/9/2022 10:15:00 AM 21.59 70.862 0.488 7.94 4.5 8.21
6/9/2022 10:30:00 AM 21.58 70.844 0.487 7.94 3.16 8.25
6/9/2022 10:45:00 AM 21.57 70.826 0.487 7.94 4.11 8.3
6/9/2022 11:00:00 AM 21.56 70.808 0.487 7.94 5.73 8.36
6/9/2022 11:15:00 AM 21.58 70.844 0.486 7.95 3.71 8.41
6/9/2022 11:30:00 AM 21.63 70.934 0.485 7.95 3.91 8.46
6/9/2022 11:45:00 AM 21.62 70.916 0.485 7.95 5.07 8.47
6/9/2022 12:00:00 PM 21.74 71.132 0.483 7.94 4.58 8.52
6/9/2022 12:15:00 PM 21.83 71.294 0.482 7.95 4.19 8.58
6/9/2022 12:30:00 PM 21.95 71.51 0.481 7.96 4.2 8.64
6/9/2022 12:45:00 PM 22.04 71.672 0.479 7.94 8.35 8.65
6/9/2022 1:00:00 PM 22.01 71.618 0.477 7.96 5.39 8.63
6/9/2022 1:15:00 PM 22.02 71.636 0.475 7.93 6.85 8.57
6/9/2022 1:30:00 PM 21.95 71.51 0.472 7.92 7.82 8.52
6/9/2022 1:45:00 PM 22 71.6 0.47 7.92 8.37 8.5
6/9/2022 2:00:00 PM 21.94 71.492 0.467 7.91 8.33 8.43
6/9/2022 2:15:00 PM 21.87 71.366 0.465 7.9 8.98 8.36
6/9/2022 2:30:00 PM 21.88 71.384 0.464 7.89 9.53 8.32
6/9/2022 2:45:00 PM 21.86 71.348 0.462 7.9 10.48 8.34
6/9/2022 3:00:00 PM 21.94 71.492 0.462 7.89 9.02 8.35
6/9/2022 3:15:00 PM 22.03 71.654 0.462 7.89 8.22 8.4
6/9/2022 3:30:00 PM 22.1 71.78 0.462 7.91 9.05 8.44
6/9/2022 3:45:00 PM 22.11 71.798 0.462 7.94 8.32 8.49
6/9/2022 4:00:00 PM 22.26 72.068 0.462 7.93 8.58 8.58
6/9/2022 4:15:00 PM 22.4 72.32 0.461 7.95 8.75 8.67
6/9/2022 4:30:00 PM 22.36 72.248 0.461 7.96 6.79 8.64
6/9/2022 4:45:00 PM 22.35 72.23 0.46 7.96 7.48 8.63
6/9/2022 5:00:00 PM 22.38 72.284 0.459 7.96 7.92 8.64
6/9/2022 5:15:00 PM 22.46 72.42799 0.457 7.98 6.69 8.66
6/9/2022 5:30:00 PM 22.4 72.32 0.456 7.98 7.44 8.62
6/9/2022 5:45:00 PM 22.43 72.374 0.453 7.99 7.45 8.64
6/9/2022 6:00:00 PM 22.4 72.32 0.45 7.99 9.42 8.58
6/9/2022 6:15:00 PM 22.38 72.284 0.446 7.99 7.48 8.57
6/9/2022 6:30:00 PM 22.33 72.194 0.442 7.99 9.03 8.51
6/9/2022 6:45:00 PM 22.29 72.122 0.438 7.99 8.22 8.44
6/9/2022 7:00:00 PM 22.19 71.942 0.434 7.96 11.19 8.34
6/9/2022 7:15:00 PM 22.12 71.816 0.432 7.95 10.06 8.25
6/9/2022 7:30:00 PM 22.05 71.69 0.429 7.95 8.92 8.16
6/9/2022 7:45:00 PM 22 71.6 0.428 7.94 9.48 8.09
6/9/2022 8:00:00 PM 21.96 71.528 0.426 7.93 9.76 8.03
6/9/2022 8:15:00 PM 21.93 71.474 0.425 7.93 9.88 7.98
6/9/2022 8:30:00 PM 21.92 71.456 0.424 7.91 12.35 7.94
6/9/2022 8:45:00 PM 21.87 71.366 0.423 7.92 12.26 7.9
6/9/2022 9:00:00 PM 21.86 71.348 0.421 7.91 10.66 7.87
6/9/2022 9:15:00 PM 21.83 71.294 0.419 7.9 11.32 7.84
6/9/2022 9:30:00 PM 21.79 71.222 0.418 7.89 12.71 7.82
6/9/2022 9:45:00 PM 21.74 71.132 0.416 7.89 12.05 7.8
6/9/2022 10:00:00 PM 21.69 71.042 0.414 7.87 11.34 7.78
6/9/2022 10:15:00 PM 21.66 70.988 0.412 7.87 18.11 7.76
6/9/2022 10:30:00 PM 21.63 70.934 0.411 7.87 12.32 7.76
6/9/2022 10:45:00 PM 21.57 70.826 0.409 7.86 14.66 7.75
6/9/2022 11:00:00 PM 21.52 70.736 0.408 7.84 15.12 7.72
6/9/2022 11:15:00 PM 21.5 70.7 0.406 7.85 12.69 7.73
6/9/2022 11:30:00 PM 21.45 70.61 0.404 7.84 15.61 7.72
6/9/2022 11:45:00 PM 21.39 70.502 0.403 7.82 15.77 7.72
6/10/2022 12:00:00 AM 21.32 70.376 0.402 7.83 16.47 7.72
6/10/2022 12:15:00 AM 21.25 70.25 0.401 7.82 16.12 7.7
6/10/2022 12:30:00 AM 21.19 70.142 0.4 7.82 17.44 7.71
6/10/2022 12:45:00 AM 21.11 69.998 0.399 7.82 16.88 7.71
6/10/2022 1:00:00 AM 21.03 69.854 0.399 7.81 15.7 7.72
6/10/2022 1:15:00 AM 20.94 69.692 0.397 7.8 16.61 7.72
6/10/2022 1:30:00 AM 20.87 69.566 0.396 7.8 14.9 7.71
6/10/2022 1:45:00 AM 20.78 69.404 0.394 7.79 14.63 7.7
6/10/2022 2:00:00 AM 20.7 69.26 0.392 7.8 15.39 7.7
6/10/2022 2:15:00 AM 20.62 69.116 0.39 7.78 17.52 7.71
6/10/2022 2:30:00 AM 20.54 68.972 0.386 7.79 15.88 7.73
6/10/2022 2:45:00 AM 20.46 68.828 0.384 7.77 16.52 7.73
6/10/2022 3:00:00 AM 20.39 68.702 0.38 7.77 16.64 7.74
6/10/2022 3:15:00 AM 20.32 68.576 0.376 7.77 17.29 7.72
6/10/2022 3:30:00 AM 20.24 68.432 0.373 7.75 17.09 7.74
6/10/2022 3:45:00 AM 20.16 68.288 0.37 7.75 19.35 7.71
6/10/2022 4:00:00 AM 20.09 68.162 0.366 7.73 18.95 7.73
6/10/2022 4:15:00 AM 20.03 68.054 0.362 7.72 21.84 7.73
6/10/2022 4:30:00 AM 19.94 67.892 0.359 7.72 21.07 7.72
6/10/2022 4:45:00 AM 19.87 67.766 0.356 7.7 23.92 7.73
6/10/2022 5:00:00 AM 19.8 67.64 0.353 7.7 24.93 7.74
6/10/2022 5:15:00 AM 19.73 67.514 0.35 7.7 24.67 7.73
6/10/2022 5:30:00 AM 19.66 67.388 0.347 7.68 26.34 7.71
6/10/2022 5:45:00 AM 19.6 67.28 0.344 7.68 24.4 7.72
6/10/2022 6:00:00 AM 19.52 67.136 0.343 7.68 26.02 7.72
6/10/2022 6:15:00 AM 19.47 67.046 0.34 7.67 23.64 7.73
6/10/2022 6:30:00 AM 19.42 66.956 0.338 7.66 22.92 7.72
6/10/2022 6:45:00 AM 19.38 66.884 0.336 7.67 24.46 7.74
6/10/2022 7:00:00 AM 19.35 66.83 0.335 7.66 24.5 7.75
6/10/2022 7:15:00 AM 19.3 66.74 0.333 7.65 25.42 7.75
6/10/2022 7:30:00 AM 19.28 66.704 0.332 7.64 26.45 7.79
6/10/2022 7:45:00 AM 19.26 66.668 0.332 7.65 25.82 7.79
6/10/2022 8:00:00 AM 19.24 66.632 0.331 7.66 26.34 7.82
6/10/2022 8:15:00 AM 19.23 66.614 0.331 7.66 25.49 7.84
6/10/2022 8:30:00 AM 19.22 66.596 0.331 7.65 23.73 7.87
6/10/2022 8:45:00 AM 19.21 66.578 0.331 7.65 22.56 7.91
6/10/2022 9:00:00 AM 19.21 66.578 0.332 7.67 23.12 7.95
6/10/2022 9:15:00 AM 19.22 66.596 0.332 7.66 23.39 7.99
6/10/2022 9:30:00 AM 19.22 66.596 0.333 7.67 25.24 8.02
6/10/2022 9:45:00 AM 19.24 66.632 0.334 7.67 21.84 8.08
6/10/2022 10:00:00 AM 19.24 66.632 0.335 7.68 23.93 8.14
6/10/2022 10:15:00 AM 19.28 66.704 0.336 7.69 21.89 8.2
6/10/2022 10:30:00 AM 19.31 66.758 0.337 7.7 22.89 8.23
6/10/2022 10:45:00 AM 19.35 66.83 0.339 7.71 21.32